<?xml version='1.0' encoding='UTF-8'?><gpx version="1.1" creator="JPX - https://github.com/jenetics/jpx" xmlns="http://www.topografix.com/GPX/1/1"><trk><trkseg><trkpt lat="44.7138536" lon="9.5275087"><ele>935.0000000000001</ele><time>2026-03-22T09:38:38.581Z</time></trkpt><trkpt lat="44.7138845" lon="9.5273482"><ele>935.0</ele><time>2026-03-22T09:38:40.588Z</time></trkpt><trkpt lat="44.7139253" lon="9.5272301"><ele>935.0</ele><time>2026-03-22T09:38:42.584Z</time></trkpt><trkpt lat="44.7140038" lon="9.5272048"><ele>935.0</ele><time>2026-03-22T09:38:45.584Z</time></trkpt><trkpt lat="44.714068" lon="9.5272008"><ele>935.0000000000001</ele><time>2026-03-22T09:38:48.587Z</time></trkpt><trkpt lat="44.7140976" lon="9.52711"><ele>935.0</ele><time>2026-03-22T09:38:52.574Z</time></trkpt><trkpt lat="44.714149" lon="9.5270497"><ele>936.1666666666667</ele><time>2026-03-22T09:39:01.567Z</time></trkpt><trkpt lat="44.7142285" lon="9.5270159"><ele>937.3333333333334</ele><time>2026-03-22T09:39:05.565Z</time></trkpt><trkpt lat="44.714292" lon="9.5269789"><ele>938.5</ele><time>2026-03-22T09:39:08.573Z</time></trkpt><trkpt lat="44.7143738" lon="9.5269854"><ele>939.6666666666667</ele><time>2026-03-22T09:39:11.564Z</time></trkpt><trkpt lat="44.7144589" lon="9.5269897"><ele>940.8333333333334</ele><time>2026-03-22T09:39:14.545Z</time></trkpt><trkpt lat="44.714532" lon="9.526984"><ele>942.0</ele><time>2026-03-22T09:39:16.556Z</time></trkpt><trkpt lat="44.7146203" lon="9.5269857"><ele>939.0</ele><time>2026-03-22T09:39:18.562Z</time></trkpt><trkpt lat="44.7147004" lon="9.527069"><ele>936.0</ele><time>2026-03-22T09:39:21.555Z</time></trkpt><trkpt lat="44.7146923" lon="9.5271959"><ele>933.0</ele><time>2026-03-22T09:39:23.549Z</time></trkpt><trkpt lat="44.7146631" lon="9.5273511"><ele>930.0</ele><time>2026-03-22T09:39:25.538Z</time></trkpt><trkpt lat="44.7146471" lon="9.5274412"><ele>927.0</ele><time>2026-03-22T09:39:26.545Z</time></trkpt><trkpt lat="44.7146284" lon="9.5275721"><ele>927.0</ele><time>2026-03-22T09:39:27.549Z</time></trkpt><trkpt lat="44.7146135" lon="9.5277088"><ele>927.0</ele><time>2026-03-22T09:39:28.54Z</time></trkpt><trkpt lat="44.7146324" lon="9.5278683"><ele>927.0</ele><time>2026-03-22T09:39:29.555Z</time></trkpt><trkpt lat="44.7146344" lon="9.5280016"><ele>927.0</ele><time>2026-03-22T09:39:30.542Z</time></trkpt><trkpt lat="44.7146287" lon="9.5281346"><ele>927.0</ele><time>2026-03-22T09:39:31.637Z</time></trkpt><trkpt lat="44.7146252" lon="9.5282516"><ele>924.8</ele><time>2026-03-22T09:39:32.642Z</time></trkpt><trkpt lat="44.7146152" lon="9.5283665"><ele>922.6</ele><time>2026-03-22T09:39:33.637Z</time></trkpt><trkpt lat="44.7146039" lon="9.5284918"><ele>920.3999999999999</ele><time>2026-03-22T09:39:34.634Z</time></trkpt><trkpt lat="44.7145832" lon="9.5286286"><ele>918.1999999999999</ele><time>2026-03-22T09:39:35.626Z</time></trkpt><trkpt lat="44.7145584" lon="9.5287822"><ele>916.0</ele><time>2026-03-22T09:39:36.632Z</time></trkpt><trkpt lat="44.7145372" lon="9.5289446"><ele>914.4</ele><time>2026-03-22T09:39:37.625Z</time></trkpt><trkpt lat="44.7145165" lon="9.5291009"><ele>912.8</ele><time>2026-03-22T09:39:38.632Z</time></trkpt><trkpt lat="44.7144823" lon="9.5292564"><ele>911.1999999999999</ele><time>2026-03-22T09:39:39.622Z</time></trkpt><trkpt lat="44.7144387" lon="9.5294007"><ele>909.5999999999999</ele><time>2026-03-22T09:39:40.646Z</time></trkpt><trkpt lat="44.7143952" lon="9.5295234"><ele>908.0</ele><time>2026-03-22T09:39:41.635Z</time></trkpt><trkpt lat="44.7143641" lon="9.529643"><ele>906.5000000000001</ele><time>2026-03-22T09:39:42.63Z</time></trkpt><trkpt lat="44.7143444" lon="9.5297552"><ele>905.0</ele><time>2026-03-22T09:39:43.636Z</time></trkpt><trkpt lat="44.7143254" lon="9.5298706"><ele>903.5</ele><time>2026-03-22T09:39:44.631Z</time></trkpt><trkpt lat="44.7143031" lon="9.5299836"><ele>902.0</ele><time>2026-03-22T09:39:45.63Z</time></trkpt><trkpt lat="44.7142663" lon="9.5300938"><ele>900.5000000000001</ele><time>2026-03-22T09:39:46.632Z</time></trkpt><trkpt lat="44.7142323" lon="9.5302128"><ele>899.0</ele><time>2026-03-22T09:39:47.624Z</time></trkpt><trkpt lat="44.7142019" lon="9.5303426"><ele>898.4000000000001</ele><time>2026-03-22T09:39:48.626Z</time></trkpt><trkpt lat="44.7141684" lon="9.5304805"><ele>897.8000000000001</ele><time>2026-03-22T09:39:49.626Z</time></trkpt><trkpt lat="44.7141217" lon="9.5305954"><ele>897.1999999999999</ele><time>2026-03-22T09:39:50.619Z</time></trkpt><trkpt lat="44.7140793" lon="9.5307241"><ele>896.5999999999999</ele><time>2026-03-22T09:39:51.627Z</time></trkpt><trkpt lat="44.7140296" lon="9.5308318"><ele>896.0</ele><time>2026-03-22T09:39:52.618Z</time></trkpt><trkpt lat="44.7139928" lon="9.5309444"><ele>896.0000000000001</ele><time>2026-03-22T09:39:53.619Z</time></trkpt><trkpt lat="44.7139618" lon="9.531033"><ele>896.0</ele><time>2026-03-22T09:39:55.127Z</time></trkpt><trkpt lat="44.7139213" lon="9.5311322"><ele>896.0</ele><time>2026-03-22T09:39:56.123Z</time></trkpt><trkpt lat="44.7138822" lon="9.5312245"><ele>896.0</ele><time>2026-03-22T09:39:57.035Z</time></trkpt><trkpt lat="44.7138253" lon="9.5313079"><ele>896.0000000000001</ele><time>2026-03-22T09:39:58.09Z</time></trkpt><trkpt lat="44.7137666" lon="9.5313849"><ele>896.0</ele><time>2026-03-22T09:39:59.117Z</time></trkpt><trkpt lat="44.7136172" lon="9.5315173"><ele>894.4</ele><time>2026-03-22T09:40:01.12Z</time></trkpt><trkpt lat="44.7135417" lon="9.5315864"><ele>892.8</ele><time>2026-03-22T09:40:02.118Z</time></trkpt><trkpt lat="44.7134655" lon="9.5316655"><ele>891.1999999999999</ele><time>2026-03-22T09:40:03.022Z</time></trkpt><trkpt lat="44.7133894" lon="9.5317335"><ele>889.5999999999999</ele><time>2026-03-22T09:40:04.11Z</time></trkpt><trkpt lat="44.7133046" lon="9.531812"><ele>888.0</ele><time>2026-03-22T09:40:05.117Z</time></trkpt><trkpt lat="44.713171" lon="9.5320386"><ele>886.4</ele><time>2026-03-22T09:40:06.888Z</time></trkpt><trkpt lat="44.7131163" lon="9.5321611"><ele>884.8</ele><time>2026-03-22T09:40:07.892Z</time></trkpt><trkpt lat="44.7130701" lon="9.532296"><ele>883.2</ele><time>2026-03-22T09:40:08.827Z</time></trkpt><trkpt lat="44.713028" lon="9.5324372"><ele>881.6</ele><time>2026-03-22T09:40:09.829Z</time></trkpt><trkpt lat="44.7129789" lon="9.5325744"><ele>880.0</ele><time>2026-03-22T09:40:11.113Z</time></trkpt><trkpt lat="44.71285" lon="9.5327994"><ele>877.5</ele><time>2026-03-22T09:40:12.999Z</time></trkpt><trkpt lat="44.7127837" lon="9.5329266"><ele>875.0</ele><time>2026-03-22T09:40:14.12Z</time></trkpt><trkpt lat="44.7126642" lon="9.5331342"><ele>872.5</ele><time>2026-03-22T09:40:16.024Z</time></trkpt><trkpt lat="44.7126123" lon="9.5332348"><ele>870.0</ele><time>2026-03-22T09:40:17.115Z</time></trkpt><trkpt lat="44.7124994" lon="9.5334087"><ele>869.3333333333334</ele><time>2026-03-22T09:40:18.997Z</time></trkpt><trkpt lat="44.7124293" lon="9.5334759"><ele>868.6666666666667</ele><time>2026-03-22T09:40:19.998Z</time></trkpt><trkpt lat="44.7123573" lon="9.5335307"><ele>868.0</ele><time>2026-03-22T09:40:20.983Z</time></trkpt><trkpt lat="44.7122977" lon="9.5335919"><ele>867.3333333333334</ele><time>2026-03-22T09:40:21.987Z</time></trkpt><trkpt lat="44.7122443" lon="9.5336702"><ele>866.6666666666667</ele><time>2026-03-22T09:40:22.98Z</time></trkpt><trkpt lat="44.7121928" lon="9.5337623"><ele>866.0</ele><time>2026-03-22T09:40:23.986Z</time></trkpt><trkpt lat="44.7121449" lon="9.5338497"><ele>864.8333333333334</ele><time>2026-03-22T09:40:24.985Z</time></trkpt><trkpt lat="44.7121051" lon="9.533943"><ele>863.6666666666667</ele><time>2026-03-22T09:40:25.973Z</time></trkpt><trkpt lat="44.7120691" lon="9.5340527"><ele>862.5</ele><time>2026-03-22T09:40:26.977Z</time></trkpt><trkpt lat="44.7120466" lon="9.5341739"><ele>861.3333333333333</ele><time>2026-03-22T09:40:27.997Z</time></trkpt><trkpt lat="44.7120194" lon="9.5342985"><ele>860.1666666666666</ele><time>2026-03-22T09:40:28.977Z</time></trkpt><trkpt lat="44.7119888" lon="9.5344159"><ele>859.0</ele><time>2026-03-22T09:40:29.987Z</time></trkpt><trkpt lat="44.7119626" lon="9.53453"><ele>857.1666666666666</ele><time>2026-03-22T09:40:30.97Z</time></trkpt><trkpt lat="44.7119362" lon="9.5346436"><ele>855.3333333333333</ele><time>2026-03-22T09:40:31.969Z</time></trkpt><trkpt lat="44.7119103" lon="9.5347488"><ele>853.5</ele><time>2026-03-22T09:40:32.969Z</time></trkpt><trkpt lat="44.7118806" lon="9.5348485"><ele>851.6666666666667</ele><time>2026-03-22T09:40:33.972Z</time></trkpt><trkpt lat="44.7118495" lon="9.5349479"><ele>849.8333333333334</ele><time>2026-03-22T09:40:34.964Z</time></trkpt><trkpt lat="44.7118213" lon="9.5350596"><ele>848.0</ele><time>2026-03-22T09:40:35.986Z</time></trkpt><trkpt lat="44.7117925" lon="9.5351735"><ele>848.0</ele><time>2026-03-22T09:40:37.124Z</time></trkpt><trkpt lat="44.7117486" lon="9.5353541"><ele>848.0</ele><time>2026-03-22T09:40:38.878Z</time></trkpt><trkpt lat="44.7117315" lon="9.5354445"><ele>848.0</ele><time>2026-03-22T09:40:40.118Z</time></trkpt><trkpt lat="44.7117359" lon="9.5355936"><ele>848.0</ele><time>2026-03-22T09:40:41.989Z</time></trkpt><trkpt lat="44.7117295" lon="9.5357013"><ele>848.0</ele><time>2026-03-22T09:40:43.91Z</time></trkpt><trkpt lat="44.7116729" lon="9.5358055"><ele>846.25</ele><time>2026-03-22T09:40:45.894Z</time></trkpt><trkpt lat="44.7115261" lon="9.5358908"><ele>844.5</ele><time>2026-03-22T09:40:47.495Z</time></trkpt><trkpt lat="44.7114431" lon="9.535941"><ele>842.75</ele><time>2026-03-22T09:40:48.612Z</time></trkpt><trkpt lat="44.7113559" lon="9.5360095"><ele>841.0</ele><time>2026-03-22T09:40:49.73Z</time></trkpt><trkpt lat="44.7111775" lon="9.5362031"><ele>838.75</ele><time>2026-03-22T09:40:51.607Z</time></trkpt><trkpt lat="44.7110869" lon="9.5363154"><ele>836.5</ele><time>2026-03-22T09:40:52.623Z</time></trkpt><trkpt lat="44.7109951" lon="9.5364345"><ele>834.25</ele><time>2026-03-22T09:40:53.617Z</time></trkpt><trkpt lat="44.7108986" lon="9.5365532"><ele>832.0</ele><time>2026-03-22T09:40:54.617Z</time></trkpt><trkpt lat="44.7108017" lon="9.5366717"><ele>831.75</ele><time>2026-03-22T09:40:55.628Z</time></trkpt><trkpt lat="44.7107021" lon="9.5367862"><ele>831.5</ele><time>2026-03-22T09:40:56.608Z</time></trkpt><trkpt lat="44.7106004" lon="9.5369012"><ele>831.25</ele><time>2026-03-22T09:40:57.622Z</time></trkpt><trkpt lat="44.7104973" lon="9.5370163"><ele>831.0</ele><time>2026-03-22T09:40:58.605Z</time></trkpt><trkpt lat="44.7103948" lon="9.5371207"><ele>830.5999999999999</ele><time>2026-03-22T09:40:59.603Z</time></trkpt><trkpt lat="44.7103003" lon="9.5372121"><ele>830.2</ele><time>2026-03-22T09:41:00.616Z</time></trkpt><trkpt lat="44.710219" lon="9.5373111"><ele>829.8</ele><time>2026-03-22T09:41:01.714Z</time></trkpt><trkpt lat="44.7101625" lon="9.5374385"><ele>829.4000000000001</ele><time>2026-03-22T09:41:02.719Z</time></trkpt><trkpt lat="44.7101197" lon="9.5375805"><ele>829.0</ele><time>2026-03-22T09:41:03.721Z</time></trkpt><trkpt lat="44.7100799" lon="9.5377286"><ele>828.9999999999999</ele><time>2026-03-22T09:41:04.712Z</time></trkpt><trkpt lat="44.7100437" lon="9.5378666"><ele>829.0</ele><time>2026-03-22T09:41:05.709Z</time></trkpt><trkpt lat="44.710014" lon="9.5379859"><ele>829.0</ele><time>2026-03-22T09:41:06.707Z</time></trkpt><trkpt lat="44.7099631" lon="9.5380697"><ele>829.0</ele><time>2026-03-22T09:41:07.718Z</time></trkpt><trkpt lat="44.7099106" lon="9.5381187"><ele>828.9999999999999</ele><time>2026-03-22T09:41:08.717Z</time></trkpt><trkpt lat="44.7098271" lon="9.5380647"><ele>829.0</ele><time>2026-03-22T09:41:10.718Z</time></trkpt><trkpt lat="44.7097973" lon="9.5379146"><ele>828.9999999999999</ele><time>2026-03-22T09:41:12.713Z</time></trkpt><trkpt lat="44.7097808" lon="9.5377746"><ele>829.0</ele><time>2026-03-22T09:41:14.239Z</time></trkpt><trkpt lat="44.7097406" lon="9.5376943"><ele>829.0</ele><time>2026-03-22T09:41:16.145Z</time></trkpt><trkpt lat="44.7096889" lon="9.53763"><ele>829.0</ele><time>2026-03-22T09:41:18.152Z</time></trkpt><trkpt lat="44.7096743" lon="9.5375061"><ele>828.9999999999999</ele><time>2026-03-22T09:41:21.149Z</time></trkpt><trkpt lat="44.7097018" lon="9.5374137"><ele>829.0</ele><time>2026-03-22T09:41:22.119Z</time></trkpt><trkpt lat="44.7097942" lon="9.5370671"><ele>828.4000000000001</ele><time>2026-03-22T09:41:24.009Z</time></trkpt><trkpt lat="44.7098017" lon="9.536919"><ele>827.8</ele><time>2026-03-22T09:41:25.007Z</time></trkpt><trkpt lat="44.7098075" lon="9.536792"><ele>827.2</ele><time>2026-03-22T09:41:26.018Z</time></trkpt><trkpt lat="44.7098034" lon="9.5366972"><ele>826.5999999999999</ele><time>2026-03-22T09:41:27.011Z</time></trkpt><trkpt lat="44.7097511" lon="9.5365776"><ele>826.0</ele><time>2026-03-22T09:41:29.013Z</time></trkpt><trkpt lat="44.709635" lon="9.5365105"><ele>826.0</ele><time>2026-03-22T09:41:31.007Z</time></trkpt><trkpt lat="44.7095434" lon="9.5365205"><ele>826.0</ele><time>2026-03-22T09:41:32.015Z</time></trkpt><trkpt lat="44.7094369" lon="9.5365344"><ele>826.0</ele><time>2026-03-22T09:41:33.109Z</time></trkpt><trkpt lat="44.7093327" lon="9.5365481"><ele>826.0</ele><time>2026-03-22T09:41:34.034Z</time></trkpt><trkpt lat="44.7092262" lon="9.5365621"><ele>826.0</ele><time>2026-03-22T09:41:35.016Z</time></trkpt><trkpt lat="44.7091244" lon="9.5365714"><ele>823.1999999999999</ele><time>2026-03-22T09:41:36.011Z</time></trkpt><trkpt lat="44.7090188" lon="9.5365817"><ele>820.4</ele><time>2026-03-22T09:41:37Z</time></trkpt><trkpt lat="44.7089087" lon="9.5365873"><ele>817.6</ele><time>2026-03-22T09:41:38.006Z</time></trkpt><trkpt lat="44.7087925" lon="9.5365948"><ele>814.8</ele><time>2026-03-22T09:41:39Z</time></trkpt><trkpt lat="44.7086809" lon="9.5366177"><ele>812.0</ele><time>2026-03-22T09:41:39.986Z</time></trkpt><trkpt lat="44.7085757" lon="9.5366403"><ele>809.6666666666667</ele><time>2026-03-22T09:41:40.994Z</time></trkpt><trkpt lat="44.7084878" lon="9.5366686"><ele>807.3333333333334</ele><time>2026-03-22T09:41:41.985Z</time></trkpt><trkpt lat="44.7084117" lon="9.53671"><ele>805.0</ele><time>2026-03-22T09:41:43Z</time></trkpt><trkpt lat="44.7083417" lon="9.5367414"><ele>802.6666666666667</ele><time>2026-03-22T09:41:43.994Z</time></trkpt><trkpt lat="44.708268" lon="9.5367684"><ele>800.3333333333334</ele><time>2026-03-22T09:41:44.987Z</time></trkpt><trkpt lat="44.7081941" lon="9.5368051"><ele>798.0</ele><time>2026-03-22T09:41:45.983Z</time></trkpt><trkpt lat="44.7081328" lon="9.5368394"><ele>798.0</ele><time>2026-03-22T09:41:46.988Z</time></trkpt><trkpt lat="44.7080148" lon="9.5369161"><ele>798.0</ele><time>2026-03-22T09:41:48.98Z</time></trkpt><trkpt lat="44.7079008" lon="9.5369235"><ele>798.0</ele><time>2026-03-22T09:41:50.978Z</time></trkpt><trkpt lat="44.7078337" lon="9.5369245"><ele>798.0</ele><time>2026-03-22T09:41:52.138Z</time></trkpt><trkpt lat="44.7077564" lon="9.536963"><ele>798.0</ele><time>2026-03-22T09:41:54.045Z</time></trkpt><trkpt lat="44.7077776" lon="9.5371472"><ele>797.4</ele><time>2026-03-22T09:41:56.925Z</time></trkpt><trkpt lat="44.7078213" lon="9.5372263"><ele>796.8</ele><time>2026-03-22T09:41:58.131Z</time></trkpt><trkpt lat="44.707923" lon="9.5374168"><ele>796.2</ele><time>2026-03-22T09:42:01.112Z</time></trkpt><trkpt lat="44.7078722" lon="9.5375268"><ele>795.6</ele><time>2026-03-22T09:42:03.708Z</time></trkpt><trkpt lat="44.7077844" lon="9.5375093"><ele>795.0</ele><time>2026-03-22T09:42:06.078Z</time></trkpt><trkpt lat="44.7077159" lon="9.5374399"><ele>790.75</ele><time>2026-03-22T09:42:07.169Z</time></trkpt><trkpt lat="44.7075679" lon="9.5373445"><ele>786.5</ele><time>2026-03-22T09:42:09.045Z</time></trkpt><trkpt lat="44.7074913" lon="9.5372877"><ele>782.25</ele><time>2026-03-22T09:42:10.04Z</time></trkpt><trkpt lat="44.7074222" lon="9.5372411"><ele>778.0</ele><time>2026-03-22T09:42:11.031Z</time></trkpt><trkpt lat="44.7073344" lon="9.5371169"><ele>777.9999999999999</ele><time>2026-03-22T09:42:13.119Z</time></trkpt><trkpt lat="44.7072707" lon="9.5370469"><ele>778.0</ele><time>2026-03-22T09:42:14.997Z</time></trkpt><trkpt lat="44.7072223" lon="9.5371142"><ele>778.0</ele><time>2026-03-22T09:42:19.018Z</time></trkpt><trkpt lat="44.7072584" lon="9.5371918"><ele>778.0</ele><time>2026-03-22T09:42:21.007Z</time></trkpt><trkpt lat="44.7073047" lon="9.5372719"><ele>777.9999999999999</ele><time>2026-03-22T09:42:22.993Z</time></trkpt><trkpt lat="44.707331" lon="9.5373696"><ele>778.0</ele><time>2026-03-22T09:42:24.997Z</time></trkpt><trkpt lat="44.707391" lon="9.5374958"><ele>777.9999999999999</ele><time>2026-03-22T09:42:27.089Z</time></trkpt><trkpt lat="44.7074591" lon="9.5376185"><ele>778.0</ele><time>2026-03-22T09:42:29.089Z</time></trkpt><trkpt lat="44.7074847" lon="9.5377003"><ele>778.0</ele><time>2026-03-22T09:42:30.101Z</time></trkpt><trkpt lat="44.7075156" lon="9.5377925"><ele>778.0</ele><time>2026-03-22T09:42:31.093Z</time></trkpt><trkpt lat="44.7075491" lon="9.5378902"><ele>777.9999999999999</ele><time>2026-03-22T09:42:32.093Z</time></trkpt><trkpt lat="44.7075823" lon="9.5379859"><ele>778.0</ele><time>2026-03-22T09:42:33.1Z</time></trkpt><trkpt lat="44.707607" lon="9.5380749"><ele>776.5999999999999</ele><time>2026-03-22T09:42:34.089Z</time></trkpt><trkpt lat="44.7075763" lon="9.5381985"><ele>775.1999999999999</ele><time>2026-03-22T09:42:36.084Z</time></trkpt><trkpt lat="44.7075171" lon="9.5382332"><ele>773.8</ele><time>2026-03-22T09:42:37.129Z</time></trkpt><trkpt lat="44.7074002" lon="9.5382436"><ele>772.4</ele><time>2026-03-22T09:42:39.062Z</time></trkpt><trkpt lat="44.7073001" lon="9.5383053"><ele>771.0</ele><time>2026-03-22T09:42:41.119Z</time></trkpt><trkpt lat="44.7072495" lon="9.5383667"><ele>771.0</ele><time>2026-03-22T09:42:42.136Z</time></trkpt><trkpt lat="44.707178" lon="9.5385782"><ele>771.0</ele><time>2026-03-22T09:42:44.137Z</time></trkpt><trkpt lat="44.7071432" lon="9.538822"><ele>771.0</ele><time>2026-03-22T09:42:46.115Z</time></trkpt><trkpt lat="44.7071001" lon="9.5389112"><ele>771.0</ele><time>2026-03-22T09:42:47.124Z</time></trkpt><trkpt lat="44.7070484" lon="9.5389623"><ele>773.4</ele><time>2026-03-22T09:42:48.056Z</time></trkpt><trkpt lat="44.7069756" lon="9.5390463"><ele>775.8</ele><time>2026-03-22T09:42:50.108Z</time></trkpt><trkpt lat="44.7069863" lon="9.5391498"><ele>778.1999999999999</ele><time>2026-03-22T09:42:52.106Z</time></trkpt><trkpt lat="44.7069958" lon="9.5392884"><ele>780.5999999999999</ele><time>2026-03-22T09:42:54.014Z</time></trkpt><trkpt lat="44.7069957" lon="9.539442"><ele>783.0</ele><time>2026-03-22T09:42:56.111Z</time></trkpt><trkpt lat="44.7069918" lon="9.5396124"><ele>785.6666666666666</ele><time>2026-03-22T09:42:58.12Z</time></trkpt><trkpt lat="44.7069923" lon="9.5398058"><ele>788.3333333333333</ele><time>2026-03-22T09:43:00.026Z</time></trkpt><trkpt lat="44.7070031" lon="9.5399099"><ele>791.0</ele><time>2026-03-22T09:43:01.023Z</time></trkpt><trkpt lat="44.7070206" lon="9.5400126"><ele>793.6666666666666</ele><time>2026-03-22T09:43:02.01Z</time></trkpt><trkpt lat="44.7070413" lon="9.5401122"><ele>796.3333333333333</ele><time>2026-03-22T09:43:03.031Z</time></trkpt><trkpt lat="44.7070619" lon="9.5402311"><ele>799.0</ele><time>2026-03-22T09:43:04.055Z</time></trkpt><trkpt lat="44.7070758" lon="9.5403283"><ele>800.8333333333333</ele><time>2026-03-22T09:43:05.019Z</time></trkpt><trkpt lat="44.7070881" lon="9.5404277"><ele>802.6666666666666</ele><time>2026-03-22T09:43:06.014Z</time></trkpt><trkpt lat="44.7070934" lon="9.5405499"><ele>804.5</ele><time>2026-03-22T09:43:07.01Z</time></trkpt><trkpt lat="44.7070972" lon="9.5406712"><ele>806.3333333333333</ele><time>2026-03-22T09:43:08.007Z</time></trkpt><trkpt lat="44.7071007" lon="9.5407957"><ele>808.1666666666666</ele><time>2026-03-22T09:43:09.01Z</time></trkpt><trkpt lat="44.7071197" lon="9.5409164"><ele>810.0</ele><time>2026-03-22T09:43:10.004Z</time></trkpt><trkpt lat="44.7071472" lon="9.5410242"><ele>810.0</ele><time>2026-03-22T09:43:11.129Z</time></trkpt><trkpt lat="44.7071764" lon="9.5411289"><ele>810.0</ele><time>2026-03-22T09:43:12.362Z</time></trkpt><trkpt lat="44.7072208" lon="9.5413601"><ele>810.0</ele><time>2026-03-22T09:43:14.019Z</time></trkpt><trkpt lat="44.7072352" lon="9.5414899"><ele>810.0</ele><time>2026-03-22T09:43:15.024Z</time></trkpt><trkpt lat="44.7072494" lon="9.5416185"><ele>810.0</ele><time>2026-03-22T09:43:16.025Z</time></trkpt><trkpt lat="44.7072541" lon="9.5417144"><ele>811.0</ele><time>2026-03-22T09:43:17.025Z</time></trkpt><trkpt lat="44.7072991" lon="9.54181"><ele>812.0</ele><time>2026-03-22T09:43:19.13Z</time></trkpt><trkpt lat="44.7073269" lon="9.5416953"><ele>813.0</ele><time>2026-03-22T09:43:25.129Z</time></trkpt><trkpt lat="44.7073959" lon="9.5416572"><ele>814.0</ele><time>2026-03-22T09:43:28.15Z</time></trkpt><trkpt lat="44.7074082" lon="9.5417705"><ele>815.0</ele><time>2026-03-22T09:43:31.138Z</time></trkpt><trkpt lat="44.7074222" lon="9.5419369"><ele>816.0</ele><time>2026-03-22T09:43:33.009Z</time></trkpt><trkpt lat="44.7074355" lon="9.5420364"><ele>816.0</ele><time>2026-03-22T09:43:34.004Z</time></trkpt><trkpt lat="44.7074686" lon="9.5421558"><ele>816.0</ele><time>2026-03-22T09:43:36Z</time></trkpt><trkpt lat="44.7075389" lon="9.5421652"><ele>816.0</ele><time>2026-03-22T09:43:39.004Z</time></trkpt><trkpt lat="44.7076125" lon="9.5420376"><ele>816.0</ele><time>2026-03-22T09:43:41.003Z</time></trkpt><trkpt lat="44.7076452" lon="9.5419602"><ele>816.0</ele><time>2026-03-22T09:43:42.133Z</time></trkpt><trkpt lat="44.7077051" lon="9.541822"><ele>815.8333333333334</ele><time>2026-03-22T09:43:44.007Z</time></trkpt><trkpt lat="44.7077506" lon="9.5417039"><ele>815.6666666666667</ele><time>2026-03-22T09:43:45.988Z</time></trkpt><trkpt lat="44.7077915" lon="9.5416311"><ele>815.5</ele><time>2026-03-22T09:43:47.128Z</time></trkpt><trkpt lat="44.7078412" lon="9.5415567"><ele>815.3333333333334</ele><time>2026-03-22T09:43:48.122Z</time></trkpt><trkpt lat="44.7078983" lon="9.5414763"><ele>815.1666666666667</ele><time>2026-03-22T09:43:49.118Z</time></trkpt><trkpt lat="44.7079631" lon="9.5414213"><ele>815.0</ele><time>2026-03-22T09:43:50.037Z</time></trkpt><trkpt lat="44.7080328" lon="9.5413659"><ele>815.0000000000001</ele><time>2026-03-22T09:43:51.135Z</time></trkpt><trkpt lat="44.7080939" lon="9.5413008"><ele>815.0</ele><time>2026-03-22T09:43:52.125Z</time></trkpt><trkpt lat="44.7081382" lon="9.5412244"><ele>815.0</ele><time>2026-03-22T09:43:54.125Z</time></trkpt><trkpt lat="44.7081955" lon="9.5413084"><ele>815.0</ele><time>2026-03-22T09:43:58.133Z</time></trkpt><trkpt lat="44.7082399" lon="9.541458"><ele>815.0000000000001</ele><time>2026-03-22T09:44:00.116Z</time></trkpt><trkpt lat="44.7082634" lon="9.5415464"><ele>815.0</ele><time>2026-03-22T09:44:01.122Z</time></trkpt><trkpt lat="44.7083178" lon="9.5416801"><ele>815.0</ele><time>2026-03-22T09:44:03.121Z</time></trkpt><trkpt lat="44.708419" lon="9.5417431"><ele>815.0</ele><time>2026-03-22T09:44:05.126Z</time></trkpt><trkpt lat="44.7085632" lon="9.5417927"><ele>815.0</ele><time>2026-03-22T09:44:07.01Z</time></trkpt><trkpt lat="44.7086285" lon="9.5418033"><ele>815.0</ele><time>2026-03-22T09:44:08.116Z</time></trkpt><trkpt lat="44.7087856" lon="9.5418207"><ele>815.4</ele><time>2026-03-22T09:44:10.992Z</time></trkpt><trkpt lat="44.7088551" lon="9.5418596"><ele>815.8</ele><time>2026-03-22T09:44:13.005Z</time></trkpt><trkpt lat="44.7087751" lon="9.5419455"><ele>816.2</ele><time>2026-03-22T09:44:18.049Z</time></trkpt><trkpt lat="44.7086806" lon="9.5420157"><ele>816.6</ele><time>2026-03-22T09:44:20.142Z</time></trkpt><trkpt lat="44.7085917" lon="9.5420956"><ele>817.0</ele><time>2026-03-22T09:44:22.046Z</time></trkpt><trkpt lat="44.7085072" lon="9.5422216"><ele>812.5</ele><time>2026-03-22T09:44:24.045Z</time></trkpt><trkpt lat="44.7084166" lon="9.5423441"><ele>808.0</ele><time>2026-03-22T09:44:26.115Z</time></trkpt><trkpt lat="44.7083276" lon="9.5424664"><ele>803.5</ele><time>2026-03-22T09:44:28.118Z</time></trkpt><trkpt lat="44.7082216" lon="9.5425803"><ele>799.0</ele><time>2026-03-22T09:44:30.12Z</time></trkpt><trkpt lat="44.7081748" lon="9.5426699"><ele>799.0</ele><time>2026-03-22T09:44:31.138Z</time></trkpt><trkpt lat="44.7081402" lon="9.5427883"><ele>799.0</ele><time>2026-03-22T09:44:32.124Z</time></trkpt><trkpt lat="44.7080748" lon="9.5430429"><ele>799.0</ele><time>2026-03-22T09:44:34.119Z</time></trkpt><trkpt lat="44.7080173" lon="9.5432472"><ele>799.0</ele><time>2026-03-22T09:44:36.12Z</time></trkpt><trkpt lat="44.707999" lon="9.5433443"><ele>797.8000000000001</ele><time>2026-03-22T09:44:38.152Z</time></trkpt><trkpt lat="44.7079959" lon="9.5435002"><ele>796.6</ele><time>2026-03-22T09:45:00.047Z</time></trkpt><trkpt lat="44.7079354" lon="9.5436377"><ele>795.4</ele><time>2026-03-22T09:45:02.051Z</time></trkpt><trkpt lat="44.7078947" lon="9.5437149"><ele>794.2</ele><time>2026-03-22T09:45:03.037Z</time></trkpt><trkpt lat="44.7078522" lon="9.5437829"><ele>793.0</ele><time>2026-03-22T09:45:04.12Z</time></trkpt><trkpt lat="44.7077753" lon="9.5439307"><ele>789.75</ele><time>2026-03-22T09:45:05.966Z</time></trkpt><trkpt lat="44.7076847" lon="9.5440357"><ele>786.5</ele><time>2026-03-22T09:45:08.047Z</time></trkpt><trkpt lat="44.7075796" lon="9.5440721"><ele>783.25</ele><time>2026-03-22T09:45:10.132Z</time></trkpt><trkpt lat="44.7074642" lon="9.5441634"><ele>780.0</ele><time>2026-03-22T09:45:11.954Z</time></trkpt><trkpt lat="44.7074007" lon="9.5442921"><ele>780.0</ele><time>2026-03-22T09:45:14.055Z</time></trkpt><trkpt lat="44.7073696" lon="9.5444111"><ele>780.0</ele><time>2026-03-22T09:45:16.12Z</time></trkpt><trkpt lat="44.7073297" lon="9.5445897"><ele>780.0</ele><time>2026-03-22T09:45:18.126Z</time></trkpt><trkpt lat="44.7073189" lon="9.5446776"><ele>780.0</ele><time>2026-03-22T09:45:19.125Z</time></trkpt><trkpt lat="44.7073142" lon="9.5448281"><ele>780.0</ele><time>2026-03-22T09:45:21.052Z</time></trkpt><trkpt lat="44.7073237" lon="9.5449855"><ele>778.2</ele><time>2026-03-22T09:45:23.986Z</time></trkpt><trkpt lat="44.7073003" lon="9.5451468"><ele>776.4</ele><time>2026-03-22T09:45:26.103Z</time></trkpt><trkpt lat="44.7072508" lon="9.5452982"><ele>774.5999999999999</ele><time>2026-03-22T09:45:28.124Z</time></trkpt><trkpt lat="44.7071969" lon="9.5454625"><ele>772.8</ele><time>2026-03-22T09:45:29.995Z</time></trkpt><trkpt lat="44.7071918" lon="9.5455556"><ele>771.0</ele><time>2026-03-22T09:45:32.002Z</time></trkpt><trkpt lat="44.7071785" lon="9.5456536"><ele>769.1666666666666</ele><time>2026-03-22T09:45:34.985Z</time></trkpt><trkpt lat="44.7071098" lon="9.5457273"><ele>767.3333333333334</ele><time>2026-03-22T09:45:36.982Z</time></trkpt><trkpt lat="44.7070549" lon="9.5458009"><ele>765.5</ele><time>2026-03-22T09:45:37.988Z</time></trkpt><trkpt lat="44.7069523" lon="9.5458687"><ele>763.6666666666667</ele><time>2026-03-22T09:45:40.008Z</time></trkpt><trkpt lat="44.7068952" lon="9.5459183"><ele>761.8333333333334</ele><time>2026-03-22T09:45:41.991Z</time></trkpt><trkpt lat="44.7068329" lon="9.5460131"><ele>760.0</ele><time>2026-03-22T09:45:44.034Z</time></trkpt><trkpt lat="44.706774" lon="9.5461683"><ele>755.75</ele><time>2026-03-22T09:45:46.124Z</time></trkpt><trkpt lat="44.7067325" lon="9.5463395"><ele>751.5</ele><time>2026-03-22T09:45:47.964Z</time></trkpt><trkpt lat="44.7067105" lon="9.5464443"><ele>747.25</ele><time>2026-03-22T09:45:49.137Z</time></trkpt><trkpt lat="44.7066767" lon="9.5466833"><ele>743.0</ele><time>2026-03-22T09:45:50.897Z</time></trkpt><trkpt lat="44.7066591" lon="9.5468171"><ele>743.0</ele><time>2026-03-22T09:45:52.118Z</time></trkpt><trkpt lat="44.7066193" lon="9.5469847"><ele>743.0</ele><time>2026-03-22T09:45:54.009Z</time></trkpt><trkpt lat="44.7065651" lon="9.5471203"><ele>743.0</ele><time>2026-03-22T09:45:56.037Z</time></trkpt><trkpt lat="44.7065078" lon="9.5472521"><ele>743.0</ele><time>2026-03-22T09:45:58.043Z</time></trkpt><trkpt lat="44.7064879" lon="9.5474353"><ele>741.5</ele><time>2026-03-22T09:46:00.06Z</time></trkpt><trkpt lat="44.7064561" lon="9.5475536"><ele>740.0</ele><time>2026-03-22T09:46:01.034Z</time></trkpt><trkpt lat="44.7064208" lon="9.5476541"><ele>738.5</ele><time>2026-03-22T09:46:02.042Z</time></trkpt><trkpt lat="44.7064009" lon="9.5477752"><ele>737.0</ele><time>2026-03-22T09:46:04.044Z</time></trkpt><trkpt lat="44.7064015" lon="9.5478904"><ele>735.5</ele><time>2026-03-22T09:46:06.032Z</time></trkpt><trkpt lat="44.7063896" lon="9.5480207"><ele>734.0</ele><time>2026-03-22T09:46:08.024Z</time></trkpt><trkpt lat="44.7063742" lon="9.5481489"><ele>731.8333333333333</ele><time>2026-03-22T09:46:10.022Z</time></trkpt><trkpt lat="44.7063405" lon="9.5482971"><ele>729.6666666666666</ele><time>2026-03-22T09:46:12.015Z</time></trkpt><trkpt lat="44.7062942" lon="9.5484141"><ele>727.5</ele><time>2026-03-22T09:46:14.034Z</time></trkpt><trkpt lat="44.7062479" lon="9.548476"><ele>725.3333333333334</ele><time>2026-03-22T09:46:16.031Z</time></trkpt><trkpt lat="44.7061999" lon="9.5485515"><ele>723.1666666666667</ele><time>2026-03-22T09:46:18.016Z</time></trkpt><trkpt lat="44.7061261" lon="9.5486431"><ele>721.0</ele><time>2026-03-22T09:46:20Z</time></trkpt><trkpt lat="44.706037" lon="9.548758"><ele>718.8</ele><time>2026-03-22T09:46:22.055Z</time></trkpt><trkpt lat="44.7059407" lon="9.5488871"><ele>716.5999999999999</ele><time>2026-03-22T09:46:24.015Z</time></trkpt><trkpt lat="44.7058879" lon="9.548946"><ele>714.4</ele><time>2026-03-22T09:46:25.013Z</time></trkpt><trkpt lat="44.705836" lon="9.5490117"><ele>712.2</ele><time>2026-03-22T09:46:26.006Z</time></trkpt><trkpt lat="44.7057354" lon="9.5491294"><ele>710.0</ele><time>2026-03-22T09:46:28.005Z</time></trkpt><trkpt lat="44.7056226" lon="9.5492258"><ele>710.0</ele><time>2026-03-22T09:46:30.009Z</time></trkpt><trkpt lat="44.7055396" lon="9.5493027"><ele>710.0</ele><time>2026-03-22T09:46:32.005Z</time></trkpt><trkpt lat="44.7055043" lon="9.5493794"><ele>710.0</ele><time>2026-03-22T09:46:34.013Z</time></trkpt><trkpt lat="44.7055434" lon="9.5494776"><ele>710.0</ele><time>2026-03-22T09:46:37.011Z</time></trkpt><trkpt lat="44.7055937" lon="9.5495492"><ele>710.0</ele><time>2026-03-22T09:46:40.006Z</time></trkpt><trkpt lat="44.7056631" lon="9.5495451"><ele>710.0</ele><time>2026-03-22T09:47:06.961Z</time></trkpt><trkpt lat="44.7057442" lon="9.549519"><ele>710.0</ele><time>2026-03-22T09:47:08.964Z</time></trkpt><trkpt lat="44.7058423" lon="9.5495209"><ele>710.0</ele><time>2026-03-22T09:47:11.062Z</time></trkpt><trkpt lat="44.7059643" lon="9.5495392"><ele>710.0</ele><time>2026-03-22T09:47:13.057Z</time></trkpt><trkpt lat="44.7060721" lon="9.5495597"><ele>710.0</ele><time>2026-03-22T09:47:15.064Z</time></trkpt><trkpt lat="44.7061658" lon="9.5495857"><ele>710.0</ele><time>2026-03-22T09:47:17.122Z</time></trkpt><trkpt lat="44.706233" lon="9.5496169"><ele>707.5</ele><time>2026-03-22T09:47:19.046Z</time></trkpt><trkpt lat="44.7062966" lon="9.5496651"><ele>705.0</ele><time>2026-03-22T09:47:21.049Z</time></trkpt><trkpt lat="44.7063543" lon="9.5497253"><ele>702.5</ele><time>2026-03-22T09:47:26.028Z</time></trkpt><trkpt lat="44.706411" lon="9.5497925"><ele>700.0</ele><time>2026-03-22T09:47:28.024Z</time></trkpt><trkpt lat="44.7064652" lon="9.5498573"><ele>697.5</ele><time>2026-03-22T09:47:29.022Z</time></trkpt><trkpt lat="44.7065206" lon="9.5499371"><ele>695.0</ele><time>2026-03-22T09:47:31.04Z</time></trkpt><trkpt lat="44.7065893" lon="9.5500199"><ele>695.0</ele><time>2026-03-22T09:47:33.041Z</time></trkpt><trkpt lat="44.7066662" lon="9.5501235"><ele>695.0</ele><time>2026-03-22T09:47:35.014Z</time></trkpt><trkpt lat="44.706719" lon="9.5501968"><ele>695.0</ele><time>2026-03-22T09:47:36.032Z</time></trkpt><trkpt lat="44.706804" lon="9.5503244"><ele>695.0</ele><time>2026-03-22T09:47:38.028Z</time></trkpt><trkpt lat="44.7068361" lon="9.5504183"><ele>695.0</ele><time>2026-03-22T09:47:40.03Z</time></trkpt><trkpt lat="44.7068496" lon="9.5505237"><ele>695.6</ele><time>2026-03-22T09:47:42.125Z</time></trkpt><trkpt lat="44.7069038" lon="9.5506597"><ele>696.2</ele><time>2026-03-22T09:47:44.035Z</time></trkpt><trkpt lat="44.7069469" lon="9.5507564"><ele>696.8</ele><time>2026-03-22T09:47:46.016Z</time></trkpt><trkpt lat="44.7070031" lon="9.550807"><ele>697.4</ele><time>2026-03-22T09:47:47.129Z</time></trkpt><trkpt lat="44.7070532" lon="9.5508907"><ele>698.0</ele><time>2026-03-22T09:47:48.128Z</time></trkpt><trkpt lat="44.7071339" lon="9.5510554"><ele>698.0</ele><time>2026-03-22T09:47:50.125Z</time></trkpt><trkpt lat="44.7071575" lon="9.5511385"><ele>698.0</ele><time>2026-03-22T09:47:51.117Z</time></trkpt><trkpt lat="44.707157" lon="9.5512426"><ele>698.0</ele><time>2026-03-22T09:47:52.127Z</time></trkpt><trkpt lat="44.7071763" lon="9.5514578"><ele>698.0</ele><time>2026-03-22T09:47:54.126Z</time></trkpt><trkpt lat="44.7071947" lon="9.5515507"><ele>698.0</ele><time>2026-03-22T09:47:55.124Z</time></trkpt><trkpt lat="44.7072986" lon="9.551751"><ele>695.2</ele><time>2026-03-22T09:47:58.13Z</time></trkpt><trkpt lat="44.7073992" lon="9.5519076"><ele>692.4</ele><time>2026-03-22T09:48:00.016Z</time></trkpt><trkpt lat="44.7074578" lon="9.5520053"><ele>689.6</ele><time>2026-03-22T09:48:01.004Z</time></trkpt><trkpt lat="44.7075167" lon="9.5520641"><ele>686.8000000000001</ele><time>2026-03-22T09:48:02.012Z</time></trkpt><trkpt lat="44.7076234" lon="9.5521573"><ele>684.0</ele><time>2026-03-22T09:48:03.883Z</time></trkpt><trkpt lat="44.7077136" lon="9.5522369"><ele>683.0</ele><time>2026-03-22T09:48:05.892Z</time></trkpt><trkpt lat="44.7078375" lon="9.5522008"><ele>682.0</ele><time>2026-03-22T09:48:07.883Z</time></trkpt><trkpt lat="44.7079404" lon="9.5521204"><ele>681.0</ele><time>2026-03-22T09:48:08.884Z</time></trkpt><trkpt lat="44.7080379" lon="9.5520127"><ele>680.0</ele><time>2026-03-22T09:48:09.871Z</time></trkpt><trkpt lat="44.7081088" lon="9.5518916"><ele>680.0</ele><time>2026-03-22T09:48:10.885Z</time></trkpt><trkpt lat="44.7081766" lon="9.55177"><ele>680.0</ele><time>2026-03-22T09:48:11.867Z</time></trkpt><trkpt lat="44.7082285" lon="9.5516785"><ele>680.0</ele><time>2026-03-22T09:48:12.887Z</time></trkpt><trkpt lat="44.7082809" lon="9.5516108"><ele>680.0</ele><time>2026-03-22T09:48:13.879Z</time></trkpt><trkpt lat="44.7083418" lon="9.5515642"><ele>680.0</ele><time>2026-03-22T09:48:14.872Z</time></trkpt><trkpt lat="44.7084082" lon="9.5515063"><ele>680.0</ele><time>2026-03-22T09:48:15.867Z</time></trkpt><trkpt lat="44.7085097" lon="9.5514213"><ele>680.1428571428572</ele><time>2026-03-22T09:48:17.884Z</time></trkpt><trkpt lat="44.7085799" lon="9.5514035"><ele>680.2857142857142</ele><time>2026-03-22T09:48:18.9Z</time></trkpt><trkpt lat="44.7086464" lon="9.5513806"><ele>680.4285714285714</ele><time>2026-03-22T09:48:20.118Z</time></trkpt><trkpt lat="44.7087194" lon="9.5513425"><ele>680.5714285714287</ele><time>2026-03-22T09:48:21.118Z</time></trkpt><trkpt lat="44.7087857" lon="9.5512997"><ele>680.7142857142858</ele><time>2026-03-22T09:48:22.118Z</time></trkpt><trkpt lat="44.7088409" lon="9.5512475"><ele>680.8571428571429</ele><time>2026-03-22T09:48:23.123Z</time></trkpt><trkpt lat="44.7089033" lon="9.5511973"><ele>681.0</ele><time>2026-03-22T09:48:24.124Z</time></trkpt><trkpt lat="44.7089663" lon="9.5511487"><ele>681.0</ele><time>2026-03-22T09:48:25.128Z</time></trkpt><trkpt lat="44.7090662" lon="9.5510639"><ele>681.0</ele><time>2026-03-22T09:48:27.123Z</time></trkpt><trkpt lat="44.7091518" lon="9.551026"><ele>681.0</ele><time>2026-03-22T09:48:29.156Z</time></trkpt><trkpt lat="44.7093348" lon="9.550983"><ele>681.0</ele><time>2026-03-22T09:48:32.018Z</time></trkpt><trkpt lat="44.7094039" lon="9.5509764"><ele>681.1666666666666</ele><time>2026-03-22T09:48:33.025Z</time></trkpt><trkpt lat="44.7094705" lon="9.5509614"><ele>681.3333333333334</ele><time>2026-03-22T09:48:34.019Z</time></trkpt><trkpt lat="44.7095361" lon="9.5509739"><ele>681.5</ele><time>2026-03-22T09:48:35.13Z</time></trkpt><trkpt lat="44.7096002" lon="9.5509928"><ele>681.6666666666667</ele><time>2026-03-22T09:48:36.117Z</time></trkpt><trkpt lat="44.7097339" lon="9.5509955"><ele>681.8333333333334</ele><time>2026-03-22T09:48:38.119Z</time></trkpt><trkpt lat="44.7098034" lon="9.5509901"><ele>682.0</ele><time>2026-03-22T09:48:39.125Z</time></trkpt><trkpt lat="44.7099257" lon="9.5510116"><ele>682.0</ele><time>2026-03-22T09:48:41.124Z</time></trkpt><trkpt lat="44.710005" lon="9.5510467"><ele>682.0</ele><time>2026-03-22T09:48:42.123Z</time></trkpt><trkpt lat="44.7101693" lon="9.551139"><ele>682.0</ele><time>2026-03-22T09:48:44.003Z</time></trkpt><trkpt lat="44.7102305" lon="9.5511829"><ele>682.0</ele><time>2026-03-22T09:48:45.01Z</time></trkpt><trkpt lat="44.710309" lon="9.551271"><ele>682.0</ele><time>2026-03-22T09:48:47.02Z</time></trkpt><trkpt lat="44.710397" lon="9.551335"><ele>681.1666666666667</ele><time>2026-03-22T09:48:50.04Z</time></trkpt><trkpt lat="44.7104669" lon="9.5513683"><ele>680.3333333333334</ele><time>2026-03-22T09:49:18.129Z</time></trkpt><trkpt lat="44.7105188" lon="9.5513096"><ele>679.5</ele><time>2026-03-22T09:49:20.116Z</time></trkpt><trkpt lat="44.7105638" lon="9.5512394"><ele>678.6666666666666</ele><time>2026-03-22T09:49:22.131Z</time></trkpt><trkpt lat="44.7106515" lon="9.5512197"><ele>677.8333333333333</ele><time>2026-03-22T09:49:24.013Z</time></trkpt><trkpt lat="44.710749" lon="9.5511715"><ele>677.0</ele><time>2026-03-22T09:49:26.014Z</time></trkpt><trkpt lat="44.7108334" lon="9.5511016"><ele>678.3333333333333</ele><time>2026-03-22T09:49:28.009Z</time></trkpt><trkpt lat="44.7108782" lon="9.5509065"><ele>679.6666666666666</ele><time>2026-03-22T09:49:31.007Z</time></trkpt><trkpt lat="44.7109026" lon="9.550816"><ele>681.0</ele><time>2026-03-22T09:49:32.006Z</time></trkpt><trkpt lat="44.7109453" lon="9.5507352"><ele>682.3333333333334</ele><time>2026-03-22T09:49:33.009Z</time></trkpt><trkpt lat="44.7109937" lon="9.5506498"><ele>683.6666666666667</ele><time>2026-03-22T09:49:33.998Z</time></trkpt><trkpt lat="44.7110437" lon="9.5505778"><ele>685.0</ele><time>2026-03-22T09:49:35.121Z</time></trkpt><trkpt lat="44.7111659" lon="9.5503997"><ele>687.6</ele><time>2026-03-22T09:49:38.134Z</time></trkpt><trkpt lat="44.7112062" lon="9.5503306"><ele>690.2</ele><time>2026-03-22T09:49:39.117Z</time></trkpt><trkpt lat="44.7112401" lon="9.550243"><ele>692.8</ele><time>2026-03-22T09:49:40.117Z</time></trkpt><trkpt lat="44.7113247" lon="9.5500331"><ele>695.4</ele><time>2026-03-22T09:49:42.008Z</time></trkpt><trkpt lat="44.7113656" lon="9.5499239"><ele>698.0</ele><time>2026-03-22T09:49:43.12Z</time></trkpt><trkpt lat="44.7114357" lon="9.5496954"><ele>700.0</ele><time>2026-03-22T09:49:45.121Z</time></trkpt><trkpt lat="44.7114883" lon="9.5494764"><ele>702.0</ele><time>2026-03-22T09:49:47.127Z</time></trkpt><trkpt lat="44.7115115" lon="9.5493742"><ele>704.0</ele><time>2026-03-22T09:49:48.124Z</time></trkpt><trkpt lat="44.7115096" lon="9.5492494"><ele>706.0</ele><time>2026-03-22T09:49:49.122Z</time></trkpt><trkpt lat="44.7114846" lon="9.5491421"><ele>708.0</ele><time>2026-03-22T09:49:50.055Z</time></trkpt><trkpt lat="44.7114595" lon="9.5490248"><ele>708.0</ele><time>2026-03-22T09:49:50.981Z</time></trkpt><trkpt lat="44.711453" lon="9.5489013"><ele>708.0</ele><time>2026-03-22T09:49:52.128Z</time></trkpt><trkpt lat="44.7114665" lon="9.5487839"><ele>708.0</ele><time>2026-03-22T09:49:53.121Z</time></trkpt><trkpt lat="44.7114993" lon="9.5486514"><ele>708.0</ele><time>2026-03-22T09:49:54.123Z</time></trkpt><trkpt lat="44.7115574" lon="9.5485278"><ele>708.0</ele><time>2026-03-22T09:49:55.123Z</time></trkpt><trkpt lat="44.7115897" lon="9.5484217"><ele>709.5999999999999</ele><time>2026-03-22T09:49:56.132Z</time></trkpt><trkpt lat="44.7116106" lon="9.5483116"><ele>711.1999999999999</ele><time>2026-03-22T09:49:57.135Z</time></trkpt><trkpt lat="44.711629" lon="9.5481883"><ele>712.8</ele><time>2026-03-22T09:49:58.126Z</time></trkpt><trkpt lat="44.7116824" lon="9.5479383"><ele>714.4</ele><time>2026-03-22T09:50:00.015Z</time></trkpt><trkpt lat="44.7116964" lon="9.5478295"><ele>716.0</ele><time>2026-03-22T09:50:01.008Z</time></trkpt><trkpt lat="44.7117552" lon="9.5476747"><ele>716.5</ele><time>2026-03-22T09:50:02.997Z</time></trkpt><trkpt lat="44.7117999" lon="9.5475993"><ele>717.0</ele><time>2026-03-22T09:50:04.007Z</time></trkpt><trkpt lat="44.7118428" lon="9.5475098"><ele>717.5</ele><time>2026-03-22T09:50:05.017Z</time></trkpt><trkpt lat="44.7118865" lon="9.5473939"><ele>718.0</ele><time>2026-03-22T09:50:06.009Z</time></trkpt><trkpt lat="44.7119261" lon="9.5472717"><ele>718.5</ele><time>2026-03-22T09:50:07.01Z</time></trkpt><trkpt lat="44.7119402" lon="9.5471433"><ele>719.0</ele><time>2026-03-22T09:50:08.009Z</time></trkpt><trkpt lat="44.7119578" lon="9.547017"><ele>719.0</ele><time>2026-03-22T09:50:09.013Z</time></trkpt><trkpt lat="44.7119771" lon="9.5469042"><ele>719.0</ele><time>2026-03-22T09:50:10.011Z</time></trkpt><trkpt lat="44.7120131" lon="9.546797"><ele>719.0</ele><time>2026-03-22T09:50:11.018Z</time></trkpt><trkpt lat="44.7120597" lon="9.5467017"><ele>719.0</ele><time>2026-03-22T09:50:12.012Z</time></trkpt><trkpt lat="44.7120968" lon="9.5466146"><ele>719.0</ele><time>2026-03-22T09:50:13.123Z</time></trkpt><trkpt lat="44.7121535" lon="9.5465445"><ele>719.0</ele><time>2026-03-22T09:50:14.128Z</time></trkpt><trkpt lat="44.7122353" lon="9.5464918"><ele>719.0</ele><time>2026-03-22T09:50:15.114Z</time></trkpt><trkpt lat="44.7123187" lon="9.5464388"><ele>719.0</ele><time>2026-03-22T09:50:16.128Z</time></trkpt><trkpt lat="44.7124536" lon="9.5463174"><ele>719.0</ele><time>2026-03-22T09:50:18.129Z</time></trkpt><trkpt lat="44.7125108" lon="9.546243"><ele>719.0</ele><time>2026-03-22T09:50:19.124Z</time></trkpt><trkpt lat="44.7125846" lon="9.5461682"><ele>719.0</ele><time>2026-03-22T09:50:20.122Z</time></trkpt><trkpt lat="44.7126634" lon="9.546108"><ele>719.5</ele><time>2026-03-22T09:50:21.118Z</time></trkpt><trkpt lat="44.7127417" lon="9.5460562"><ele>720.0</ele><time>2026-03-22T09:50:22.124Z</time></trkpt><trkpt lat="44.7127989" lon="9.5460162"><ele>720.5</ele><time>2026-03-22T09:50:23.126Z</time></trkpt><trkpt lat="44.7128885" lon="9.5459455"><ele>721.0</ele><time>2026-03-22T09:50:25.129Z</time></trkpt><trkpt lat="44.7129234" lon="9.5458284"><ele>721.5</ele><time>2026-03-22T09:50:27.015Z</time></trkpt><trkpt lat="44.7129401" lon="9.5457055"><ele>722.0</ele><time>2026-03-22T09:50:28.823Z</time></trkpt><trkpt lat="44.7130046" lon="9.5455323"><ele>722.0</ele><time>2026-03-22T09:50:30.638Z</time></trkpt><trkpt lat="44.7130634" lon="9.5454164"><ele>722.0</ele><time>2026-03-22T09:50:31.647Z</time></trkpt><trkpt lat="44.7131228" lon="9.5452984"><ele>722.0</ele><time>2026-03-22T09:50:33.128Z</time></trkpt><trkpt lat="44.7131804" lon="9.5451977"><ele>722.0</ele><time>2026-03-22T09:50:34.127Z</time></trkpt><trkpt lat="44.7131995" lon="9.5450866"><ele>722.0</ele><time>2026-03-22T09:50:35.124Z</time></trkpt><trkpt lat="44.7131895" lon="9.5449717"><ele>722.0</ele><time>2026-03-22T09:50:36.126Z</time></trkpt><trkpt lat="44.713174" lon="9.544727"><ele>722.0</ele><time>2026-03-22T09:50:38.014Z</time></trkpt><trkpt lat="44.7131801" lon="9.5446076"><ele>722.0</ele><time>2026-03-22T09:50:39.011Z</time></trkpt><trkpt lat="44.7131879" lon="9.5444844"><ele>722.0</ele><time>2026-03-22T09:50:40.015Z</time></trkpt><trkpt lat="44.7132111" lon="9.5443799"><ele>722.0</ele><time>2026-03-22T09:50:41.007Z</time></trkpt><trkpt lat="44.7132411" lon="9.5442924"><ele>722.0</ele><time>2026-03-22T09:50:42.011Z</time></trkpt><trkpt lat="44.7133237" lon="9.5441878"><ele>722.0</ele><time>2026-03-22T09:50:44.004Z</time></trkpt><trkpt lat="44.7134177" lon="9.5441818"><ele>722.0</ele><time>2026-03-22T09:50:46.006Z</time></trkpt><trkpt lat="44.7134949" lon="9.5442069"><ele>722.0</ele><time>2026-03-22T09:50:47.128Z</time></trkpt><trkpt lat="44.713608" lon="9.5443241"><ele>722.0</ele><time>2026-03-22T09:50:49.009Z</time></trkpt><trkpt lat="44.7136994" lon="9.5444363"><ele>720.8</ele><time>2026-03-22T09:50:51.013Z</time></trkpt><trkpt lat="44.7138149" lon="9.5444506"><ele>719.6</ele><time>2026-03-22T09:50:53.12Z</time></trkpt><trkpt lat="44.7139264" lon="9.5444462"><ele>718.4</ele><time>2026-03-22T09:50:55.122Z</time></trkpt><trkpt lat="44.713989" lon="9.5444278"><ele>717.1999999999999</ele><time>2026-03-22T09:50:56.123Z</time></trkpt><trkpt lat="44.7140584" lon="9.544406"><ele>716.0</ele><time>2026-03-22T09:50:57.127Z</time></trkpt><trkpt lat="44.7141689" lon="9.5443778"><ele>716.0</ele><time>2026-03-22T09:50:59.119Z</time></trkpt><trkpt lat="44.7142378" lon="9.5443618"><ele>716.0</ele><time>2026-03-22T09:51:00.123Z</time></trkpt><trkpt lat="44.714355" lon="9.5443664"><ele>716.0</ele><time>2026-03-22T09:51:02.137Z</time></trkpt><trkpt lat="44.7144185" lon="9.5443793"><ele>716.0</ele><time>2026-03-22T09:51:03.12Z</time></trkpt><trkpt lat="44.714541" lon="9.5444259"><ele>716.0</ele><time>2026-03-22T09:51:05.124Z</time></trkpt><trkpt lat="44.7146116" lon="9.5444469"><ele>716.25</ele><time>2026-03-22T09:51:06.125Z</time></trkpt><trkpt lat="44.7146922" lon="9.5444455"><ele>716.5</ele><time>2026-03-22T09:51:07.126Z</time></trkpt><trkpt lat="44.7148375" lon="9.5444513"><ele>716.75</ele><time>2026-03-22T09:51:09.123Z</time></trkpt><trkpt lat="44.7149047" lon="9.5444297"><ele>717.0</ele><time>2026-03-22T09:51:10.128Z</time></trkpt><trkpt lat="44.715131" lon="9.5443173"><ele>717.0</ele><time>2026-03-22T09:51:13.002Z</time></trkpt><trkpt lat="44.7152238" lon="9.5443009"><ele>717.0</ele><time>2026-03-22T09:51:14.118Z</time></trkpt><trkpt lat="44.7153194" lon="9.544286"><ele>717.0</ele><time>2026-03-22T09:51:15.124Z</time></trkpt><trkpt lat="44.7154992" lon="9.5442405"><ele>717.0</ele><time>2026-03-22T09:51:17.011Z</time></trkpt><trkpt lat="44.7155759" lon="9.544217"><ele>717.0</ele><time>2026-03-22T09:51:18.005Z</time></trkpt><trkpt lat="44.715676" lon="9.5442085"><ele>717.0</ele><time>2026-03-22T09:51:19.013Z</time></trkpt><trkpt lat="44.7157627" lon="9.5442104"><ele>717.0</ele><time>2026-03-22T09:51:20.009Z</time></trkpt><trkpt lat="44.715835" lon="9.5442136"><ele>717.0</ele><time>2026-03-22T09:51:21.009Z</time></trkpt><trkpt lat="44.7159351" lon="9.5442208"><ele>717.0</ele><time>2026-03-22T09:51:23.012Z</time></trkpt><trkpt lat="44.7160072" lon="9.5441949"><ele>717.0</ele><time>2026-03-22T09:51:24.012Z</time></trkpt><trkpt lat="44.7160783" lon="9.5441832"><ele>715.3333333333334</ele><time>2026-03-22T09:51:25.034Z</time></trkpt><trkpt lat="44.7161472" lon="9.5441744"><ele>713.6666666666666</ele><time>2026-03-22T09:51:26.087Z</time></trkpt><trkpt lat="44.7162093" lon="9.5441589"><ele>712.0</ele><time>2026-03-22T09:51:26.995Z</time></trkpt><trkpt lat="44.7163074" lon="9.5441533"><ele>710.3333333333333</ele><time>2026-03-22T09:51:29.002Z</time></trkpt><trkpt lat="44.71637" lon="9.5441847"><ele>708.6666666666666</ele><time>2026-03-22T09:51:31Z</time></trkpt><trkpt lat="44.7163962" lon="9.5442695"><ele>707.0</ele><time>2026-03-22T09:51:33.119Z</time></trkpt><trkpt lat="44.7164079" lon="9.5443982"><ele>707.0</ele><time>2026-03-22T09:51:35.121Z</time></trkpt><trkpt lat="44.7164012" lon="9.5444888"><ele>707.0</ele><time>2026-03-22T09:51:36.123Z</time></trkpt><trkpt lat="44.7163842" lon="9.5446139"><ele>707.0</ele><time>2026-03-22T09:51:38.123Z</time></trkpt><trkpt lat="44.7163626" lon="9.5447223"><ele>707.0</ele><time>2026-03-22T09:51:40.118Z</time></trkpt><trkpt lat="44.716348" lon="9.544884"><ele>707.0</ele><time>2026-03-22T09:51:42.123Z</time></trkpt><trkpt lat="44.7163657" lon="9.5450022"><ele>707.0</ele><time>2026-03-22T09:51:43.134Z</time></trkpt><trkpt lat="44.716387" lon="9.54517"><ele>705.5</ele><time>2026-03-22T09:51:45.119Z</time></trkpt><trkpt lat="44.7163922" lon="9.5452746"><ele>704.0</ele><time>2026-03-22T09:51:46.116Z</time></trkpt><trkpt lat="44.7164037" lon="9.545378"><ele>702.5</ele><time>2026-03-22T09:51:47.123Z</time></trkpt><trkpt lat="44.7164269" lon="9.545471"><ele>701.0</ele><time>2026-03-22T09:51:48.033Z</time></trkpt><trkpt lat="44.7164424" lon="9.545591"><ele>699.5</ele><time>2026-03-22T09:51:49.152Z</time></trkpt><trkpt lat="44.7164667" lon="9.5457599"><ele>698.0</ele><time>2026-03-22T09:51:50.92Z</time></trkpt><trkpt lat="44.7164802" lon="9.545871"><ele>695.8</ele><time>2026-03-22T09:51:52.117Z</time></trkpt><trkpt lat="44.7164704" lon="9.5459638"><ele>693.5999999999999</ele><time>2026-03-22T09:51:53.127Z</time></trkpt><trkpt lat="44.7164565" lon="9.5460934"><ele>691.4000000000001</ele><time>2026-03-22T09:51:55.01Z</time></trkpt><trkpt lat="44.7165237" lon="9.5462486"><ele>689.2</ele><time>2026-03-22T09:51:57.002Z</time></trkpt><trkpt lat="44.716565" lon="9.5463639"><ele>687.0</ele><time>2026-03-22T09:51:58.01Z</time></trkpt><trkpt lat="44.716596" lon="9.5464542"><ele>685.0</ele><time>2026-03-22T09:51:59.005Z</time></trkpt><trkpt lat="44.7166244" lon="9.5466001"><ele>683.0</ele><time>2026-03-22T09:52:00.961Z</time></trkpt><trkpt lat="44.7165965" lon="9.5467376"><ele>681.0</ele><time>2026-03-22T09:52:02.963Z</time></trkpt><trkpt lat="44.716573" lon="9.5468306"><ele>679.0</ele><time>2026-03-22T09:52:03.966Z</time></trkpt><trkpt lat="44.7165568" lon="9.5469767"><ele>677.0</ele><time>2026-03-22T09:52:05.964Z</time></trkpt><trkpt lat="44.7165579" lon="9.5471134"><ele>674.6</ele><time>2026-03-22T09:52:07.96Z</time></trkpt><trkpt lat="44.7165753" lon="9.5472372"><ele>672.2</ele><time>2026-03-22T09:52:10.123Z</time></trkpt><trkpt lat="44.716597" lon="9.5473621"><ele>669.8</ele><time>2026-03-22T09:52:11.918Z</time></trkpt><trkpt lat="44.7166462" lon="9.5476107"><ele>667.4</ele><time>2026-03-22T09:52:15.12Z</time></trkpt><trkpt lat="44.7166708" lon="9.547707"><ele>665.0</ele><time>2026-03-22T09:52:16.127Z</time></trkpt><trkpt lat="44.7167228" lon="9.5478819"><ele>662.8</ele><time>2026-03-22T09:52:17.903Z</time></trkpt><trkpt lat="44.7168026" lon="9.5480317"><ele>660.6</ele><time>2026-03-22T09:52:21.121Z</time></trkpt><trkpt lat="44.7168741" lon="9.5480903"><ele>658.4000000000001</ele><time>2026-03-22T09:52:24.128Z</time></trkpt><trkpt lat="44.7169782" lon="9.5481655"><ele>656.2</ele><time>2026-03-22T09:52:26.117Z</time></trkpt><trkpt lat="44.7170256" lon="9.5482729"><ele>654.0</ele><time>2026-03-22T09:52:28.015Z</time></trkpt><trkpt lat="44.7170539" lon="9.548353"><ele>653.0</ele><time>2026-03-22T09:52:29.016Z</time></trkpt><trkpt lat="44.7170888" lon="9.5484471"><ele>652.0</ele><time>2026-03-22T09:52:30.009Z</time></trkpt><trkpt lat="44.7171916" lon="9.5486632"><ele>651.0</ele><time>2026-03-22T09:52:32.721Z</time></trkpt><trkpt lat="44.7172405" lon="9.5488079"><ele>650.0</ele><time>2026-03-22T09:52:34.732Z</time></trkpt><trkpt lat="44.7172217" lon="9.548948"><ele>649.0</ele><time>2026-03-22T09:52:36.718Z</time></trkpt><trkpt lat="44.7171273" lon="9.5490463"><ele>648.0</ele><time>2026-03-22T09:52:40.032Z</time></trkpt><trkpt lat="44.717064" lon="9.5490383"><ele>647.0</ele><time>2026-03-22T09:52:42.997Z</time></trkpt><trkpt lat="44.7169971" lon="9.5490057"><ele>646.0</ele><time>2026-03-22T09:52:46.016Z</time></trkpt><trkpt lat="44.7169339" lon="9.549037"><ele>645.0</ele><time>2026-03-22T09:52:49.123Z</time></trkpt><trkpt lat="44.7168562" lon="9.5490483"><ele>644.0</ele><time>2026-03-22T09:52:52.108Z</time></trkpt><trkpt lat="44.7167601" lon="9.5490531"><ele>644.0</ele><time>2026-03-22T09:52:55.127Z</time></trkpt><trkpt lat="44.7166556" lon="9.5490721"><ele>644.0</ele><time>2026-03-22T09:52:58.114Z</time></trkpt><trkpt lat="44.7165864" lon="9.549116"><ele>644.0</ele><time>2026-03-22T09:53:01.125Z</time></trkpt><trkpt lat="44.7165154" lon="9.5491736"><ele>644.0</ele><time>2026-03-22T09:53:04.116Z</time></trkpt><trkpt lat="44.716441" lon="9.5492016"><ele>644.0</ele><time>2026-03-22T09:53:06.118Z</time></trkpt><trkpt lat="44.7163748" lon="9.5492609"><ele>644.0</ele><time>2026-03-22T09:53:08.127Z</time></trkpt><trkpt lat="44.7163097" lon="9.5493574"><ele>644.0</ele><time>2026-03-22T09:53:11.142Z</time></trkpt><trkpt lat="44.7162699" lon="9.549467"><ele>644.0</ele><time>2026-03-22T09:53:13.01Z</time></trkpt><trkpt lat="44.7162203" lon="9.5495371"><ele>644.0</ele><time>2026-03-22T09:53:15.013Z</time></trkpt><trkpt lat="44.7161377" lon="9.5496147"><ele>644.0</ele><time>2026-03-22T09:53:17.007Z</time></trkpt><trkpt lat="44.7160596" lon="9.5496793"><ele>644.0</ele><time>2026-03-22T09:53:19.013Z</time></trkpt><trkpt lat="44.7160076" lon="9.5497308"><ele>644.0</ele><time>2026-03-22T09:53:20.005Z</time></trkpt><trkpt lat="44.7159484" lon="9.549785"><ele>645.5</ele><time>2026-03-22T09:53:20.988Z</time></trkpt><trkpt lat="44.7158828" lon="9.549881"><ele>647.0</ele><time>2026-03-22T09:53:23Z</time></trkpt><trkpt lat="44.7157983" lon="9.5499569"><ele>648.5</ele><time>2026-03-22T09:53:24.994Z</time></trkpt><trkpt lat="44.7156986" lon="9.5500215"><ele>650.0</ele><time>2026-03-22T09:53:27.108Z</time></trkpt><trkpt lat="44.7156354" lon="9.5500487"><ele>651.5</ele><time>2026-03-22T09:53:28.015Z</time></trkpt><trkpt lat="44.7155705" lon="9.5500684"><ele>653.0</ele><time>2026-03-22T09:53:29.133Z</time></trkpt><trkpt lat="44.7154703" lon="9.55009"><ele>653.0</ele><time>2026-03-22T09:53:31.12Z</time></trkpt><trkpt lat="44.7153654" lon="9.550204"><ele>653.0</ele><time>2026-03-22T09:53:34.115Z</time></trkpt><trkpt lat="44.7153455" lon="9.5502927"><ele>653.0</ele><time>2026-03-22T09:53:36.125Z</time></trkpt><trkpt lat="44.71535" lon="9.5503934"><ele>653.0</ele><time>2026-03-22T09:53:40.125Z</time></trkpt><trkpt lat="44.7153638" lon="9.5504976"><ele>653.0</ele><time>2026-03-22T09:54:25.139Z</time></trkpt><trkpt lat="44.7154302" lon="9.5505986"><ele>653.0</ele><time>2026-03-22T09:54:27.994Z</time></trkpt><trkpt lat="44.7154937" lon="9.5506872"><ele>652.6666666666666</ele><time>2026-03-22T09:54:30Z</time></trkpt><trkpt lat="44.7155525" lon="9.5508071"><ele>652.3333333333333</ele><time>2026-03-22T09:54:31.99Z</time></trkpt><trkpt lat="44.7155928" lon="9.5509187"><ele>652.0</ele><time>2026-03-22T09:54:33.998Z</time></trkpt><trkpt lat="44.7156303" lon="9.5510093"><ele>651.6666666666666</ele><time>2026-03-22T09:54:36.996Z</time></trkpt><trkpt lat="44.7156114" lon="9.5511061"><ele>651.3333333333334</ele><time>2026-03-22T09:54:39.999Z</time></trkpt><trkpt lat="44.7155742" lon="9.551224"><ele>651.0</ele><time>2026-03-22T09:54:43.005Z</time></trkpt><trkpt lat="44.7155388" lon="9.5513147"><ele>650.1999999999999</ele><time>2026-03-22T09:54:46.113Z</time></trkpt><trkpt lat="44.7154603" lon="9.551358"><ele>649.4</ele><time>2026-03-22T09:54:48.112Z</time></trkpt><trkpt lat="44.7153978" lon="9.5514393"><ele>648.6</ele><time>2026-03-22T09:54:51.123Z</time></trkpt><trkpt lat="44.7152952" lon="9.5514719"><ele>647.8</ele><time>2026-03-22T09:54:54.137Z</time></trkpt><trkpt lat="44.7151965" lon="9.5515177"><ele>647.0</ele><time>2026-03-22T09:54:56.021Z</time></trkpt><trkpt lat="44.7151135" lon="9.5515773"><ele>647.0</ele><time>2026-03-22T09:54:58.118Z</time></trkpt><trkpt lat="44.7150098" lon="9.5516448"><ele>647.0</ele><time>2026-03-22T09:55:00.108Z</time></trkpt><trkpt lat="44.7149339" lon="9.5517119"><ele>647.0</ele><time>2026-03-22T09:55:01.116Z</time></trkpt><trkpt lat="44.7148612" lon="9.5517748"><ele>647.0</ele><time>2026-03-22T09:55:02.106Z</time></trkpt><trkpt lat="44.7147836" lon="9.5518667"><ele>647.0</ele><time>2026-03-22T09:55:03.118Z</time></trkpt><trkpt lat="44.7147123" lon="9.5519459"><ele>647.75</ele><time>2026-03-22T09:55:04.117Z</time></trkpt><trkpt lat="44.7145594" lon="9.5521091"><ele>648.5</ele><time>2026-03-22T09:55:06.039Z</time></trkpt><trkpt lat="44.7144879" lon="9.5521919"><ele>649.25</ele><time>2026-03-22T09:55:07.028Z</time></trkpt><trkpt lat="44.7144111" lon="9.5522665"><ele>650.0</ele><time>2026-03-22T09:55:08.03Z</time></trkpt><trkpt lat="44.7143307" lon="9.5523309"><ele>650.0</ele><time>2026-03-22T09:55:09.029Z</time></trkpt><trkpt lat="44.7142598" lon="9.5523909"><ele>650.0</ele><time>2026-03-22T09:55:10.027Z</time></trkpt><trkpt lat="44.7142043" lon="9.5524423"><ele>650.0</ele><time>2026-03-22T09:55:11.032Z</time></trkpt><trkpt lat="44.714154" lon="9.5525246"><ele>650.0</ele><time>2026-03-22T09:55:13.029Z</time></trkpt><trkpt lat="44.7141188" lon="9.5526308"><ele>650.0</ele><time>2026-03-22T09:55:15.122Z</time></trkpt><trkpt lat="44.7140989" lon="9.5528276"><ele>648.0</ele><time>2026-03-22T09:55:17.031Z</time></trkpt><trkpt lat="44.7140963" lon="9.5529209"><ele>646.0</ele><time>2026-03-22T09:55:18.02Z</time></trkpt><trkpt lat="44.7140755" lon="9.5530705"><ele>644.0</ele><time>2026-03-22T09:55:20.003Z</time></trkpt><trkpt lat="44.7140277" lon="9.553227"><ele>642.0</ele><time>2026-03-22T09:55:22.108Z</time></trkpt><trkpt lat="44.7139974" lon="9.5533135"><ele>640.0</ele><time>2026-03-22T09:55:23.12Z</time></trkpt><trkpt lat="44.7139396" lon="9.553459"><ele>640.0</ele><time>2026-03-22T09:55:25.122Z</time></trkpt><trkpt lat="44.7138996" lon="9.553531"><ele>640.0</ele><time>2026-03-22T09:55:26.117Z</time></trkpt><trkpt lat="44.7138201" lon="9.553657"><ele>640.0</ele><time>2026-03-22T09:55:28.12Z</time></trkpt><trkpt lat="44.7137089" lon="9.5537145"><ele>640.0</ele><time>2026-03-22T09:55:30.127Z</time></trkpt><trkpt lat="44.7135834" lon="9.5537998"><ele>640.0</ele><time>2026-03-22T09:55:32.121Z</time></trkpt><trkpt lat="44.7133879" lon="9.5539331"><ele>638.3333333333334</ele><time>2026-03-22T09:55:34.124Z</time></trkpt><trkpt lat="44.7133101" lon="9.5540023"><ele>636.6666666666667</ele><time>2026-03-22T09:55:35.127Z</time></trkpt><trkpt lat="44.7132371" lon="9.5540546"><ele>635.0</ele><time>2026-03-22T09:55:36.121Z</time></trkpt><trkpt lat="44.7131813" lon="9.5541081"><ele>633.3333333333334</ele><time>2026-03-22T09:55:37.121Z</time></trkpt><trkpt lat="44.7131248" lon="9.5541549"><ele>631.6666666666666</ele><time>2026-03-22T09:55:38.04Z</time></trkpt><trkpt lat="44.7130702" lon="9.554209"><ele>630.0</ele><time>2026-03-22T09:55:39.043Z</time></trkpt><trkpt lat="44.7130199" lon="9.5542889"><ele>630.0</ele><time>2026-03-22T09:55:40.12Z</time></trkpt><trkpt lat="44.7129398" lon="9.5545229"><ele>630.0</ele><time>2026-03-22T09:55:41.984Z</time></trkpt><trkpt lat="44.7129118" lon="9.5546409"><ele>630.0</ele><time>2026-03-22T09:55:43.128Z</time></trkpt><trkpt lat="44.7128773" lon="9.5547693"><ele>630.0</ele><time>2026-03-22T09:55:44.035Z</time></trkpt><trkpt lat="44.7128418" lon="9.5548903"><ele>626.8333333333334</ele><time>2026-03-22T09:55:45.041Z</time></trkpt><trkpt lat="44.7128182" lon="9.5550033"><ele>623.6666666666666</ele><time>2026-03-22T09:55:46.034Z</time></trkpt><trkpt lat="44.7128023" lon="9.5551106"><ele>620.5</ele><time>2026-03-22T09:55:47.041Z</time></trkpt><trkpt lat="44.7128321" lon="9.5552399"><ele>617.3333333333333</ele><time>2026-03-22T09:55:49.123Z</time></trkpt><trkpt lat="44.7129204" lon="9.5552887"><ele>614.1666666666666</ele><time>2026-03-22T09:55:51.12Z</time></trkpt><trkpt lat="44.7129838" lon="9.5553461"><ele>611.0</ele><time>2026-03-22T09:55:52.123Z</time></trkpt><trkpt lat="44.713059" lon="9.5554141"><ele>608.0</ele><time>2026-03-22T09:55:53.122Z</time></trkpt><trkpt lat="44.7131388" lon="9.5554814"><ele>605.0</ele><time>2026-03-22T09:55:54.136Z</time></trkpt><trkpt lat="44.7132323" lon="9.5555416"><ele>602.0</ele><time>2026-03-22T09:55:55.134Z</time></trkpt><trkpt lat="44.7133147" lon="9.5555833"><ele>599.0</ele><time>2026-03-22T09:55:56.148Z</time></trkpt><trkpt lat="44.7133868" lon="9.5556225"><ele>596.0</ele><time>2026-03-22T09:55:57.125Z</time></trkpt><trkpt lat="44.7134493" lon="9.5556915"><ele>593.0</ele><time>2026-03-22T09:55:59.123Z</time></trkpt><trkpt lat="44.7135168" lon="9.5557486"><ele>593.5714285714286</ele><time>2026-03-22T09:56:06.117Z</time></trkpt><trkpt lat="44.7135955" lon="9.5557089"><ele>594.1428571428571</ele><time>2026-03-22T09:56:08.07Z</time></trkpt><trkpt lat="44.7136653" lon="9.5556637"><ele>594.7142857142858</ele><time>2026-03-22T09:56:09.047Z</time></trkpt><trkpt lat="44.7137381" lon="9.5556212"><ele>595.2857142857142</ele><time>2026-03-22T09:56:10.113Z</time></trkpt><trkpt lat="44.7137995" lon="9.5555887"><ele>595.8571428571429</ele><time>2026-03-22T09:56:11.123Z</time></trkpt><trkpt lat="44.713865" lon="9.5555699"><ele>596.4285714285714</ele><time>2026-03-22T09:56:12.105Z</time></trkpt><trkpt lat="44.7139288" lon="9.5555632"><ele>597.0</ele><time>2026-03-22T09:56:13.122Z</time></trkpt><trkpt lat="44.7139982" lon="9.5555704"><ele>597.0</ele><time>2026-03-22T09:56:14.119Z</time></trkpt><trkpt lat="44.7141437" lon="9.5555811"><ele>597.0</ele><time>2026-03-22T09:56:17.124Z</time></trkpt><trkpt lat="44.7141987" lon="9.5556645"><ele>597.0</ele><time>2026-03-22T09:56:20.131Z</time></trkpt><trkpt lat="44.7142193" lon="9.5557612"><ele>597.0</ele><time>2026-03-22T09:56:22.981Z</time></trkpt><trkpt lat="44.71418" lon="9.5558548"><ele>597.0</ele><time>2026-03-22T09:56:25.967Z</time></trkpt><trkpt lat="44.7141242" lon="9.5559235"><ele>597.0</ele><time>2026-03-22T09:56:28.965Z</time></trkpt><trkpt lat="44.7140591" lon="9.5559896"><ele>597.0</ele><time>2026-03-22T09:56:31.974Z</time></trkpt><trkpt lat="44.7140142" lon="9.5560808"><ele>597.0</ele><time>2026-03-22T09:56:34.969Z</time></trkpt><trkpt lat="44.7140347" lon="9.5561879"><ele>597.0</ele><time>2026-03-22T09:56:40.972Z</time></trkpt><trkpt lat="44.7140981" lon="9.556251"><ele>597.0</ele><time>2026-03-22T09:56:44.988Z</time></trkpt><trkpt lat="44.7141549" lon="9.5563029"><ele>597.0</ele><time>2026-03-22T09:56:49.989Z</time></trkpt><trkpt lat="44.7142336" lon="9.5563095"><ele>595.0000000000001</ele><time>2026-03-22T09:56:53.007Z</time></trkpt><trkpt lat="44.7143097" lon="9.5563257"><ele>593.0</ele><time>2026-03-22T09:56:55.985Z</time></trkpt><trkpt lat="44.7143785" lon="9.556335"><ele>591.0</ele><time>2026-03-22T09:56:58.982Z</time></trkpt><trkpt lat="44.7144404" lon="9.5563801"><ele>589.0</ele><time>2026-03-22T09:57:01.97Z</time></trkpt><trkpt lat="44.7145008" lon="9.5564349"><ele>587.0</ele><time>2026-03-22T09:57:04.985Z</time></trkpt><trkpt lat="44.7145677" lon="9.5564703"><ele>585.0000000000001</ele><time>2026-03-22T09:57:08.972Z</time></trkpt><trkpt lat="44.7145795" lon="9.5565595"><ele>583.0</ele><time>2026-03-22T09:57:09.982Z</time></trkpt><trkpt lat="44.714639" lon="9.5567007"><ele>580.8571428571429</ele><time>2026-03-22T09:57:11.976Z</time></trkpt><trkpt lat="44.7147084" lon="9.5567183"><ele>578.7142857142858</ele><time>2026-03-22T09:57:20.989Z</time></trkpt><trkpt lat="44.7148069" lon="9.5566667"><ele>576.5714285714286</ele><time>2026-03-22T09:57:22.991Z</time></trkpt><trkpt lat="44.7148706" lon="9.5566291"><ele>574.4285714285714</ele><time>2026-03-22T09:57:23.985Z</time></trkpt><trkpt lat="44.7149348" lon="9.5565879"><ele>572.2857142857142</ele><time>2026-03-22T09:57:24.978Z</time></trkpt><trkpt lat="44.7149896" lon="9.5565337"><ele>570.1428571428571</ele><time>2026-03-22T09:57:25.999Z</time></trkpt><trkpt lat="44.7150409" lon="9.5564779"><ele>568.0</ele><time>2026-03-22T09:57:26.972Z</time></trkpt><trkpt lat="44.71512" lon="9.556364"><ele>568.0</ele><time>2026-03-22T09:57:29.13Z</time></trkpt><trkpt lat="44.7151635" lon="9.556282"><ele>568.0</ele><time>2026-03-22T09:57:30.128Z</time></trkpt><trkpt lat="44.7152157" lon="9.5561709"><ele>568.0</ele><time>2026-03-22T09:57:31.124Z</time></trkpt><trkpt lat="44.7153425" lon="9.5559848"><ele>568.0</ele><time>2026-03-22T09:57:33.012Z</time></trkpt><trkpt lat="44.7153955" lon="9.5559258"><ele>568.0</ele><time>2026-03-22T09:57:34.02Z</time></trkpt><trkpt lat="44.7154543" lon="9.5558657"><ele>568.5</ele><time>2026-03-22T09:57:35.016Z</time></trkpt><trkpt lat="44.7155119" lon="9.5558191"><ele>569.0</ele><time>2026-03-22T09:57:36.014Z</time></trkpt><trkpt lat="44.7156143" lon="9.5557156"><ele>569.5</ele><time>2026-03-22T09:57:37.999Z</time></trkpt><trkpt lat="44.715664" lon="9.5556444"><ele>570.0</ele><time>2026-03-22T09:57:38.998Z</time></trkpt><trkpt lat="44.7157396" lon="9.5555326"><ele>570.5</ele><time>2026-03-22T09:57:41.018Z</time></trkpt><trkpt lat="44.7157936" lon="9.5554737"><ele>571.0</ele><time>2026-03-22T09:57:42.022Z</time></trkpt><trkpt lat="44.7158577" lon="9.555414"><ele>571.8571428571429</ele><time>2026-03-22T09:57:43.015Z</time></trkpt><trkpt lat="44.7159218" lon="9.5553454"><ele>572.7142857142857</ele><time>2026-03-22T09:57:44.008Z</time></trkpt><trkpt lat="44.7159798" lon="9.5552817"><ele>573.5714285714286</ele><time>2026-03-22T09:57:45.015Z</time></trkpt><trkpt lat="44.7160318" lon="9.5552166"><ele>574.4285714285714</ele><time>2026-03-22T09:57:46.01Z</time></trkpt><trkpt lat="44.7160778" lon="9.5551529"><ele>575.2857142857143</ele><time>2026-03-22T09:57:47.006Z</time></trkpt><trkpt lat="44.7161228" lon="9.5550602"><ele>576.1428571428571</ele><time>2026-03-22T09:57:49.005Z</time></trkpt><trkpt lat="44.7161864" lon="9.5549887"><ele>577.0</ele><time>2026-03-22T09:57:53.108Z</time></trkpt><trkpt lat="44.7162406" lon="9.5549179"><ele>577.0</ele><time>2026-03-22T09:57:57.13Z</time></trkpt><trkpt lat="44.7163032" lon="9.5548903"><ele>577.0</ele><time>2026-03-22T09:58:01.138Z</time></trkpt><trkpt lat="44.7163522" lon="9.55496"><ele>577.0</ele><time>2026-03-22T09:58:07.115Z</time></trkpt><trkpt lat="44.7163908" lon="9.5550407"><ele>577.0</ele><time>2026-03-22T09:58:09.127Z</time></trkpt><trkpt lat="44.716427" lon="9.5551531"><ele>577.0</ele><time>2026-03-22T09:58:11.114Z</time></trkpt><trkpt lat="44.7164427" lon="9.5552658"><ele>577.0</ele><time>2026-03-22T09:58:13.118Z</time></trkpt><trkpt lat="44.7164183" lon="9.5554057"><ele>577.0</ele><time>2026-03-22T09:58:16.015Z</time></trkpt><trkpt lat="44.7164801" lon="9.5554782"><ele>577.0</ele><time>2026-03-22T09:58:19.021Z</time></trkpt><trkpt lat="44.7165633" lon="9.5554701"><ele>577.0</ele><time>2026-03-22T09:58:21.011Z</time></trkpt><trkpt lat="44.7166861" lon="9.5554303"><ele>577.0</ele><time>2026-03-22T09:58:23.011Z</time></trkpt><trkpt lat="44.7167543" lon="9.555394"><ele>577.0</ele><time>2026-03-22T09:58:24.01Z</time></trkpt><trkpt lat="44.7168198" lon="9.5553643"><ele>577.0</ele><time>2026-03-22T09:58:25.013Z</time></trkpt><trkpt lat="44.7168887" lon="9.555332"><ele>577.8333333333334</ele><time>2026-03-22T09:58:26.012Z</time></trkpt><trkpt lat="44.7169573" lon="9.5552988"><ele>578.6666666666667</ele><time>2026-03-22T09:58:27.02Z</time></trkpt><trkpt lat="44.7170101" lon="9.5552422"><ele>579.5</ele><time>2026-03-22T09:58:28.019Z</time></trkpt><trkpt lat="44.7170533" lon="9.5551776"><ele>580.3333333333334</ele><time>2026-03-22T09:58:29.03Z</time></trkpt><trkpt lat="44.7170997" lon="9.5550856"><ele>581.1666666666666</ele><time>2026-03-22T09:58:31.127Z</time></trkpt><trkpt lat="44.717152" lon="9.555029"><ele>582.0</ele><time>2026-03-22T10:01:15.137Z</time></trkpt><trkpt lat="44.7172118" lon="9.5548889"><ele>582.0</ele><time>2026-03-22T10:01:27.118Z</time></trkpt><trkpt lat="44.7173287" lon="9.5548015"><ele>582.0</ele><time>2026-03-22T10:01:30.003Z</time></trkpt><trkpt lat="44.7174139" lon="9.5547535"><ele>582.0</ele><time>2026-03-22T10:01:31.998Z</time></trkpt><trkpt lat="44.7174857" lon="9.5547671"><ele>582.0</ele><time>2026-03-22T10:01:34.014Z</time></trkpt><trkpt lat="44.7175733" lon="9.5547815"><ele>582.0</ele><time>2026-03-22T10:01:37.009Z</time></trkpt><trkpt lat="44.717647" lon="9.5547159"><ele>582.0</ele><time>2026-03-22T10:01:40.119Z</time></trkpt><trkpt lat="44.7176998" lon="9.5546605"><ele>582.0</ele><time>2026-03-22T10:01:42.016Z</time></trkpt><trkpt lat="44.7177569" lon="9.5545692"><ele>582.0</ele><time>2026-03-22T10:01:45.121Z</time></trkpt><trkpt lat="44.7177928" lon="9.5544951"><ele>582.0</ele><time>2026-03-22T10:01:47.134Z</time></trkpt><trkpt lat="44.7178544" lon="9.554415"><ele>582.0</ele><time>2026-03-22T10:01:50.115Z</time></trkpt><trkpt lat="44.7179007" lon="9.5543097"><ele>582.0</ele><time>2026-03-22T10:01:52.156Z</time></trkpt><trkpt lat="44.7179347" lon="9.5541799"><ele>586.4</ele><time>2026-03-22T10:01:54.112Z</time></trkpt><trkpt lat="44.7179793" lon="9.5540364"><ele>590.8000000000001</ele><time>2026-03-22T10:01:57.125Z</time></trkpt><trkpt lat="44.7180021" lon="9.5539332"><ele>595.2</ele><time>2026-03-22T10:01:59.127Z</time></trkpt><trkpt lat="44.7180347" lon="9.553822"><ele>599.6</ele><time>2026-03-22T10:02:01.114Z</time></trkpt><trkpt lat="44.7180296" lon="9.5537116"><ele>604.0</ele><time>2026-03-22T10:02:03.124Z</time></trkpt><trkpt lat="44.7180168" lon="9.5535709"><ele>605.75</ele><time>2026-03-22T10:02:05.123Z</time></trkpt><trkpt lat="44.7180483" lon="9.5534233"><ele>607.5</ele><time>2026-03-22T10:02:07.12Z</time></trkpt><trkpt lat="44.718074" lon="9.553168"><ele>609.25</ele><time>2026-03-22T10:02:10.013Z</time></trkpt><trkpt lat="44.7180899" lon="9.5530208"><ele>611.0</ele><time>2026-03-22T10:02:12.015Z</time></trkpt><trkpt lat="44.7181054" lon="9.5528751"><ele>612.1666666666666</ele><time>2026-03-22T10:02:14.01Z</time></trkpt><trkpt lat="44.7180852" lon="9.5527809"><ele>613.3333333333333</ele><time>2026-03-22T10:02:16.011Z</time></trkpt><trkpt lat="44.7180155" lon="9.5526469"><ele>614.5</ele><time>2026-03-22T10:02:18.01Z</time></trkpt><trkpt lat="44.7179802" lon="9.5525592"><ele>615.6666666666666</ele><time>2026-03-22T10:02:19.011Z</time></trkpt><trkpt lat="44.7179609" lon="9.5524714"><ele>616.8333333333334</ele><time>2026-03-22T10:02:20.007Z</time></trkpt><trkpt lat="44.7179537" lon="9.552382"><ele>618.0</ele><time>2026-03-22T10:02:21.006Z</time></trkpt><trkpt lat="44.717971" lon="9.5522882"><ele>618.0</ele><time>2026-03-22T10:02:22.019Z</time></trkpt><trkpt lat="44.7180296" lon="9.5521619"><ele>618.0</ele><time>2026-03-22T10:02:24.118Z</time></trkpt><trkpt lat="44.7180544" lon="9.5520711"><ele>618.0</ele><time>2026-03-22T10:02:26.117Z</time></trkpt><trkpt lat="44.7180521" lon="9.5519805"><ele>618.0</ele><time>2026-03-22T10:02:28.124Z</time></trkpt><trkpt lat="44.7180288" lon="9.551895"><ele>618.0</ele><time>2026-03-22T10:02:31.011Z</time></trkpt><trkpt lat="44.7179485" lon="9.5518172"><ele>618.0</ele><time>2026-03-22T10:02:34.123Z</time></trkpt><trkpt lat="44.7178915" lon="9.551747"><ele>619.0</ele><time>2026-03-22T10:02:36.125Z</time></trkpt><trkpt lat="44.7178811" lon="9.5516174"><ele>620.0</ele><time>2026-03-22T10:02:39.12Z</time></trkpt><trkpt lat="44.7178989" lon="9.551504"><ele>621.0</ele><time>2026-03-22T10:02:41.122Z</time></trkpt><trkpt lat="44.7179216" lon="9.5514082"><ele>622.0</ele><time>2026-03-22T10:02:44.124Z</time></trkpt><trkpt lat="44.7179729" lon="9.5512382"><ele>623.0</ele><time>2026-03-22T10:02:48.004Z</time></trkpt><trkpt lat="44.7179954" lon="9.5510686"><ele>624.0</ele><time>2026-03-22T10:02:50.009Z</time></trkpt><trkpt lat="44.7180364" lon="9.5509083"><ele>625.0</ele><time>2026-03-22T10:02:52.029Z</time></trkpt><trkpt lat="44.7180811" lon="9.5507925"><ele>626.0</ele><time>2026-03-22T10:02:54.01Z</time></trkpt><trkpt lat="44.7180904" lon="9.5506623"><ele>627.0</ele><time>2026-03-22T10:02:56.011Z</time></trkpt><trkpt lat="44.7181373" lon="9.550512"><ele>628.0</ele><time>2026-03-22T10:02:58.016Z</time></trkpt><trkpt lat="44.718178" lon="9.550438"><ele>629.8</ele><time>2026-03-22T10:02:59.014Z</time></trkpt><trkpt lat="44.7182244" lon="9.5503622"><ele>631.5999999999999</ele><time>2026-03-22T10:03:00.018Z</time></trkpt><trkpt lat="44.718279" lon="9.5502203"><ele>633.4000000000001</ele><time>2026-03-22T10:03:02.124Z</time></trkpt><trkpt lat="44.7183484" lon="9.5500972"><ele>635.2</ele><time>2026-03-22T10:03:04.064Z</time></trkpt><trkpt lat="44.7183796" lon="9.5500198"><ele>637.0</ele><time>2026-03-22T10:03:05.125Z</time></trkpt><trkpt lat="44.718444" lon="9.5498765"><ele>637.0</ele><time>2026-03-22T10:03:08.125Z</time></trkpt><trkpt lat="44.7184511" lon="9.5497799"><ele>637.0</ele><time>2026-03-22T10:03:10.12Z</time></trkpt><trkpt lat="44.7184625" lon="9.549681"><ele>637.0</ele><time>2026-03-22T10:03:12.128Z</time></trkpt><trkpt lat="44.7184926" lon="9.5495738"><ele>637.0</ele><time>2026-03-22T10:03:14.113Z</time></trkpt><trkpt lat="44.7185287" lon="9.5494595"><ele>637.0</ele><time>2026-03-22T10:03:16.12Z</time></trkpt><trkpt lat="44.7185648" lon="9.5493372"><ele>637.0</ele><time>2026-03-22T10:03:18.124Z</time></trkpt><trkpt lat="44.718625" lon="9.5492028"><ele>642.0</ele><time>2026-03-22T10:03:20.114Z</time></trkpt><trkpt lat="44.718672" lon="9.5490808"><ele>647.0</ele><time>2026-03-22T10:03:22.113Z</time></trkpt><trkpt lat="44.7187282" lon="9.5488554"><ele>652.0</ele><time>2026-03-22T10:03:24.937Z</time></trkpt><trkpt lat="44.7187595" lon="9.5487736"><ele>657.0</ele><time>2026-03-22T10:03:25.949Z</time></trkpt><trkpt lat="44.7188217" lon="9.5486411"><ele>662.0</ele><time>2026-03-22T10:03:27.952Z</time></trkpt><trkpt lat="44.7188664" lon="9.54852"><ele>663.1666666666666</ele><time>2026-03-22T10:03:29.95Z</time></trkpt><trkpt lat="44.7189076" lon="9.5484105"><ele>664.3333333333333</ele><time>2026-03-22T10:03:31.954Z</time></trkpt><trkpt lat="44.7189365" lon="9.5483001"><ele>665.5</ele><time>2026-03-22T10:03:33.964Z</time></trkpt><trkpt lat="44.7190122" lon="9.5482096"><ele>666.6666666666666</ele><time>2026-03-22T10:03:37.009Z</time></trkpt><trkpt lat="44.7190771" lon="9.5481313"><ele>667.8333333333334</ele><time>2026-03-22T10:03:39.012Z</time></trkpt><trkpt lat="44.7191526" lon="9.5480709"><ele>669.0</ele><time>2026-03-22T10:03:41.118Z</time></trkpt><trkpt lat="44.7192647" lon="9.5480228"><ele>669.0</ele><time>2026-03-22T10:03:43.127Z</time></trkpt><trkpt lat="44.7193692" lon="9.5479999"><ele>669.0</ele><time>2026-03-22T10:03:45.13Z</time></trkpt><trkpt lat="44.7194746" lon="9.5479611"><ele>669.0</ele><time>2026-03-22T10:03:48.006Z</time></trkpt><trkpt lat="44.7195263" lon="9.5479091"><ele>669.0</ele><time>2026-03-22T10:03:50.121Z</time></trkpt><trkpt lat="44.7195747" lon="9.547832"><ele>669.0</ele><time>2026-03-22T10:03:52.118Z</time></trkpt><trkpt lat="44.7196242" lon="9.5477085"><ele>672.6666666666666</ele><time>2026-03-22T10:03:54.118Z</time></trkpt><trkpt lat="44.7196558" lon="9.5476097"><ele>676.3333333333334</ele><time>2026-03-22T10:03:57.124Z</time></trkpt><trkpt lat="44.71965" lon="9.5475143"><ele>680.0</ele><time>2026-03-22T10:04:35.014Z</time></trkpt><trkpt lat="44.7196762" lon="9.5474268"><ele>683.6666666666667</ele><time>2026-03-22T10:04:41.881Z</time></trkpt><trkpt lat="44.7197014" lon="9.54728"><ele>687.3333333333334</ele><time>2026-03-22T10:04:43.879Z</time></trkpt><trkpt lat="44.7197142" lon="9.5471793"><ele>691.0</ele><time>2026-03-22T10:04:44.88Z</time></trkpt><trkpt lat="44.71974" lon="9.5470761"><ele>692.1666666666667</ele><time>2026-03-22T10:04:45.875Z</time></trkpt><trkpt lat="44.7197708" lon="9.5469747"><ele>693.3333333333334</ele><time>2026-03-22T10:04:46.897Z</time></trkpt><trkpt lat="44.7197941" lon="9.5468782"><ele>694.5</ele><time>2026-03-22T10:04:47.877Z</time></trkpt><trkpt lat="44.7198194" lon="9.5467802"><ele>695.6666666666666</ele><time>2026-03-22T10:04:48.892Z</time></trkpt><trkpt lat="44.719843" lon="9.5466695"><ele>696.8333333333333</ele><time>2026-03-22T10:04:49.885Z</time></trkpt><trkpt lat="44.7198578" lon="9.5465631"><ele>698.0</ele><time>2026-03-22T10:04:50.885Z</time></trkpt><trkpt lat="44.7198778" lon="9.5464041"><ele>698.0</ele><time>2026-03-22T10:04:53.114Z</time></trkpt><trkpt lat="44.7198954" lon="9.5462255"><ele>698.0</ele><time>2026-03-22T10:04:55.08Z</time></trkpt><trkpt lat="44.7199049" lon="9.5461338"><ele>698.0</ele><time>2026-03-22T10:04:56.081Z</time></trkpt><trkpt lat="44.7199081" lon="9.5460412"><ele>698.0</ele><time>2026-03-22T10:04:57.126Z</time></trkpt><trkpt lat="44.7199121" lon="9.5459527"><ele>698.0</ele><time>2026-03-22T10:04:58.117Z</time></trkpt><trkpt lat="44.7199368" lon="9.5458047"><ele>698.0</ele><time>2026-03-22T10:05:00.04Z</time></trkpt><trkpt lat="44.7199563" lon="9.5456588"><ele>699.8</ele><time>2026-03-22T10:05:02.105Z</time></trkpt><trkpt lat="44.7199918" lon="9.5455097"><ele>701.5999999999999</ele><time>2026-03-22T10:05:04.042Z</time></trkpt><trkpt lat="44.7200564" lon="9.545348"><ele>703.4000000000001</ele><time>2026-03-22T10:05:06.123Z</time></trkpt><trkpt lat="44.7201162" lon="9.5452294"><ele>705.2</ele><time>2026-03-22T10:05:08.12Z</time></trkpt><trkpt lat="44.7201344" lon="9.5450973"><ele>707.0</ele><time>2026-03-22T10:05:10.119Z</time></trkpt><trkpt lat="44.7201228" lon="9.5450101"><ele>709.0</ele><time>2026-03-22T10:05:11.024Z</time></trkpt><trkpt lat="44.7201111" lon="9.5449205"><ele>711.0</ele><time>2026-03-22T10:05:12.005Z</time></trkpt><trkpt lat="44.7200982" lon="9.5447469"><ele>713.0</ele><time>2026-03-22T10:05:14.132Z</time></trkpt><trkpt lat="44.7201525" lon="9.5446298"><ele>715.0</ele><time>2026-03-22T10:05:16.122Z</time></trkpt><trkpt lat="44.7202091" lon="9.5445054"><ele>717.0</ele><time>2026-03-22T10:05:18.115Z</time></trkpt><trkpt lat="44.7202476" lon="9.5443832"><ele>720.4000000000001</ele><time>2026-03-22T10:05:20.124Z</time></trkpt><trkpt lat="44.7203072" lon="9.5442296"><ele>723.8000000000001</ele><time>2026-03-22T10:05:22.003Z</time></trkpt><trkpt lat="44.7203524" lon="9.5441283"><ele>727.2</ele><time>2026-03-22T10:05:23.009Z</time></trkpt><trkpt lat="44.7204038" lon="9.5440302"><ele>730.6</ele><time>2026-03-22T10:05:24.006Z</time></trkpt><trkpt lat="44.720447" lon="9.5439354"><ele>734.0</ele><time>2026-03-22T10:05:25.013Z</time></trkpt><trkpt lat="44.7204822" lon="9.5438439"><ele>734.0</ele><time>2026-03-22T10:05:26.013Z</time></trkpt><trkpt lat="44.7205135" lon="9.5437637"><ele>734.0</ele><time>2026-03-22T10:05:27.012Z</time></trkpt><trkpt lat="44.7205462" lon="9.5436768"><ele>734.0</ele><time>2026-03-22T10:05:28.003Z</time></trkpt><trkpt lat="44.7205736" lon="9.543594"><ele>734.0</ele><time>2026-03-22T10:05:29.006Z</time></trkpt><trkpt lat="44.7206029" lon="9.5434316"><ele>734.0</ele><time>2026-03-22T10:05:31.123Z</time></trkpt><trkpt lat="44.7206059" lon="9.5433336"><ele>734.0</ele><time>2026-03-22T10:05:32.051Z</time></trkpt><trkpt lat="44.7206077" lon="9.5432238"><ele>736.2</ele><time>2026-03-22T10:05:33.064Z</time></trkpt><trkpt lat="44.7206183" lon="9.5429882"><ele>738.4000000000001</ele><time>2026-03-22T10:05:34.968Z</time></trkpt><trkpt lat="44.7206177" lon="9.5428747"><ele>740.6</ele><time>2026-03-22T10:05:36.122Z</time></trkpt><trkpt lat="44.7206192" lon="9.5427681"><ele>742.8</ele><time>2026-03-22T10:05:37.122Z</time></trkpt><trkpt lat="44.7206193" lon="9.5426554"><ele>745.0</ele><time>2026-03-22T10:05:38.122Z</time></trkpt><trkpt lat="44.7206172" lon="9.542546"><ele>747.4</ele><time>2026-03-22T10:05:39.125Z</time></trkpt><trkpt lat="44.720619" lon="9.5424389"><ele>749.8</ele><time>2026-03-22T10:05:40.127Z</time></trkpt><trkpt lat="44.7206302" lon="9.5423309"><ele>752.2</ele><time>2026-03-22T10:05:41.128Z</time></trkpt><trkpt lat="44.7206866" lon="9.5421493"><ele>754.6</ele><time>2026-03-22T10:05:43.013Z</time></trkpt><trkpt lat="44.7207012" lon="9.5419916"><ele>757.0</ele><time>2026-03-22T10:05:45.122Z</time></trkpt><trkpt lat="44.7206808" lon="9.5417618"><ele>758.6666666666667</ele><time>2026-03-22T10:05:48.116Z</time></trkpt><trkpt lat="44.7206485" lon="9.5416733"><ele>760.3333333333334</ele><time>2026-03-22T10:05:51.012Z</time></trkpt><trkpt lat="44.7206349" lon="9.5415845"><ele>762.0</ele><time>2026-03-22T10:06:05.012Z</time></trkpt><trkpt lat="44.7205681" lon="9.541542"><ele>763.6666666666666</ele><time>2026-03-22T10:06:06.996Z</time></trkpt><trkpt lat="44.7204824" lon="9.5414596"><ele>765.3333333333333</ele><time>2026-03-22T10:06:09.015Z</time></trkpt><trkpt lat="44.720425" lon="9.541388"><ele>767.0</ele><time>2026-03-22T10:06:11.017Z</time></trkpt><trkpt lat="44.7204209" lon="9.5412778"><ele>768.2857142857143</ele><time>2026-03-22T10:06:13.014Z</time></trkpt><trkpt lat="44.7204492" lon="9.5411946"><ele>769.5714285714287</ele><time>2026-03-22T10:06:14.016Z</time></trkpt><trkpt lat="44.7204883" lon="9.5411179"><ele>770.8571428571429</ele><time>2026-03-22T10:06:15.005Z</time></trkpt><trkpt lat="44.7205351" lon="9.5410195"><ele>772.1428571428571</ele><time>2026-03-22T10:06:16.018Z</time></trkpt><trkpt lat="44.7205734" lon="9.5409304"><ele>773.4285714285714</ele><time>2026-03-22T10:06:17.019Z</time></trkpt><trkpt lat="44.7206111" lon="9.5408321"><ele>774.7142857142857</ele><time>2026-03-22T10:06:18.027Z</time></trkpt><trkpt lat="44.7206403" lon="9.5407312"><ele>776.0</ele><time>2026-03-22T10:06:19.027Z</time></trkpt><trkpt lat="44.720669" lon="9.5406207"><ele>776.0</ele><time>2026-03-22T10:06:20.02Z</time></trkpt><trkpt lat="44.7207017" lon="9.5405128"><ele>776.0</ele><time>2026-03-22T10:06:21.026Z</time></trkpt><trkpt lat="44.7207362" lon="9.5404088"><ele>776.0</ele><time>2026-03-22T10:06:22.026Z</time></trkpt><trkpt lat="44.7207642" lon="9.5403176"><ele>776.0</ele><time>2026-03-22T10:06:23.022Z</time></trkpt><trkpt lat="44.7207971" lon="9.5401653"><ele>776.0</ele><time>2026-03-22T10:06:25.134Z</time></trkpt><trkpt lat="44.7208106" lon="9.5400135"><ele>778.1999999999999</ele><time>2026-03-22T10:06:27.118Z</time></trkpt><trkpt lat="44.7208133" lon="9.5397343"><ele>780.4</ele><time>2026-03-22T10:06:30.136Z</time></trkpt><trkpt lat="44.7208096" lon="9.5396405"><ele>782.6</ele><time>2026-03-22T10:06:31.126Z</time></trkpt><trkpt lat="44.7208026" lon="9.5395404"><ele>784.8</ele><time>2026-03-22T10:06:32.119Z</time></trkpt><trkpt lat="44.7207911" lon="9.539444"><ele>787.0</ele><time>2026-03-22T10:06:33.116Z</time></trkpt><trkpt lat="44.720773" lon="9.5393573"><ele>789.4000000000001</ele><time>2026-03-22T10:06:34.12Z</time></trkpt><trkpt lat="44.7207539" lon="9.5392724"><ele>791.8000000000001</ele><time>2026-03-22T10:06:35.121Z</time></trkpt><trkpt lat="44.7207321" lon="9.5390973"><ele>794.2</ele><time>2026-03-22T10:06:37.12Z</time></trkpt><trkpt lat="44.7206919" lon="9.5389192"><ele>796.6</ele><time>2026-03-22T10:06:39.01Z</time></trkpt><trkpt lat="44.7206815" lon="9.5387855"><ele>799.0</ele><time>2026-03-22T10:06:41.006Z</time></trkpt><trkpt lat="44.7207325" lon="9.5386948"><ele>798.9999999999999</ele><time>2026-03-22T10:06:43.009Z</time></trkpt><trkpt lat="44.7208014" lon="9.5387109"><ele>799.0</ele><time>2026-03-22T10:06:45.003Z</time></trkpt><trkpt lat="44.7208681" lon="9.5387517"><ele>799.0</ele><time>2026-03-22T10:06:47.031Z</time></trkpt><trkpt lat="44.720948" lon="9.5388489"><ele>799.0</ele><time>2026-03-22T10:06:48.994Z</time></trkpt><trkpt lat="44.7210265" lon="9.5389336"><ele>798.9999999999999</ele><time>2026-03-22T10:06:51.001Z</time></trkpt><trkpt lat="44.7211169" lon="9.5389148"><ele>799.0</ele><time>2026-03-22T10:06:53.118Z</time></trkpt><trkpt lat="44.7211992" lon="9.5388278"><ele>800.4000000000001</ele><time>2026-03-22T10:06:55.125Z</time></trkpt><trkpt lat="44.7212422" lon="9.5387304"><ele>801.8</ele><time>2026-03-22T10:06:57.122Z</time></trkpt><trkpt lat="44.7211696" lon="9.5386018"><ele>803.2</ele><time>2026-03-22T10:07:01.129Z</time></trkpt><trkpt lat="44.7210916" lon="9.538464"><ele>804.5999999999999</ele><time>2026-03-22T10:07:03.023Z</time></trkpt><trkpt lat="44.7210725" lon="9.5383771"><ele>806.0</ele><time>2026-03-22T10:07:04.007Z</time></trkpt><trkpt lat="44.7211105" lon="9.538215"><ele>807.5000000000001</ele><time>2026-03-22T10:07:06.118Z</time></trkpt><trkpt lat="44.7211482" lon="9.5381161"><ele>809.0</ele><time>2026-03-22T10:07:07.121Z</time></trkpt><trkpt lat="44.7211914" lon="9.5380138"><ele>810.5</ele><time>2026-03-22T10:07:08.119Z</time></trkpt><trkpt lat="44.7212334" lon="9.5379202"><ele>812.0</ele><time>2026-03-22T10:07:09.127Z</time></trkpt><trkpt lat="44.7212639" lon="9.537828"><ele>813.5000000000001</ele><time>2026-03-22T10:07:10.143Z</time></trkpt><trkpt lat="44.7212912" lon="9.5377374"><ele>815.0</ele><time>2026-03-22T10:07:11.129Z</time></trkpt><trkpt lat="44.7213186" lon="9.5376484"><ele>817.6</ele><time>2026-03-22T10:07:12.127Z</time></trkpt><trkpt lat="44.7213558" lon="9.5375696"><ele>820.2</ele><time>2026-03-22T10:07:13.127Z</time></trkpt><trkpt lat="44.7214324" lon="9.5374872"><ele>822.8</ele><time>2026-03-22T10:07:15.119Z</time></trkpt><trkpt lat="44.7215396" lon="9.5374758"><ele>825.4</ele><time>2026-03-22T10:07:18.008Z</time></trkpt><trkpt lat="44.721638" lon="9.5374556"><ele>828.0</ele><time>2026-03-22T10:07:21.012Z</time></trkpt><trkpt lat="44.7217156" lon="9.5374181"><ele>828.0</ele><time>2026-03-22T10:07:23.014Z</time></trkpt><trkpt lat="44.7218107" lon="9.5373335"><ele>828.0</ele><time>2026-03-22T10:07:25.002Z</time></trkpt><trkpt lat="44.7218806" lon="9.5372541"><ele>828.0</ele><time>2026-03-22T10:07:27.008Z</time></trkpt><trkpt lat="44.7219332" lon="9.5371283"><ele>828.0</ele><time>2026-03-22T10:07:29.02Z</time></trkpt><trkpt lat="44.7220028" lon="9.5369847"><ele>828.0</ele><time>2026-03-22T10:07:31.009Z</time></trkpt><trkpt lat="44.7220421" lon="9.5369132"><ele>832.0</ele><time>2026-03-22T10:07:32.119Z</time></trkpt><trkpt lat="44.7220897" lon="9.5367971"><ele>836.0</ele><time>2026-03-22T10:07:34.116Z</time></trkpt><trkpt lat="44.7221082" lon="9.5366222"><ele>840.0</ele><time>2026-03-22T10:07:36.126Z</time></trkpt><trkpt lat="44.7221183" lon="9.5365346"><ele>844.0</ele><time>2026-03-22T10:07:37.123Z</time></trkpt><trkpt lat="44.7222099" lon="9.5362976"><ele>845.4999999999999</ele><time>2026-03-22T10:07:40.122Z</time></trkpt><trkpt lat="44.7222449" lon="9.5362098"><ele>847.0</ele><time>2026-03-22T10:07:41.134Z</time></trkpt><trkpt lat="44.7222745" lon="9.5361127"><ele>848.5</ele><time>2026-03-22T10:07:42.118Z</time></trkpt><trkpt lat="44.7222967" lon="9.5359932"><ele>850.0</ele><time>2026-03-22T10:07:43.119Z</time></trkpt><trkpt lat="44.7223323" lon="9.5358679"><ele>851.4999999999999</ele><time>2026-03-22T10:07:44.025Z</time></trkpt><trkpt lat="44.7223788" lon="9.5357668"><ele>853.0</ele><time>2026-03-22T10:07:45.131Z</time></trkpt><trkpt lat="44.7224282" lon="9.5356938"><ele>852.9999999999999</ele><time>2026-03-22T10:07:46.126Z</time></trkpt><trkpt lat="44.7224659" lon="9.5356179"><ele>853.0</ele><time>2026-03-22T10:07:47.128Z</time></trkpt><trkpt lat="44.7225046" lon="9.5355364"><ele>853.0</ele><time>2026-03-22T10:07:48.118Z</time></trkpt><trkpt lat="44.722539" lon="9.5354511"><ele>853.0</ele><time>2026-03-22T10:07:49.126Z</time></trkpt><trkpt lat="44.7226022" lon="9.5353183"><ele>852.9999999999999</ele><time>2026-03-22T10:07:51.13Z</time></trkpt><trkpt lat="44.7226418" lon="9.5351497"><ele>853.0</ele><time>2026-03-22T10:07:53.027Z</time></trkpt><trkpt lat="44.7226502" lon="9.5350292"><ele>854.1666666666666</ele><time>2026-03-22T10:07:54.034Z</time></trkpt><trkpt lat="44.7226581" lon="9.5348977"><ele>855.3333333333333</ele><time>2026-03-22T10:07:55.015Z</time></trkpt><trkpt lat="44.7226764" lon="9.5347777"><ele>856.5</ele><time>2026-03-22T10:07:56.109Z</time></trkpt><trkpt lat="44.72269" lon="9.5346744"><ele>857.6666666666667</ele><time>2026-03-22T10:07:57.019Z</time></trkpt><trkpt lat="44.7227142" lon="9.5345299"><ele>858.8333333333334</ele><time>2026-03-22T10:07:59.019Z</time></trkpt><trkpt lat="44.7227183" lon="9.5344225"><ele>860.0</ele><time>2026-03-22T10:08:01.017Z</time></trkpt><trkpt lat="44.722689" lon="9.5343415"><ele>862.4</ele><time>2026-03-22T10:08:02.999Z</time></trkpt><trkpt lat="44.7226514" lon="9.5342503"><ele>864.8</ele><time>2026-03-22T10:08:05.018Z</time></trkpt><trkpt lat="44.7225865" lon="9.5341614"><ele>867.2</ele><time>2026-03-22T10:08:08.029Z</time></trkpt><trkpt lat="44.7225154" lon="9.5340545"><ele>869.6</ele><time>2026-03-22T10:08:10.032Z</time></trkpt><trkpt lat="44.722446" lon="9.533965"><ele>872.0</ele><time>2026-03-22T10:08:12.118Z</time></trkpt><trkpt lat="44.7223769" lon="9.5338787"><ele>872.0</ele><time>2026-03-22T10:08:13.993Z</time></trkpt><trkpt lat="44.7222174" lon="9.5337256"><ele>872.0</ele><time>2026-03-22T10:08:16.987Z</time></trkpt><trkpt lat="44.7221527" lon="9.5336678"><ele>872.0</ele><time>2026-03-22T10:08:18.12Z</time></trkpt><trkpt lat="44.7220933" lon="9.5336007"><ele>872.0</ele><time>2026-03-22T10:08:19.153Z</time></trkpt><trkpt lat="44.7220381" lon="9.5335339"><ele>872.0</ele><time>2026-03-22T10:08:20.106Z</time></trkpt><trkpt lat="44.7219839" lon="9.5334673"><ele>871.8333333333334</ele><time>2026-03-22T10:08:21.068Z</time></trkpt><trkpt lat="44.7219276" lon="9.5334014"><ele>871.6666666666667</ele><time>2026-03-22T10:08:22.146Z</time></trkpt><trkpt lat="44.7218724" lon="9.5333239"><ele>871.5</ele><time>2026-03-22T10:08:23.079Z</time></trkpt><trkpt lat="44.7218225" lon="9.5332425"><ele>871.3333333333333</ele><time>2026-03-22T10:08:24.033Z</time></trkpt><trkpt lat="44.7217869" lon="9.533147"><ele>871.1666666666666</ele><time>2026-03-22T10:08:25.037Z</time></trkpt><trkpt lat="44.7217666" lon="9.5330369"><ele>871.0</ele><time>2026-03-22T10:08:26.12Z</time></trkpt><trkpt lat="44.7217655" lon="9.5329039"><ele>871.5999999999999</ele><time>2026-03-22T10:08:27.123Z</time></trkpt><trkpt lat="44.7217647" lon="9.5327794"><ele>872.1999999999999</ele><time>2026-03-22T10:08:28.115Z</time></trkpt><trkpt lat="44.7217482" lon="9.5326539"><ele>872.8000000000001</ele><time>2026-03-22T10:08:29.125Z</time></trkpt><trkpt lat="44.7217104" lon="9.5325354"><ele>873.4000000000001</ele><time>2026-03-22T10:08:30.13Z</time></trkpt><trkpt lat="44.721654" lon="9.5324214"><ele>874.0</ele><time>2026-03-22T10:08:31.135Z</time></trkpt><trkpt lat="44.7215892" lon="9.5323168"><ele>874.0</ele><time>2026-03-22T10:08:32.121Z</time></trkpt><trkpt lat="44.7215157" lon="9.532219"><ele>874.0000000000001</ele><time>2026-03-22T10:08:33.121Z</time></trkpt><trkpt lat="44.7214343" lon="9.5321212"><ele>874.0000000000001</ele><time>2026-03-22T10:08:34.047Z</time></trkpt><trkpt lat="44.7213447" lon="9.5320296"><ele>874.0</ele><time>2026-03-22T10:08:35.12Z</time></trkpt><trkpt lat="44.721251" lon="9.531945"><ele>874.0</ele><time>2026-03-22T10:08:36.048Z</time></trkpt><trkpt lat="44.7211564" lon="9.5318674"><ele>874.8000000000001</ele><time>2026-03-22T10:08:37.064Z</time></trkpt><trkpt lat="44.7210672" lon="9.5317963"><ele>875.6000000000001</ele><time>2026-03-22T10:08:38.065Z</time></trkpt><trkpt lat="44.7209739" lon="9.531728"><ele>876.4</ele><time>2026-03-22T10:08:39.062Z</time></trkpt><trkpt lat="44.7208843" lon="9.5316757"><ele>877.2</ele><time>2026-03-22T10:08:40.065Z</time></trkpt><trkpt lat="44.720802" lon="9.5316516"><ele>878.0</ele><time>2026-03-22T10:08:41.065Z</time></trkpt><trkpt lat="44.7206424" lon="9.5316005"><ele>877.8333333333334</ele><time>2026-03-22T10:08:42.958Z</time></trkpt><trkpt lat="44.7205798" lon="9.5315597"><ele>877.6666666666667</ele><time>2026-03-22T10:08:43.961Z</time></trkpt><trkpt lat="44.7204859" lon="9.5314745"><ele>877.5</ele><time>2026-03-22T10:08:46.115Z</time></trkpt><trkpt lat="44.720443" lon="9.531354"><ele>877.3333333333333</ele><time>2026-03-22T10:08:48.015Z</time></trkpt><trkpt lat="44.7204449" lon="9.5312652"><ele>877.1666666666666</ele><time>2026-03-22T10:08:48.997Z</time></trkpt><trkpt lat="44.7204613" lon="9.5311608"><ele>877.0</ele><time>2026-03-22T10:08:50.013Z</time></trkpt><trkpt lat="44.7204822" lon="9.5310459"><ele>877.0</ele><time>2026-03-22T10:08:51.122Z</time></trkpt><trkpt lat="44.7205063" lon="9.5309244"><ele>877.0</ele><time>2026-03-22T10:08:52.12Z</time></trkpt><trkpt lat="44.7205401" lon="9.5307049"><ele>877.0</ele><time>2026-03-22T10:08:54.126Z</time></trkpt><trkpt lat="44.7205523" lon="9.5305946"><ele>877.0</ele><time>2026-03-22T10:08:55.128Z</time></trkpt><trkpt lat="44.7205605" lon="9.5304862"><ele>877.0</ele><time>2026-03-22T10:08:56.116Z</time></trkpt><trkpt lat="44.720567" lon="9.5303857"><ele>878.5</ele><time>2026-03-22T10:08:57.123Z</time></trkpt><trkpt lat="44.7206031" lon="9.5301724"><ele>880.0</ele><time>2026-03-22T10:08:59.126Z</time></trkpt><trkpt lat="44.7206072" lon="9.5299612"><ele>881.5</ele><time>2026-03-22T10:09:02.119Z</time></trkpt><trkpt lat="44.7205974" lon="9.5297666"><ele>883.0</ele><time>2026-03-22T10:09:04.141Z</time></trkpt><trkpt lat="44.7206098" lon="9.5296678"><ele>882.9999999999999</ele><time>2026-03-22T10:09:05.125Z</time></trkpt><trkpt lat="44.720622" lon="9.5295603"><ele>883.0</ele><time>2026-03-22T10:09:06.128Z</time></trkpt><trkpt lat="44.7206233" lon="9.5294532"><ele>883.0</ele><time>2026-03-22T10:09:07.129Z</time></trkpt><trkpt lat="44.7206255" lon="9.5293545"><ele>883.0</ele><time>2026-03-22T10:09:08.135Z</time></trkpt><trkpt lat="44.7206264" lon="9.5292645"><ele>882.9999999999999</ele><time>2026-03-22T10:09:09.12Z</time></trkpt><trkpt lat="44.7206118" lon="9.5290996"><ele>883.0</ele><time>2026-03-22T10:09:11.13Z</time></trkpt><trkpt lat="44.7205807" lon="9.5289204"><ele>889.2</ele><time>2026-03-22T10:09:13.125Z</time></trkpt><trkpt lat="44.7205984" lon="9.5286715"><ele>895.4</ele><time>2026-03-22T10:09:16.014Z</time></trkpt><trkpt lat="44.7206338" lon="9.5285798"><ele>901.6000000000001</ele><time>2026-03-22T10:09:17.015Z</time></trkpt><trkpt lat="44.7206758" lon="9.5285008"><ele>907.8000000000001</ele><time>2026-03-22T10:09:18.007Z</time></trkpt><trkpt lat="44.7207157" lon="9.5284302"><ele>914.0</ele><time>2026-03-22T10:09:19.01Z</time></trkpt><trkpt lat="44.7207838" lon="9.5283268"><ele>914.0</ele><time>2026-03-22T10:09:21.001Z</time></trkpt><trkpt lat="44.7208594" lon="9.5282216"><ele>914.0000000000001</ele><time>2026-03-22T10:09:23.032Z</time></trkpt><trkpt lat="44.7209139" lon="9.5280908"><ele>914.0000000000001</ele><time>2026-03-22T10:09:25.121Z</time></trkpt><trkpt lat="44.7209279" lon="9.5279375"><ele>914.0</ele><time>2026-03-22T10:09:27.021Z</time></trkpt><trkpt lat="44.7209628" lon="9.5277747"><ele>914.0</ele><time>2026-03-22T10:09:29.027Z</time></trkpt><trkpt lat="44.7210136" lon="9.527624"><ele>916.8000000000001</ele><time>2026-03-22T10:09:31.118Z</time></trkpt><trkpt lat="44.7210495" lon="9.5274632"><ele>919.6000000000001</ele><time>2026-03-22T10:09:33.123Z</time></trkpt><trkpt lat="44.7210276" lon="9.5272954"><ele>922.4</ele><time>2026-03-22T10:09:35.122Z</time></trkpt><trkpt lat="44.7209851" lon="9.5272208"><ele>925.2</ele><time>2026-03-22T10:09:36.106Z</time></trkpt><trkpt lat="44.7209478" lon="9.5271452"><ele>928.0</ele><time>2026-03-22T10:09:37.123Z</time></trkpt><trkpt lat="44.7209304" lon="9.5270144"><ele>930.5999999999999</ele><time>2026-03-22T10:09:39.124Z</time></trkpt><trkpt lat="44.7209573" lon="9.5268657"><ele>933.1999999999999</ele><time>2026-03-22T10:09:41.12Z</time></trkpt><trkpt lat="44.7210622" lon="9.5266806"><ele>935.8</ele><time>2026-03-22T10:09:44.14Z</time></trkpt><trkpt lat="44.7210847" lon="9.5265904"><ele>938.4</ele><time>2026-03-22T10:09:45.125Z</time></trkpt><trkpt lat="44.7211203" lon="9.5265173"><ele>941.0</ele><time>2026-03-22T10:09:46.119Z</time></trkpt><trkpt lat="44.7211527" lon="9.5263466"><ele>942.1666666666667</ele><time>2026-03-22T10:09:48.114Z</time></trkpt><trkpt lat="44.7211562" lon="9.5262403"><ele>943.3333333333334</ele><time>2026-03-22T10:09:49.121Z</time></trkpt><trkpt lat="44.7211667" lon="9.5261392"><ele>944.5</ele><time>2026-03-22T10:09:50.124Z</time></trkpt><trkpt lat="44.7211823" lon="9.5260239"><ele>945.6666666666667</ele><time>2026-03-22T10:09:51.12Z</time></trkpt><trkpt lat="44.7212005" lon="9.5259084"><ele>946.8333333333334</ele><time>2026-03-22T10:09:52.123Z</time></trkpt><trkpt lat="44.7212193" lon="9.5257906"><ele>948.0</ele><time>2026-03-22T10:09:53.119Z</time></trkpt><trkpt lat="44.7212247" lon="9.5256805"><ele>950.0</ele><time>2026-03-22T10:09:54.041Z</time></trkpt><trkpt lat="44.7212157" lon="9.5255793"><ele>952.0</ele><time>2026-03-22T10:09:56.054Z</time></trkpt><trkpt lat="44.7211976" lon="9.5254807"><ele>954.0</ele><time>2026-03-22T10:09:58.054Z</time></trkpt><trkpt lat="44.7211666" lon="9.5253737"><ele>956.0</ele><time>2026-03-22T10:10:00.047Z</time></trkpt><trkpt lat="44.7211558" lon="9.5252266"><ele>958.0</ele><time>2026-03-22T10:10:02.068Z</time></trkpt><trkpt lat="44.721168" lon="9.5250935"><ele>960.0</ele><time>2026-03-22T10:10:04.115Z</time></trkpt><trkpt lat="44.721177" lon="9.5249446"><ele>962.75</ele><time>2026-03-22T10:10:06.13Z</time></trkpt><trkpt lat="44.7211558" lon="9.524806"><ele>965.5</ele><time>2026-03-22T10:10:08.04Z</time></trkpt><trkpt lat="44.721125" lon="9.5246039"><ele>968.25</ele><time>2026-03-22T10:10:11.116Z</time></trkpt><trkpt lat="44.7211227" lon="9.5244305"><ele>971.0</ele><time>2026-03-22T10:10:13.119Z</time></trkpt><trkpt lat="44.7211111" lon="9.5242616"><ele>973.1666666666667</ele><time>2026-03-22T10:10:15.121Z</time></trkpt><trkpt lat="44.7210972" lon="9.5241034"><ele>975.3333333333334</ele><time>2026-03-22T10:10:17.118Z</time></trkpt><trkpt lat="44.7210905" lon="9.5240114"><ele>977.5</ele><time>2026-03-22T10:10:18.121Z</time></trkpt><trkpt lat="44.7211007" lon="9.5238623"><ele>979.6666666666667</ele><time>2026-03-22T10:10:20.111Z</time></trkpt><trkpt lat="44.7211363" lon="9.5237728"><ele>981.8333333333334</ele><time>2026-03-22T10:10:22.007Z</time></trkpt><trkpt lat="44.7211493" lon="9.5236585"><ele>984.0</ele><time>2026-03-22T10:10:24.012Z</time></trkpt><trkpt lat="44.7211308" lon="9.5235194"><ele>986.6</ele><time>2026-03-22T10:10:27.115Z</time></trkpt><trkpt lat="44.7211402" lon="9.5234227"><ele>989.2</ele><time>2026-03-22T10:10:29.132Z</time></trkpt><trkpt lat="44.7211876" lon="9.5233077"><ele>991.8000000000001</ele><time>2026-03-22T10:10:31.118Z</time></trkpt><trkpt lat="44.7213184" lon="9.5231876"><ele>994.4000000000001</ele><time>2026-03-22T10:10:34.017Z</time></trkpt><trkpt lat="44.7214285" lon="9.5231466"><ele>997.0</ele><time>2026-03-22T10:10:36.022Z</time></trkpt><trkpt lat="44.7214919" lon="9.5231508"><ele>997.0</ele><time>2026-03-22T10:10:37.016Z</time></trkpt><trkpt lat="44.7215968" lon="9.5231931"><ele>997.0</ele><time>2026-03-22T10:10:39.026Z</time></trkpt><trkpt lat="44.7217124" lon="9.523196"><ele>997.0</ele><time>2026-03-22T10:10:41.028Z</time></trkpt><trkpt lat="44.7217958" lon="9.5231891"><ele>997.0</ele><time>2026-03-22T10:10:43.124Z</time></trkpt><trkpt lat="44.721875" lon="9.5232198"><ele>997.0</ele><time>2026-03-22T10:10:45.007Z</time></trkpt><trkpt lat="44.7219416" lon="9.5232649"><ele>999.8</ele><time>2026-03-22T10:10:48.129Z</time></trkpt><trkpt lat="44.7220005" lon="9.5233062"><ele>1002.6</ele><time>2026-03-22T10:10:51.119Z</time></trkpt><trkpt lat="44.7220773" lon="9.5233865"><ele>1005.3999999999999</ele><time>2026-03-22T10:10:54.13Z</time></trkpt><trkpt lat="44.7221604" lon="9.5234118"><ele>1008.1999999999999</ele><time>2026-03-22T10:10:56.121Z</time></trkpt><trkpt lat="44.7222615" lon="9.5233946"><ele>1011.0</ele><time>2026-03-22T10:10:58.112Z</time></trkpt><trkpt lat="44.722389" lon="9.5233565"><ele>1011.0</ele><time>2026-03-22T10:11:00.118Z</time></trkpt><trkpt lat="44.7224531" lon="9.52334"><ele>1010.9999999999999</ele><time>2026-03-22T10:11:01.131Z</time></trkpt><trkpt lat="44.7225226" lon="9.523318"><ele>1010.9999999999999</ele><time>2026-03-22T10:11:02.113Z</time></trkpt><trkpt lat="44.7226484" lon="9.5232709"><ele>1011.0</ele><time>2026-03-22T10:11:04.116Z</time></trkpt><trkpt lat="44.7227383" lon="9.5232073"><ele>1011.0</ele><time>2026-03-22T10:11:06.125Z</time></trkpt><trkpt lat="44.7228717" lon="9.5230864"><ele>1011.1666666666666</ele><time>2026-03-22T10:11:08.12Z</time></trkpt><trkpt lat="44.722923" lon="9.5230316"><ele>1011.3333333333333</ele><time>2026-03-22T10:11:09.117Z</time></trkpt><trkpt lat="44.7229726" lon="9.5229693"><ele>1011.5</ele><time>2026-03-22T10:11:10.114Z</time></trkpt><trkpt lat="44.7230634" lon="9.522834"><ele>1011.6666666666666</ele><time>2026-03-22T10:11:12.006Z</time></trkpt><trkpt lat="44.7231066" lon="9.5227297"><ele>1011.8333333333333</ele><time>2026-03-22T10:11:14.006Z</time></trkpt><trkpt lat="44.7231663" lon="9.5226266"><ele>1012.0</ele><time>2026-03-22T10:11:16.006Z</time></trkpt><trkpt lat="44.7232356" lon="9.5224919"><ele>1014.0</ele><time>2026-03-22T10:11:18.008Z</time></trkpt><trkpt lat="44.723302" lon="9.5223725"><ele>1016.0</ele><time>2026-03-22T10:11:20.01Z</time></trkpt><trkpt lat="44.7233442" lon="9.5222922"><ele>1018.0</ele><time>2026-03-22T10:11:21.131Z</time></trkpt><trkpt lat="44.7234472" lon="9.5221388"><ele>1020.0</ele><time>2026-03-22T10:11:23.025Z</time></trkpt><trkpt lat="44.7234867" lon="9.5220673"><ele>1022.0</ele><time>2026-03-22T10:11:24.022Z</time></trkpt><trkpt lat="44.72355" lon="9.5219553"><ele>1023.8</ele><time>2026-03-22T10:11:26.117Z</time></trkpt><trkpt lat="44.7236034" lon="9.5218479"><ele>1025.6</ele><time>2026-03-22T10:11:28.127Z</time></trkpt><trkpt lat="44.7236568" lon="9.5217496"><ele>1027.3999999999999</ele><time>2026-03-22T10:11:30.117Z</time></trkpt><trkpt lat="44.7236858" lon="9.5216409"><ele>1029.2</ele><time>2026-03-22T10:11:32.031Z</time></trkpt><trkpt lat="44.7237018" lon="9.5215158"><ele>1031.0</ele><time>2026-03-22T10:11:34.118Z</time></trkpt><trkpt lat="44.7237378" lon="9.5213847"><ele>1031.0</ele><time>2026-03-22T10:11:36.133Z</time></trkpt><trkpt lat="44.7237947" lon="9.5212757"><ele>1031.0</ele><time>2026-03-22T10:11:38.116Z</time></trkpt><trkpt lat="44.7238678" lon="9.5211807"><ele>1031.0</ele><time>2026-03-22T10:11:40.115Z</time></trkpt><trkpt lat="44.7239665" lon="9.5210965"><ele>1031.0</ele><time>2026-03-22T10:11:42.027Z</time></trkpt><trkpt lat="44.7240237" lon="9.5210582"><ele>1031.0</ele><time>2026-03-22T10:11:43.125Z</time></trkpt><trkpt lat="44.7241076" lon="9.5209456"><ele>1033.0</ele><time>2026-03-22T10:11:45.116Z</time></trkpt><trkpt lat="44.7241489" lon="9.5208765"><ele>1035.0</ele><time>2026-03-22T10:11:46.125Z</time></trkpt><trkpt lat="44.7242261" lon="9.520785"><ele>1037.0</ele><time>2026-03-22T10:11:48.133Z</time></trkpt><trkpt lat="44.7243314" lon="9.5207055"><ele>1039.0</ele><time>2026-03-22T10:11:50.114Z</time></trkpt><trkpt lat="44.7244185" lon="9.520612"><ele>1041.0</ele><time>2026-03-22T10:11:52.107Z</time></trkpt><trkpt lat="44.7244678" lon="9.5205336"><ele>1041.0</ele><time>2026-03-22T10:11:54.133Z</time></trkpt><trkpt lat="44.7244568" lon="9.5204463"><ele>1041.0</ele><time>2026-03-22T10:11:57.126Z</time></trkpt><trkpt lat="44.7244579" lon="9.5203278"><ele>1041.0</ele><time>2026-03-22T10:12:11.132Z</time></trkpt><trkpt lat="44.7244678" lon="9.5202123"><ele>1041.0</ele><time>2026-03-22T10:12:13.126Z</time></trkpt><trkpt lat="44.7244503" lon="9.5199021"><ele>1044.0</ele><time>2026-03-22T10:12:16.117Z</time></trkpt><trkpt lat="44.7243448" lon="9.519558"><ele>1047.0</ele><time>2026-03-22T10:12:17.902Z</time></trkpt><trkpt lat="44.72428" lon="9.5193802"><ele>1050.0</ele><time>2026-03-22T10:12:19.105Z</time></trkpt><trkpt lat="44.7242067" lon="9.5192038"><ele>1050.0</ele><time>2026-03-22T10:12:20.048Z</time></trkpt><trkpt lat="44.7241409" lon="9.5190264"><ele>1050.0</ele><time>2026-03-22T10:12:21.116Z</time></trkpt><trkpt lat="44.7240174" lon="9.5186767"><ele>1050.0</ele><time>2026-03-22T10:12:23.125Z</time></trkpt><trkpt lat="44.7238805" lon="9.5183769"><ele>1050.0</ele><time>2026-03-22T10:12:25.115Z</time></trkpt><trkpt lat="44.7237908" lon="9.518254"><ele>1050.0</ele><time>2026-03-22T10:12:26.114Z</time></trkpt><trkpt lat="44.7236974" lon="9.5181292"><ele>1050.0</ele><time>2026-03-22T10:12:27.11Z</time></trkpt><trkpt lat="44.7234967" lon="9.5179021"><ele>1047.75</ele><time>2026-03-22T10:12:29.004Z</time></trkpt><trkpt lat="44.7233931" lon="9.5178136"><ele>1045.5</ele><time>2026-03-22T10:12:30Z</time></trkpt><trkpt lat="44.7232816" lon="9.5177294"><ele>1043.25</ele><time>2026-03-22T10:12:30.986Z</time></trkpt><trkpt lat="44.7231522" lon="9.5176549"><ele>1041.0</ele><time>2026-03-22T10:12:32.01Z</time></trkpt><trkpt lat="44.7230119" lon="9.5176094"><ele>1041.0</ele><time>2026-03-22T10:12:33.013Z</time></trkpt><trkpt lat="44.7228747" lon="9.517568"><ele>1041.0</ele><time>2026-03-22T10:12:34.004Z</time></trkpt><trkpt lat="44.7227352" lon="9.5175346"><ele>1041.0</ele><time>2026-03-22T10:12:34.992Z</time></trkpt><trkpt lat="44.7225947" lon="9.5175012"><ele>1041.0</ele><time>2026-03-22T10:12:35.987Z</time></trkpt><trkpt lat="44.7224498" lon="9.5174629"><ele>1041.5</ele><time>2026-03-22T10:12:36.986Z</time></trkpt><trkpt lat="44.7223032" lon="9.5174309"><ele>1042.0</ele><time>2026-03-22T10:12:37.98Z</time></trkpt><trkpt lat="44.7221619" lon="9.5173952"><ele>1042.5</ele><time>2026-03-22T10:12:38.999Z</time></trkpt><trkpt lat="44.7220244" lon="9.5173641"><ele>1043.0</ele><time>2026-03-22T10:12:40.091Z</time></trkpt><trkpt lat="44.7218975" lon="9.5173323"><ele>1044.0</ele><time>2026-03-22T10:12:40.993Z</time></trkpt><trkpt lat="44.7217865" lon="9.5172828"><ele>1045.0</ele><time>2026-03-22T10:12:41.99Z</time></trkpt><trkpt lat="44.7216851" lon="9.5172215"><ele>1046.0</ele><time>2026-03-22T10:12:43.088Z</time></trkpt><trkpt lat="44.721588" lon="9.517169"><ele>1047.0</ele><time>2026-03-22T10:12:44.11Z</time></trkpt><trkpt lat="44.7214935" lon="9.5171289"><ele>1048.0</ele><time>2026-03-22T10:12:45.11Z</time></trkpt><trkpt lat="44.7214067" lon="9.5171092"><ele>1048.0</ele><time>2026-03-22T10:12:46.096Z</time></trkpt><trkpt lat="44.7213033" lon="9.5171176"><ele>1048.0</ele><time>2026-03-22T10:12:47.096Z</time></trkpt><trkpt lat="44.7211808" lon="9.5171267"><ele>1048.0</ele><time>2026-03-22T10:12:48.1Z</time></trkpt><trkpt lat="44.7209249" lon="9.5170484"><ele>1048.75</ele><time>2026-03-22T10:12:49.999Z</time></trkpt><trkpt lat="44.7208188" lon="9.5169874"><ele>1049.5</ele><time>2026-03-22T10:12:51.121Z</time></trkpt><trkpt lat="44.720637" lon="9.5168318"><ele>1050.25</ele><time>2026-03-22T10:12:52.996Z</time></trkpt><trkpt lat="44.7205566" lon="9.5167383"><ele>1051.0</ele><time>2026-03-22T10:12:54.003Z</time></trkpt><trkpt lat="44.7205024" lon="9.5166154"><ele>1051.0</ele><time>2026-03-22T10:12:55.004Z</time></trkpt><trkpt lat="44.7204624" lon="9.5164609"><ele>1051.0</ele><time>2026-03-22T10:12:56.003Z</time></trkpt><trkpt lat="44.7204354" lon="9.5162775"><ele>1051.0</ele><time>2026-03-22T10:12:57.004Z</time></trkpt><trkpt lat="44.7204221" lon="9.5161047"><ele>1051.0</ele><time>2026-03-22T10:12:58.007Z</time></trkpt><trkpt lat="44.7204212" lon="9.5159682"><ele>1050.5</ele><time>2026-03-22T10:12:59.008Z</time></trkpt><trkpt lat="44.7204225" lon="9.5158564"><ele>1050.0</ele><time>2026-03-22T10:13:00.005Z</time></trkpt><trkpt lat="44.7204128" lon="9.5157529"><ele>1049.5</ele><time>2026-03-22T10:13:01.002Z</time></trkpt><trkpt lat="44.7203817" lon="9.5156345"><ele>1049.0</ele><time>2026-03-22T10:13:02.026Z</time></trkpt><trkpt lat="44.7203373" lon="9.5155192"><ele>1048.5</ele><time>2026-03-22T10:13:03Z</time></trkpt><trkpt lat="44.7202806" lon="9.5153952"><ele>1048.0</ele><time>2026-03-22T10:13:03.993Z</time></trkpt><trkpt lat="44.7202016" lon="9.5152978"><ele>1050.6</ele><time>2026-03-22T10:13:04.998Z</time></trkpt><trkpt lat="44.7201205" lon="9.5151975"><ele>1053.1999999999998</ele><time>2026-03-22T10:13:06.006Z</time></trkpt><trkpt lat="44.7200431" lon="9.5151072"><ele>1055.8</ele><time>2026-03-22T10:13:07.002Z</time></trkpt><trkpt lat="44.7199611" lon="9.5150222"><ele>1058.3999999999999</ele><time>2026-03-22T10:13:08.802Z</time></trkpt><trkpt lat="44.7198783" lon="9.5149537"><ele>1061.0</ele><time>2026-03-22T10:13:09.799Z</time></trkpt><trkpt lat="44.719782" lon="9.5148922"><ele>1061.0</ele><time>2026-03-22T10:13:10.812Z</time></trkpt><trkpt lat="44.7196785" lon="9.5148336"><ele>1061.0</ele><time>2026-03-22T10:13:11.819Z</time></trkpt><trkpt lat="44.7195464" lon="9.5148135"><ele>1061.0</ele><time>2026-03-22T10:13:12.802Z</time></trkpt><trkpt lat="44.719416" lon="9.5147988"><ele>1061.0</ele><time>2026-03-22T10:13:13.803Z</time></trkpt><trkpt lat="44.7192939" lon="9.5147663"><ele>1060.0</ele><time>2026-03-22T10:13:14.809Z</time></trkpt><trkpt lat="44.719169" lon="9.5147373"><ele>1059.0</ele><time>2026-03-22T10:13:15.816Z</time></trkpt><trkpt lat="44.7190485" lon="9.5146857"><ele>1058.0</ele><time>2026-03-22T10:13:16.82Z</time></trkpt><trkpt lat="44.7189355" lon="9.514619"><ele>1057.0</ele><time>2026-03-22T10:13:17.814Z</time></trkpt><trkpt lat="44.7188401" lon="9.5145382"><ele>1057.0</ele><time>2026-03-22T10:13:18.833Z</time></trkpt><trkpt lat="44.7187601" lon="9.514429"><ele>1057.0</ele><time>2026-03-22T10:13:19.83Z</time></trkpt><trkpt lat="44.718703" lon="9.5143027"><ele>1057.0</ele><time>2026-03-22T10:13:20.809Z</time></trkpt><trkpt lat="44.7186514" lon="9.5141769"><ele>1057.0</ele><time>2026-03-22T10:13:21.821Z</time></trkpt><trkpt lat="44.7185982" lon="9.5140495"><ele>1057.0</ele><time>2026-03-22T10:13:22.826Z</time></trkpt><trkpt lat="44.7185439" lon="9.5139328"><ele>1059.0</ele><time>2026-03-22T10:13:23.825Z</time></trkpt><trkpt lat="44.718474" lon="9.5138334"><ele>1061.0</ele><time>2026-03-22T10:13:24.82Z</time></trkpt><trkpt lat="44.7184054" lon="9.5137366"><ele>1063.0</ele><time>2026-03-22T10:13:25.816Z</time></trkpt><trkpt lat="44.7183352" lon="9.5136369"><ele>1065.0</ele><time>2026-03-22T10:13:26.82Z</time></trkpt><trkpt lat="44.7182792" lon="9.5135344"><ele>1067.0</ele><time>2026-03-22T10:13:27.817Z</time></trkpt><trkpt lat="44.7182305" lon="9.5134339"><ele>1067.0</ele><time>2026-03-22T10:13:28.807Z</time></trkpt><trkpt lat="44.7181913" lon="9.5133321"><ele>1067.0</ele><time>2026-03-22T10:13:29.811Z</time></trkpt><trkpt lat="44.7181607" lon="9.5132334"><ele>1067.0</ele><time>2026-03-22T10:13:30.81Z</time></trkpt><trkpt lat="44.718134" lon="9.5131297"><ele>1067.0</ele><time>2026-03-22T10:13:31.809Z</time></trkpt><trkpt lat="44.7181065" lon="9.5130188"><ele>1067.0</ele><time>2026-03-22T10:13:32.807Z</time></trkpt><trkpt lat="44.7180713" lon="9.5128995"><ele>1067.0</ele><time>2026-03-22T10:13:33.916Z</time></trkpt><trkpt lat="44.7180263" lon="9.5127741"><ele>1067.0</ele><time>2026-03-22T10:13:34.914Z</time></trkpt><trkpt lat="44.7179701" lon="9.5126492"><ele>1067.0</ele><time>2026-03-22T10:13:35.895Z</time></trkpt><trkpt lat="44.717913" lon="9.5125214"><ele>1067.0</ele><time>2026-03-22T10:13:36.899Z</time></trkpt><trkpt lat="44.7178579" lon="9.5123925"><ele>1067.0</ele><time>2026-03-22T10:13:37.898Z</time></trkpt><trkpt lat="44.7178037" lon="9.512268"><ele>1067.0</ele><time>2026-03-22T10:13:38.898Z</time></trkpt><trkpt lat="44.7176963" lon="9.511993"><ele>1075.5</ele><time>2026-03-22T10:13:40.501Z</time></trkpt><trkpt lat="44.7175745" lon="9.5116904"><ele>1084.0</ele><time>2026-03-22T10:13:42.267Z</time></trkpt><trkpt lat="44.7174324" lon="9.5113961"><ele>1082.5</ele><time>2026-03-22T10:13:44.118Z</time></trkpt><trkpt lat="44.7173638" lon="9.5112406"><ele>1081.0</ele><time>2026-03-22T10:13:45.222Z</time></trkpt><trkpt lat="44.7173021" lon="9.5110885"><ele>1079.5</ele><time>2026-03-22T10:13:46.227Z</time></trkpt><trkpt lat="44.717237" lon="9.5109553"><ele>1078.0</ele><time>2026-03-22T10:13:47.213Z</time></trkpt><trkpt lat="44.7171689" lon="9.5108221"><ele>1078.0</ele><time>2026-03-22T10:13:48.224Z</time></trkpt><trkpt lat="44.7171021" lon="9.5106979"><ele>1078.0</ele><time>2026-03-22T10:13:49.224Z</time></trkpt><trkpt lat="44.7169502" lon="9.5104524"><ele>1078.0</ele><time>2026-03-22T10:13:51.226Z</time></trkpt><trkpt lat="44.7168686" lon="9.5103226"><ele>1078.75</ele><time>2026-03-22T10:13:52.243Z</time></trkpt><trkpt lat="44.7167891" lon="9.5101995"><ele>1079.5</ele><time>2026-03-22T10:13:53.227Z</time></trkpt><trkpt lat="44.7167096" lon="9.5100682"><ele>1080.25</ele><time>2026-03-22T10:13:54.239Z</time></trkpt><trkpt lat="44.7166525" lon="9.5099389"><ele>1081.0</ele><time>2026-03-22T10:13:55.336Z</time></trkpt><trkpt lat="44.716624" lon="9.5098029"><ele>1081.0</ele><time>2026-03-22T10:13:56.348Z</time></trkpt><trkpt lat="44.7166016" lon="9.5096483"><ele>1081.0</ele><time>2026-03-22T10:13:57.355Z</time></trkpt><trkpt lat="44.716581" lon="9.5094952"><ele>1081.0</ele><time>2026-03-22T10:13:58.353Z</time></trkpt><trkpt lat="44.71656" lon="9.5093462"><ele>1081.0</ele><time>2026-03-22T10:13:59.395Z</time></trkpt><trkpt lat="44.7165418" lon="9.5091988"><ele>1081.0</ele><time>2026-03-22T10:14:00.378Z</time></trkpt><trkpt lat="44.716525" lon="9.5090521"><ele>1080.5</ele><time>2026-03-22T10:14:01.354Z</time></trkpt><trkpt lat="44.7165058" lon="9.5088922"><ele>1080.0</ele><time>2026-03-22T10:14:02.263Z</time></trkpt><trkpt lat="44.7164885" lon="9.5087371"><ele>1079.5</ele><time>2026-03-22T10:14:03.162Z</time></trkpt><trkpt lat="44.7164651" lon="9.5085739"><ele>1079.0</ele><time>2026-03-22T10:14:04.117Z</time></trkpt><trkpt lat="44.7164284" lon="9.5084104"><ele>1078.0</ele><time>2026-03-22T10:14:05.131Z</time></trkpt><trkpt lat="44.7163815" lon="9.508246"><ele>1077.0</ele><time>2026-03-22T10:14:06.094Z</time></trkpt><trkpt lat="44.7163291" lon="9.5080842"><ele>1076.0</ele><time>2026-03-22T10:14:07.119Z</time></trkpt><trkpt lat="44.716266" lon="9.5079239"><ele>1075.0</ele><time>2026-03-22T10:14:08.123Z</time></trkpt><trkpt lat="44.7161897" lon="9.5077616"><ele>1074.0</ele><time>2026-03-22T10:14:09.141Z</time></trkpt><trkpt lat="44.7161189" lon="9.5076068"><ele>1073.0</ele><time>2026-03-22T10:14:10.12Z</time></trkpt><trkpt lat="44.7160502" lon="9.5074494"><ele>1072.0</ele><time>2026-03-22T10:14:11.225Z</time></trkpt><trkpt lat="44.7159897" lon="9.5072869"><ele>1071.0</ele><time>2026-03-22T10:14:12.233Z</time></trkpt><trkpt lat="44.7159348" lon="9.507123"><ele>1073.3333333333333</ele><time>2026-03-22T10:14:13.279Z</time></trkpt><trkpt lat="44.715835" lon="9.5067847"><ele>1075.6666666666665</ele><time>2026-03-22T10:14:15.016Z</time></trkpt><trkpt lat="44.7157864" lon="9.5066209"><ele>1078.0</ele><time>2026-03-22T10:14:16.121Z</time></trkpt><trkpt lat="44.7157304" lon="9.5064562"><ele>1078.0</ele><time>2026-03-22T10:14:17.135Z</time></trkpt><trkpt lat="44.7156682" lon="9.5062887"><ele>1078.0</ele><time>2026-03-22T10:14:18.123Z</time></trkpt><trkpt lat="44.7156021" lon="9.5061383"><ele>1078.0</ele><time>2026-03-22T10:14:19.122Z</time></trkpt><trkpt lat="44.7155162" lon="9.5059842"><ele>1078.0</ele><time>2026-03-22T10:14:20.115Z</time></trkpt><trkpt lat="44.7154335" lon="9.5058296"><ele>1077.25</ele><time>2026-03-22T10:14:21.146Z</time></trkpt><trkpt lat="44.7153477" lon="9.5056709"><ele>1076.5</ele><time>2026-03-22T10:14:22.06Z</time></trkpt><trkpt lat="44.7152645" lon="9.5055065"><ele>1075.75</ele><time>2026-03-22T10:14:23.032Z</time></trkpt><trkpt lat="44.7151843" lon="9.5053347"><ele>1075.0</ele><time>2026-03-22T10:14:24.047Z</time></trkpt><trkpt lat="44.7151132" lon="9.5051512"><ele>1075.0</ele><time>2026-03-22T10:14:25.047Z</time></trkpt><trkpt lat="44.7150436" lon="9.5049618"><ele>1075.0</ele><time>2026-03-22T10:14:26.514Z</time></trkpt><trkpt lat="44.7149738" lon="9.504756"><ele>1075.0</ele><time>2026-03-22T10:14:27.517Z</time></trkpt><trkpt lat="44.7149085" lon="9.5045586"><ele>1074.5</ele><time>2026-03-22T10:14:28.501Z</time></trkpt><trkpt lat="44.7148377" lon="9.5043645"><ele>1074.0</ele><time>2026-03-22T10:14:29.508Z</time></trkpt><trkpt lat="44.7147763" lon="9.504174"><ele>1073.5</ele><time>2026-03-22T10:14:30.519Z</time></trkpt><trkpt lat="44.7147214" lon="9.5039972"><ele>1073.0</ele><time>2026-03-22T10:14:31.503Z</time></trkpt><trkpt lat="44.7146762" lon="9.5038277"><ele>1072.5</ele><time>2026-03-22T10:14:32.509Z</time></trkpt><trkpt lat="44.7146311" lon="9.5036708"><ele>1072.0</ele><time>2026-03-22T10:14:33.518Z</time></trkpt><trkpt lat="44.7145772" lon="9.5035197"><ele>1071.5</ele><time>2026-03-22T10:14:34.51Z</time></trkpt><trkpt lat="44.7145109" lon="9.5033711"><ele>1071.0</ele><time>2026-03-22T10:14:35.506Z</time></trkpt><trkpt lat="44.7144275" lon="9.5032271"><ele>1073.0</ele><time>2026-03-22T10:14:36.51Z</time></trkpt><trkpt lat="44.7143359" lon="9.5031007"><ele>1075.0</ele><time>2026-03-22T10:14:37.505Z</time></trkpt><trkpt lat="44.7142406" lon="9.5029852"><ele>1077.0</ele><time>2026-03-22T10:14:38.508Z</time></trkpt><trkpt lat="44.7141407" lon="9.5028583"><ele>1079.0</ele><time>2026-03-22T10:14:39.507Z</time></trkpt><trkpt lat="44.7140497" lon="9.5027131"><ele>1079.0</ele><time>2026-03-22T10:14:40.506Z</time></trkpt><trkpt lat="44.7139746" lon="9.5025617"><ele>1079.0</ele><time>2026-03-22T10:14:41.507Z</time></trkpt><trkpt lat="44.7139156" lon="9.5023962"><ele>1079.0</ele><time>2026-03-22T10:14:42.506Z</time></trkpt><trkpt lat="44.7138632" lon="9.5022261"><ele>1079.0</ele><time>2026-03-22T10:14:43.507Z</time></trkpt><trkpt lat="44.713804" lon="9.5020701"><ele>1079.5</ele><time>2026-03-22T10:14:44.515Z</time></trkpt><trkpt lat="44.7137429" lon="9.5019311"><ele>1080.0</ele><time>2026-03-22T10:14:45.52Z</time></trkpt><trkpt lat="44.7136675" lon="9.5018032"><ele>1080.5</ele><time>2026-03-22T10:14:46.525Z</time></trkpt><trkpt lat="44.7135816" lon="9.5016845"><ele>1081.0</ele><time>2026-03-22T10:14:47.518Z</time></trkpt><trkpt lat="44.7134843" lon="9.5015644"><ele>1081.0</ele><time>2026-03-22T10:14:48.518Z</time></trkpt><trkpt lat="44.7134006" lon="9.5014425"><ele>1081.0</ele><time>2026-03-22T10:14:49.513Z</time></trkpt><trkpt lat="44.7132736" lon="9.5011375"><ele>1081.0</ele><time>2026-03-22T10:14:51.243Z</time></trkpt><trkpt lat="44.7131432" lon="9.5008196"><ele>1080.5</ele><time>2026-03-22T10:14:53.118Z</time></trkpt><trkpt lat="44.7130859" lon="9.5006787"><ele>1080.0</ele><time>2026-03-22T10:14:54.122Z</time></trkpt><trkpt lat="44.7130334" lon="9.5005309"><ele>1079.5</ele><time>2026-03-22T10:14:55.126Z</time></trkpt><trkpt lat="44.7129841" lon="9.5003734"><ele>1079.0</ele><time>2026-03-22T10:14:56.117Z</time></trkpt><trkpt lat="44.712943" lon="9.5002239"><ele>1078.75</ele><time>2026-03-22T10:14:57.122Z</time></trkpt><trkpt lat="44.7129178" lon="9.500083"><ele>1078.5</ele><time>2026-03-22T10:14:58.117Z</time></trkpt><trkpt lat="44.7128981" lon="9.4998628"><ele>1078.25</ele><time>2026-03-22T10:15:00.133Z</time></trkpt><trkpt lat="44.7128704" lon="9.4997326"><ele>1078.0</ele><time>2026-03-22T10:15:02.135Z</time></trkpt><trkpt lat="44.7127834" lon="9.4996587"><ele>1077.25</ele><time>2026-03-22T10:15:04.363Z</time></trkpt><trkpt lat="44.7127" lon="9.4997606"><ele>1076.5</ele><time>2026-03-22T10:15:06.371Z</time></trkpt><trkpt lat="44.7126904" lon="9.499876"><ele>1075.75</ele><time>2026-03-22T10:15:07.372Z</time></trkpt><trkpt lat="44.7126845" lon="9.5000239"><ele>1075.0</ele><time>2026-03-22T10:15:08.274Z</time></trkpt><trkpt lat="44.7126582" lon="9.5003572"><ele>1075.5</ele><time>2026-03-22T10:15:10.211Z</time></trkpt><trkpt lat="44.7126151" lon="9.5005311"><ele>1076.0</ele><time>2026-03-22T10:15:11.213Z</time></trkpt><trkpt lat="44.7125464" lon="9.5006955"><ele>1076.5</ele><time>2026-03-22T10:15:12.222Z</time></trkpt><trkpt lat="44.7124529" lon="9.5008509"><ele>1077.0</ele><time>2026-03-22T10:15:13.217Z</time></trkpt><trkpt lat="44.7123482" lon="9.5010013"><ele>1077.0</ele><time>2026-03-22T10:15:14.224Z</time></trkpt><trkpt lat="44.7122605" lon="9.5011434"><ele>1077.0</ele><time>2026-03-22T10:15:15.776Z</time></trkpt><trkpt lat="44.7121921" lon="9.5012757"><ele>1077.0</ele><time>2026-03-22T10:15:16.773Z</time></trkpt><trkpt lat="44.7121398" lon="9.5014123"><ele>1077.0</ele><time>2026-03-22T10:15:17.785Z</time></trkpt><trkpt lat="44.7121134" lon="9.5015792"><ele>1077.6666666666667</ele><time>2026-03-22T10:15:18.85Z</time></trkpt><trkpt lat="44.7121116" lon="9.5017616"><ele>1078.3333333333335</ele><time>2026-03-22T10:15:19.753Z</time></trkpt><trkpt lat="44.7121048" lon="9.5021843"><ele>1079.0</ele><time>2026-03-22T10:15:21.629Z</time></trkpt><trkpt lat="44.7121161" lon="9.5026569"><ele>1072.0</ele><time>2026-03-22T10:15:23.353Z</time></trkpt><trkpt lat="44.7121344" lon="9.5031134"><ele>1065.0</ele><time>2026-03-22T10:15:25.095Z</time></trkpt><trkpt lat="44.7121386" lon="9.5033121"><ele>1065.0</ele><time>2026-03-22T10:15:26.298Z</time></trkpt><trkpt lat="44.7121203" lon="9.5034958"><ele>1065.0</ele><time>2026-03-22T10:15:27.443Z</time></trkpt><trkpt lat="44.7120528" lon="9.5038626"><ele>1065.0</ele><time>2026-03-22T10:15:29.185Z</time></trkpt><trkpt lat="44.7120164" lon="9.5040453"><ele>1064.6666666666667</ele><time>2026-03-22T10:15:30.249Z</time></trkpt><trkpt lat="44.7119427" lon="9.504386"><ele>1064.3333333333335</ele><time>2026-03-22T10:15:32.11Z</time></trkpt><trkpt lat="44.7118809" lon="9.5045272"><ele>1064.0</ele><time>2026-03-22T10:15:33.11Z</time></trkpt><trkpt lat="44.7117778" lon="9.504635"><ele>1061.5</ele><time>2026-03-22T10:15:34.111Z</time></trkpt><trkpt lat="44.7116582" lon="9.5047336"><ele>1059.0</ele><time>2026-03-22T10:15:35.02Z</time></trkpt><trkpt lat="44.7115603" lon="9.5048413"><ele>1056.5</ele><time>2026-03-22T10:15:36.107Z</time></trkpt><trkpt lat="44.7114732" lon="9.5049126"><ele>1054.0</ele><time>2026-03-22T10:15:37.028Z</time></trkpt><trkpt lat="44.7113793" lon="9.5049422"><ele>1054.0</ele><time>2026-03-22T10:15:38.038Z</time></trkpt><trkpt lat="44.7113042" lon="9.5049396"><ele>1054.0</ele><time>2026-03-22T10:15:39.068Z</time></trkpt><trkpt lat="44.7112321" lon="9.5047726"><ele>1054.0</ele><time>2026-03-22T10:15:41.018Z</time></trkpt><trkpt lat="44.7112475" lon="9.5046369"><ele>1054.0</ele><time>2026-03-22T10:15:42.126Z</time></trkpt><trkpt lat="44.7113703" lon="9.5044084"><ele>1054.0</ele><time>2026-03-22T10:15:44.451Z</time></trkpt><trkpt lat="44.7114343" lon="9.5042928"><ele>1054.0</ele><time>2026-03-22T10:15:45.456Z</time></trkpt><trkpt lat="44.7114607" lon="9.5041538"><ele>1054.0</ele><time>2026-03-22T10:15:46.458Z</time></trkpt><trkpt lat="44.7114607" lon="9.5039987"><ele>1054.0</ele><time>2026-03-22T10:15:47.46Z</time></trkpt><trkpt lat="44.7114376" lon="9.5038399"><ele>1054.0</ele><time>2026-03-22T10:15:48.47Z</time></trkpt><trkpt lat="44.7113918" lon="9.5036673"><ele>1054.0</ele><time>2026-03-22T10:15:49.469Z</time></trkpt><trkpt lat="44.7113484" lon="9.5035067"><ele>1054.0</ele><time>2026-03-22T10:15:50.474Z</time></trkpt><trkpt lat="44.7112876" lon="9.5033731"><ele>1054.0</ele><time>2026-03-22T10:15:51.477Z</time></trkpt><trkpt lat="44.7112227" lon="9.5032589"><ele>1054.0</ele><time>2026-03-22T10:15:52.475Z</time></trkpt><trkpt lat="44.7111423" lon="9.5031725"><ele>1054.0</ele><time>2026-03-22T10:15:53.477Z</time></trkpt><trkpt lat="44.7110291" lon="9.5031168"><ele>1051.3333333333333</ele><time>2026-03-22T10:15:55.217Z</time></trkpt><trkpt lat="44.7110133" lon="9.5032401"><ele>1048.6666666666665</ele><time>2026-03-22T10:15:57.132Z</time></trkpt><trkpt lat="44.7110124" lon="9.5033287"><ele>1046.0</ele><time>2026-03-22T10:15:58.119Z</time></trkpt><trkpt lat="44.711016" lon="9.5034292"><ele>1043.3333333333333</ele><time>2026-03-22T10:15:59.119Z</time></trkpt><trkpt lat="44.7110299" lon="9.5035229"><ele>1040.6666666666667</ele><time>2026-03-22T10:16:00.124Z</time></trkpt><trkpt lat="44.7110305" lon="9.5037436"><ele>1038.0</ele><time>2026-03-22T10:16:03.125Z</time></trkpt><trkpt lat="44.7109828" lon="9.5038856"><ele>1037.75</ele><time>2026-03-22T10:16:05Z</time></trkpt><trkpt lat="44.7109479" lon="9.5040435"><ele>1037.5</ele><time>2026-03-22T10:16:08.404Z</time></trkpt><trkpt lat="44.7109577" lon="9.5042596"><ele>1037.25</ele><time>2026-03-22T10:16:11.389Z</time></trkpt><trkpt lat="44.7109094" lon="9.5044932"><ele>1037.0</ele><time>2026-03-22T10:16:14.368Z</time></trkpt><trkpt lat="44.7109187" lon="9.5046326"><ele>1037.0</ele><time>2026-03-22T10:16:16.232Z</time></trkpt><trkpt lat="44.7109101" lon="9.504741"><ele>1037.0</ele><time>2026-03-22T10:16:18.252Z</time></trkpt><trkpt lat="44.7108293" lon="9.5047708"><ele>1037.0</ele><time>2026-03-22T10:16:20.252Z</time></trkpt><trkpt lat="44.7107582" lon="9.5047536"><ele>1037.0</ele><time>2026-03-22T10:16:21.263Z</time></trkpt><trkpt lat="44.7106937" lon="9.5047304"><ele>1037.0</ele><time>2026-03-22T10:16:22.257Z</time></trkpt><trkpt lat="44.7105838" lon="9.5047429"><ele>1037.0</ele><time>2026-03-22T10:16:24.261Z</time></trkpt><trkpt lat="44.7105207" lon="9.5047345"><ele>1037.0</ele><time>2026-03-22T10:16:25.264Z</time></trkpt><trkpt lat="44.7104423" lon="9.5047151"><ele>1037.0</ele><time>2026-03-22T10:16:27.222Z</time></trkpt><trkpt lat="44.710378" lon="9.5046791"><ele>1037.0</ele><time>2026-03-22T10:16:29.246Z</time></trkpt><trkpt lat="44.710289" lon="9.5046428"><ele>1037.0</ele><time>2026-03-22T10:16:31.282Z</time></trkpt><trkpt lat="44.7102274" lon="9.5046081"><ele>1037.0</ele><time>2026-03-22T10:16:33.119Z</time></trkpt><trkpt lat="44.7101602" lon="9.5045975"><ele>1037.0</ele><time>2026-03-22T10:16:35.131Z</time></trkpt><trkpt lat="44.7100711" lon="9.5045681"><ele>1033.6666666666667</ele><time>2026-03-22T10:16:38.127Z</time></trkpt><trkpt lat="44.7099894" lon="9.5045601"><ele>1030.3333333333335</ele><time>2026-03-22T10:16:41.142Z</time></trkpt><trkpt lat="44.709923" lon="9.5045728"><ele>1027.0</ele><time>2026-03-22T10:16:44.077Z</time></trkpt><trkpt lat="44.70986" lon="9.5046168"><ele>1023.6666666666667</ele><time>2026-03-22T10:16:46.929Z</time></trkpt><trkpt lat="44.7097959" lon="9.5046578"><ele>1020.3333333333334</ele><time>2026-03-22T10:16:49.848Z</time></trkpt><trkpt lat="44.7097365" lon="9.5047334"><ele>1017.0</ele><time>2026-03-22T10:16:51.85Z</time></trkpt><trkpt lat="44.7097047" lon="9.5048588"><ele>1016.8</ele><time>2026-03-22T10:16:54.77Z</time></trkpt><trkpt lat="44.7097011" lon="9.5050438"><ele>1016.6</ele><time>2026-03-22T10:17:09.783Z</time></trkpt><trkpt lat="44.7097308" lon="9.505139"><ele>1016.3999999999999</ele><time>2026-03-22T10:17:11.789Z</time></trkpt><trkpt lat="44.7097894" lon="9.5052773"><ele>1016.1999999999999</ele><time>2026-03-22T10:17:13.788Z</time></trkpt><trkpt lat="44.709823" lon="9.5053573"><ele>1016.0</ele><time>2026-03-22T10:17:14.812Z</time></trkpt><trkpt lat="44.7098746" lon="9.5054775"><ele>1017.5999999999999</ele><time>2026-03-22T10:17:16.79Z</time></trkpt><trkpt lat="44.7099755" lon="9.5055291"><ele>1019.1999999999999</ele><time>2026-03-22T10:17:18.8Z</time></trkpt><trkpt lat="44.7100421" lon="9.5055505"><ele>1020.8000000000001</ele><time>2026-03-22T10:17:19.794Z</time></trkpt><trkpt lat="44.7100971" lon="9.5056068"><ele>1022.4000000000001</ele><time>2026-03-22T10:17:20.793Z</time></trkpt><trkpt lat="44.7101483" lon="9.5056834"><ele>1024.0</ele><time>2026-03-22T10:17:21.908Z</time></trkpt><trkpt lat="44.7102428" lon="9.5058296"><ele>1024.0</ele><time>2026-03-22T10:17:23.796Z</time></trkpt><trkpt lat="44.7102972" lon="9.5058792"><ele>1024.0</ele><time>2026-03-22T10:17:24.839Z</time></trkpt><trkpt lat="44.7103893" lon="9.5059445"><ele>1024.0</ele><time>2026-03-22T10:17:26.565Z</time></trkpt><trkpt lat="44.7104669" lon="9.5060435"><ele>1024.0</ele><time>2026-03-22T10:17:28.171Z</time></trkpt><trkpt lat="44.7105665" lon="9.5061332"><ele>1024.0</ele><time>2026-03-22T10:17:30.11Z</time></trkpt><trkpt lat="44.7106658" lon="9.5062137"><ele>1022.6666666666666</ele><time>2026-03-22T10:17:32.128Z</time></trkpt><trkpt lat="44.7107413" lon="9.5063432"><ele>1021.3333333333333</ele><time>2026-03-22T10:17:34.197Z</time></trkpt><trkpt lat="44.7107978" lon="9.506419"><ele>1020.0</ele><time>2026-03-22T10:17:36.201Z</time></trkpt><trkpt lat="44.7108817" lon="9.5064541"><ele>1018.6666666666667</ele><time>2026-03-22T10:17:38.197Z</time></trkpt><trkpt lat="44.7109449" lon="9.5064835"><ele>1017.3333333333334</ele><time>2026-03-22T10:17:39.442Z</time></trkpt><trkpt lat="44.7110102" lon="9.506513"><ele>1016.0</ele><time>2026-03-22T10:17:40.454Z</time></trkpt><trkpt lat="44.7111324" lon="9.5065668"><ele>1019.1999999999999</ele><time>2026-03-22T10:17:42.454Z</time></trkpt><trkpt lat="44.7112528" lon="9.5065921"><ele>1022.3999999999999</ele><time>2026-03-22T10:17:44.471Z</time></trkpt><trkpt lat="44.7113572" lon="9.5066096"><ele>1025.6</ele><time>2026-03-22T10:17:46.467Z</time></trkpt><trkpt lat="44.7114205" lon="9.5065957"><ele>1028.8</ele><time>2026-03-22T10:17:47.465Z</time></trkpt><trkpt lat="44.711526" lon="9.5065779"><ele>1032.0</ele><time>2026-03-22T10:17:49.468Z</time></trkpt><trkpt lat="44.7115944" lon="9.5065713"><ele>1032.0</ele><time>2026-03-22T10:17:50.456Z</time></trkpt><trkpt lat="44.7117216" lon="9.5065397"><ele>1032.0</ele><time>2026-03-22T10:17:52.257Z</time></trkpt><trkpt lat="44.7118258" lon="9.506552"><ele>1032.0</ele><time>2026-03-22T10:17:54.128Z</time></trkpt><trkpt lat="44.7119766" lon="9.5065792"><ele>1032.0</ele><time>2026-03-22T10:17:56.119Z</time></trkpt><trkpt lat="44.7120453" lon="9.5066137"><ele>1034.2</ele><time>2026-03-22T10:17:57.106Z</time></trkpt><trkpt lat="44.7121206" lon="9.5066464"><ele>1036.4</ele><time>2026-03-22T10:17:58.106Z</time></trkpt><trkpt lat="44.7122395" lon="9.5067199"><ele>1038.6</ele><time>2026-03-22T10:18:00.122Z</time></trkpt><trkpt lat="44.7123019" lon="9.5067647"><ele>1040.8</ele><time>2026-03-22T10:18:01.146Z</time></trkpt><trkpt lat="44.7124141" lon="9.5068388"><ele>1043.0</ele><time>2026-03-22T10:18:03.12Z</time></trkpt><trkpt lat="44.7124791" lon="9.5068841"><ele>1043.0</ele><time>2026-03-22T10:18:04.113Z</time></trkpt><trkpt lat="44.7125788" lon="9.5069406"><ele>1043.0</ele><time>2026-03-22T10:18:06.116Z</time></trkpt><trkpt lat="44.7126768" lon="9.5070127"><ele>1043.0</ele><time>2026-03-22T10:18:08.123Z</time></trkpt><trkpt lat="44.7127732" lon="9.5070863"><ele>1043.0</ele><time>2026-03-22T10:18:10.116Z</time></trkpt><trkpt lat="44.7128771" lon="9.5071619"><ele>1043.0</ele><time>2026-03-22T10:18:12.227Z</time></trkpt><trkpt lat="44.7129567" lon="9.5072221"><ele>1042.6666666666667</ele><time>2026-03-22T10:18:14.228Z</time></trkpt><trkpt lat="44.713044" lon="9.5072888"><ele>1042.3333333333335</ele><time>2026-03-22T10:18:16.239Z</time></trkpt><trkpt lat="44.7131128" lon="9.507343"><ele>1042.0</ele><time>2026-03-22T10:18:18.21Z</time></trkpt><trkpt lat="44.7131777" lon="9.5073974"><ele>1041.6666666666667</ele><time>2026-03-22T10:18:20.215Z</time></trkpt><trkpt lat="44.7132705" lon="9.5074848"><ele>1041.3333333333333</ele><time>2026-03-22T10:18:22.264Z</time></trkpt><trkpt lat="44.713324" lon="9.5075534"><ele>1041.0</ele><time>2026-03-22T10:18:23.261Z</time></trkpt><trkpt lat="44.7133748" lon="9.5076333"><ele>1041.0</ele><time>2026-03-22T10:18:24.28Z</time></trkpt><trkpt lat="44.7134258" lon="9.5077234"><ele>1041.0</ele><time>2026-03-22T10:18:25.278Z</time></trkpt><trkpt lat="44.7134889" lon="9.5078043"><ele>1041.0</ele><time>2026-03-22T10:18:26.28Z</time></trkpt><trkpt lat="44.7135643" lon="9.5078856"><ele>1041.0</ele><time>2026-03-22T10:18:27.263Z</time></trkpt><trkpt lat="44.7136456" lon="9.5079529"><ele>1041.0</ele><time>2026-03-22T10:18:28.299Z</time></trkpt><trkpt lat="44.7137237" lon="9.5080281"><ele>1042.3333333333333</ele><time>2026-03-22T10:18:29.299Z</time></trkpt><trkpt lat="44.7138066" lon="9.5081238"><ele>1043.6666666666665</ele><time>2026-03-22T10:18:30.281Z</time></trkpt><trkpt lat="44.7139885" lon="9.5083295"><ele>1045.0</ele><time>2026-03-22T10:18:32.121Z</time></trkpt><trkpt lat="44.7140905" lon="9.5084222"><ele>1045.0</ele><time>2026-03-22T10:18:33.12Z</time></trkpt><trkpt lat="44.7142029" lon="9.5085185"><ele>1045.0</ele><time>2026-03-22T10:18:34.123Z</time></trkpt><trkpt lat="44.7144306" lon="9.5087036"><ele>1045.0</ele><time>2026-03-22T10:18:36.117Z</time></trkpt><trkpt lat="44.7145358" lon="9.5087915"><ele>1048.25</ele><time>2026-03-22T10:18:37.117Z</time></trkpt><trkpt lat="44.7146363" lon="9.5088729"><ele>1051.5</ele><time>2026-03-22T10:18:38.115Z</time></trkpt><trkpt lat="44.7147336" lon="9.5089461"><ele>1054.75</ele><time>2026-03-22T10:18:39.124Z</time></trkpt><trkpt lat="44.7148293" lon="9.5090243"><ele>1058.0</ele><time>2026-03-22T10:18:40.13Z</time></trkpt><trkpt lat="44.7149271" lon="9.5091087"><ele>1058.0</ele><time>2026-03-22T10:18:41.126Z</time></trkpt><trkpt lat="44.7150239" lon="9.5092056"><ele>1058.0</ele><time>2026-03-22T10:18:42.121Z</time></trkpt><trkpt lat="44.7151122" lon="9.5093018"><ele>1058.0</ele><time>2026-03-22T10:18:43.119Z</time></trkpt><trkpt lat="44.7152388" lon="9.5095325"><ele>1058.0</ele><time>2026-03-22T10:18:45.117Z</time></trkpt><trkpt lat="44.7152885" lon="9.5096519"><ele>1061.4</ele><time>2026-03-22T10:18:46.138Z</time></trkpt><trkpt lat="44.7153433" lon="9.5097545"><ele>1064.8</ele><time>2026-03-22T10:18:47.13Z</time></trkpt><trkpt lat="44.7154101" lon="9.509821"><ele>1068.2</ele><time>2026-03-22T10:18:48.12Z</time></trkpt><trkpt lat="44.7154806" lon="9.5098606"><ele>1071.6</ele><time>2026-03-22T10:18:49.123Z</time></trkpt><trkpt lat="44.7156041" lon="9.5099099"><ele>1075.0</ele><time>2026-03-22T10:18:51.607Z</time></trkpt><trkpt lat="44.7157034" lon="9.5098863"><ele>1075.0</ele><time>2026-03-22T10:18:53.48Z</time></trkpt><trkpt lat="44.7157631" lon="9.5097988"><ele>1075.0</ele><time>2026-03-22T10:18:56.466Z</time></trkpt><trkpt lat="44.7158281" lon="9.509743"><ele>1075.0</ele><time>2026-03-22T10:19:35.451Z</time></trkpt><trkpt lat="44.7159521" lon="9.509857"><ele>1075.0</ele><time>2026-03-22T10:19:38.244Z</time></trkpt><trkpt lat="44.7160296" lon="9.5099927"><ele>1075.0</ele><time>2026-03-22T10:19:40.26Z</time></trkpt><trkpt lat="44.7161481" lon="9.5101379"><ele>1076.0</ele><time>2026-03-22T10:19:43.128Z</time></trkpt><trkpt lat="44.7162129" lon="9.510193"><ele>1077.0</ele><time>2026-03-22T10:19:44.13Z</time></trkpt><trkpt lat="44.7162968" lon="9.5102644"><ele>1078.0</ele><time>2026-03-22T10:19:45.12Z</time></trkpt><trkpt lat="44.716366" lon="9.5103503"><ele>1079.0</ele><time>2026-03-22T10:19:46.117Z</time></trkpt><trkpt lat="44.7164203" lon="9.5104347"><ele>1080.0</ele><time>2026-03-22T10:19:47.125Z</time></trkpt><trkpt lat="44.7164734" lon="9.5105336"><ele>1081.0</ele><time>2026-03-22T10:19:48.042Z</time></trkpt><trkpt lat="44.7165045" lon="9.5106423"><ele>1081.3999999999999</ele><time>2026-03-22T10:19:49.036Z</time></trkpt><trkpt lat="44.7165381" lon="9.5107891"><ele>1081.8</ele><time>2026-03-22T10:19:51.127Z</time></trkpt><trkpt lat="44.7165698" lon="9.5109197"><ele>1082.1999999999998</ele><time>2026-03-22T10:19:54.112Z</time></trkpt><trkpt lat="44.7165975" lon="9.5110374"><ele>1082.6</ele><time>2026-03-22T10:20:00.106Z</time></trkpt><trkpt lat="44.7166528" lon="9.5111474"><ele>1083.0</ele><time>2026-03-22T10:20:02.109Z</time></trkpt><trkpt lat="44.7167172" lon="9.5112895"><ele>1083.1666666666667</ele><time>2026-03-22T10:20:04.045Z</time></trkpt><trkpt lat="44.7167641" lon="9.5113744"><ele>1083.3333333333333</ele><time>2026-03-22T10:20:05.06Z</time></trkpt><trkpt lat="44.716817" lon="9.511456"><ele>1083.5</ele><time>2026-03-22T10:20:06.515Z</time></trkpt><trkpt lat="44.7168625" lon="9.5115357"><ele>1083.6666666666665</ele><time>2026-03-22T10:20:07.515Z</time></trkpt><trkpt lat="44.7169262" lon="9.5116458"><ele>1083.8333333333333</ele><time>2026-03-22T10:20:09.531Z</time></trkpt><trkpt lat="44.7169853" lon="9.5117338"><ele>1084.0</ele><time>2026-03-22T10:20:11.503Z</time></trkpt><trkpt lat="44.7170282" lon="9.5117999"><ele>1084.0</ele><time>2026-03-22T10:20:12.51Z</time></trkpt><trkpt lat="44.717075" lon="9.5118751"><ele>1084.0</ele><time>2026-03-22T10:20:13.511Z</time></trkpt><trkpt lat="44.71713" lon="9.5119472"><ele>1084.0</ele><time>2026-03-22T10:20:14.525Z</time></trkpt><trkpt lat="44.7172015" lon="9.5120445"><ele>1084.0</ele><time>2026-03-22T10:20:16.512Z</time></trkpt><trkpt lat="44.7172434" lon="9.5121561"><ele>1084.0</ele><time>2026-03-22T10:20:18.517Z</time></trkpt><trkpt lat="44.7172738" lon="9.5123399"><ele>1084.8</ele><time>2026-03-22T10:20:21.115Z</time></trkpt><trkpt lat="44.7172932" lon="9.5124798"><ele>1085.6000000000001</ele><time>2026-03-22T10:20:23.123Z</time></trkpt><trkpt lat="44.7173279" lon="9.5126226"><ele>1086.4</ele><time>2026-03-22T10:20:25.123Z</time></trkpt><trkpt lat="44.7173478" lon="9.5127088"><ele>1087.2</ele><time>2026-03-22T10:20:27.12Z</time></trkpt><trkpt lat="44.7174171" lon="9.5127797"><ele>1088.0</ele><time>2026-03-22T10:20:31.131Z</time></trkpt><trkpt lat="44.7174878" lon="9.512901"><ele>1088.2</ele><time>2026-03-22T10:20:33.122Z</time></trkpt><trkpt lat="44.7174494" lon="9.5130675"><ele>1088.4</ele><time>2026-03-22T10:20:35.128Z</time></trkpt><trkpt lat="44.7173994" lon="9.5131676"><ele>1088.6000000000001</ele><time>2026-03-22T10:20:36.067Z</time></trkpt><trkpt lat="44.7173486" lon="9.5132645"><ele>1088.8</ele><time>2026-03-22T10:20:36.967Z</time></trkpt><trkpt lat="44.7172884" lon="9.5133829"><ele>1089.0</ele><time>2026-03-22T10:20:39.124Z</time></trkpt><trkpt lat="44.7171958" lon="9.5134923"><ele>1089.0</ele><time>2026-03-22T10:20:41.12Z</time></trkpt><trkpt lat="44.7171464" lon="9.5135523"><ele>1089.0</ele><time>2026-03-22T10:20:42.116Z</time></trkpt><trkpt lat="44.7170883" lon="9.513593"><ele>1089.0</ele><time>2026-03-22T10:20:43.115Z</time></trkpt><trkpt lat="44.716969" lon="9.5136458"><ele>1089.0</ele><time>2026-03-22T10:20:45.251Z</time></trkpt><trkpt lat="44.7168558" lon="9.5136855"><ele>1089.0</ele><time>2026-03-22T10:20:47.25Z</time></trkpt><trkpt lat="44.716757" lon="9.5137568"><ele>1089.8</ele><time>2026-03-22T10:20:49.267Z</time></trkpt><trkpt lat="44.7166936" lon="9.5138823"><ele>1090.6000000000001</ele><time>2026-03-22T10:20:51.264Z</time></trkpt><trkpt lat="44.7166833" lon="9.5140174"><ele>1091.4</ele><time>2026-03-22T10:20:53.235Z</time></trkpt><trkpt lat="44.7167313" lon="9.5141829"><ele>1092.2</ele><time>2026-03-22T10:20:55.12Z</time></trkpt><trkpt lat="44.716758" lon="9.5142806"><ele>1093.0</ele><time>2026-03-22T10:20:56.128Z</time></trkpt><trkpt lat="44.7168059" lon="9.5144442"><ele>1093.0</ele><time>2026-03-22T10:20:58.112Z</time></trkpt><trkpt lat="44.7168059" lon="9.5145519"><ele>1093.0</ele><time>2026-03-22T10:21:01.117Z</time></trkpt><trkpt lat="44.7168272" lon="9.5146656"><ele>1093.0</ele><time>2026-03-22T10:21:04.126Z</time></trkpt><trkpt lat="44.7168542" lon="9.5148079"><ele>1093.0</ele><time>2026-03-22T10:21:06.113Z</time></trkpt><trkpt lat="44.7168651" lon="9.5149325"><ele>1093.0</ele><time>2026-03-22T10:21:07.116Z</time></trkpt><trkpt lat="44.7168669" lon="9.5150699"><ele>1093.0</ele><time>2026-03-22T10:21:08.114Z</time></trkpt><trkpt lat="44.7168726" lon="9.5153433"><ele>1093.0</ele><time>2026-03-22T10:21:10.124Z</time></trkpt><trkpt lat="44.716937" lon="9.5155363"><ele>1093.0</ele><time>2026-03-22T10:21:12.121Z</time></trkpt><trkpt lat="44.7169756" lon="9.5156142"><ele>1093.0</ele><time>2026-03-22T10:21:13.115Z</time></trkpt><trkpt lat="44.717023" lon="9.5157186"><ele>1094.2</ele><time>2026-03-22T10:21:15.625Z</time></trkpt><trkpt lat="44.7171354" lon="9.5157843"><ele>1095.4</ele><time>2026-03-22T10:21:19.21Z</time></trkpt><trkpt lat="44.7172119" lon="9.5157948"><ele>1096.6000000000001</ele><time>2026-03-22T10:21:21.118Z</time></trkpt><trkpt lat="44.7172935" lon="9.5158934"><ele>1097.8</ele><time>2026-03-22T10:21:23.475Z</time></trkpt><trkpt lat="44.7173678" lon="9.5160153"><ele>1099.0</ele><time>2026-03-22T10:21:25.48Z</time></trkpt><trkpt lat="44.7174288" lon="9.5160922"><ele>1099.0</ele><time>2026-03-22T10:21:27.474Z</time></trkpt><trkpt lat="44.7174987" lon="9.5161799"><ele>1099.0</ele><time>2026-03-22T10:21:29.482Z</time></trkpt><trkpt lat="44.7175429" lon="9.5162715"><ele>1099.0</ele><time>2026-03-22T10:21:31.487Z</time></trkpt><trkpt lat="44.7175721" lon="9.5163534"><ele>1099.0</ele><time>2026-03-22T10:21:33.124Z</time></trkpt><trkpt lat="44.7176434" lon="9.5164182"><ele>1099.0</ele><time>2026-03-22T10:21:37.12Z</time></trkpt><trkpt lat="44.7177098" lon="9.5164555"><ele>1099.0</ele><time>2026-03-22T10:21:39.119Z</time></trkpt><trkpt lat="44.7177778" lon="9.5164579"><ele>1096.2</ele><time>2026-03-22T10:21:40.197Z</time></trkpt><trkpt lat="44.7179153" lon="9.5164801"><ele>1093.4</ele><time>2026-03-22T10:21:42.117Z</time></trkpt><trkpt lat="44.7179943" lon="9.5164687"><ele>1090.6</ele><time>2026-03-22T10:21:44.122Z</time></trkpt><trkpt lat="44.7180598" lon="9.516465"><ele>1087.8</ele><time>2026-03-22T10:21:45.12Z</time></trkpt><trkpt lat="44.7181303" lon="9.5164588"><ele>1085.0</ele><time>2026-03-22T10:21:46.115Z</time></trkpt><trkpt lat="44.7182434" lon="9.5164304"><ele>1085.0</ele><time>2026-03-22T10:21:48.003Z</time></trkpt><trkpt lat="44.7183359" lon="9.5164208"><ele>1085.0</ele><time>2026-03-22T10:21:50.036Z</time></trkpt><trkpt lat="44.7183988" lon="9.5164626"><ele>1085.0</ele><time>2026-03-22T10:21:52.461Z</time></trkpt><trkpt lat="44.7184653" lon="9.5165114"><ele>1085.0</ele><time>2026-03-22T10:21:54.14Z</time></trkpt><trkpt lat="44.718552" lon="9.5165494"><ele>1085.0</ele><time>2026-03-22T10:21:57.121Z</time></trkpt><trkpt lat="44.7186346" lon="9.5166174"><ele>1085.0</ele><time>2026-03-22T10:22:00.193Z</time></trkpt><trkpt lat="44.7186933" lon="9.5167116"><ele>1085.0</ele><time>2026-03-22T10:22:21.635Z</time></trkpt><trkpt lat="44.7185986" lon="9.5167897"><ele>1085.0</ele><time>2026-03-22T10:22:24.205Z</time></trkpt><trkpt lat="44.7185093" lon="9.5168312"><ele>1085.0</ele><time>2026-03-22T10:22:26.172Z</time></trkpt><trkpt lat="44.718403" lon="9.5169008"><ele>1085.0</ele><time>2026-03-22T10:22:28.131Z</time></trkpt><trkpt lat="44.7182955" lon="9.516987"><ele>1085.0</ele><time>2026-03-22T10:22:30.025Z</time></trkpt><trkpt lat="44.7181996" lon="9.5170589"><ele>1081.6</ele><time>2026-03-22T10:22:32.122Z</time></trkpt><trkpt lat="44.7181306" lon="9.5171269"><ele>1078.2</ele><time>2026-03-22T10:22:34.12Z</time></trkpt><trkpt lat="44.7180483" lon="9.517209"><ele>1074.8</ele><time>2026-03-22T10:22:36.124Z</time></trkpt><trkpt lat="44.7179686" lon="9.5172982"><ele>1071.4</ele><time>2026-03-22T10:22:38.218Z</time></trkpt><trkpt lat="44.7179082" lon="9.5173724"><ele>1068.0</ele><time>2026-03-22T10:22:40.225Z</time></trkpt><trkpt lat="44.7178458" lon="9.5174666"><ele>1068.0</ele><time>2026-03-22T10:22:42.508Z</time></trkpt><trkpt lat="44.7178295" lon="9.5175616"><ele>1068.0</ele><time>2026-03-22T10:22:44.499Z</time></trkpt><trkpt lat="44.7177948" lon="9.5176412"><ele>1068.0</ele><time>2026-03-22T10:22:46.494Z</time></trkpt><trkpt lat="44.7177425" lon="9.5177075"><ele>1068.0</ele><time>2026-03-22T10:22:48.495Z</time></trkpt><trkpt lat="44.7176891" lon="9.5177809"><ele>1068.0</ele><time>2026-03-22T10:22:50.512Z</time></trkpt><trkpt lat="44.7176221" lon="9.5178479"><ele>1068.0</ele><time>2026-03-22T10:22:52.251Z</time></trkpt><trkpt lat="44.7175607" lon="9.5179474"><ele>1065.8</ele><time>2026-03-22T10:22:54.117Z</time></trkpt><trkpt lat="44.7175105" lon="9.5180535"><ele>1063.6</ele><time>2026-03-22T10:22:56.132Z</time></trkpt><trkpt lat="44.7174464" lon="9.518141"><ele>1061.4</ele><time>2026-03-22T10:22:58.112Z</time></trkpt><trkpt lat="44.7173844" lon="9.5182439"><ele>1059.2</ele><time>2026-03-22T10:23:00.116Z</time></trkpt><trkpt lat="44.7173585" lon="9.5183503"><ele>1057.0</ele><time>2026-03-22T10:23:01.122Z</time></trkpt><trkpt lat="44.7173573" lon="9.5184859"><ele>1057.0</ele><time>2026-03-22T10:23:03.129Z</time></trkpt><trkpt lat="44.7173865" lon="9.5185858"><ele>1057.0</ele><time>2026-03-22T10:23:05.121Z</time></trkpt><trkpt lat="44.717424" lon="9.5186826"><ele>1057.0</ele><time>2026-03-22T10:23:07.115Z</time></trkpt><trkpt lat="44.7174113" lon="9.5187791"><ele>1057.0</ele><time>2026-03-22T10:23:09.129Z</time></trkpt><trkpt lat="44.7173785" lon="9.5188807"><ele>1057.0</ele><time>2026-03-22T10:23:11.124Z</time></trkpt><trkpt lat="44.7173034" lon="9.5190389"><ele>1057.0</ele><time>2026-03-22T10:23:14.143Z</time></trkpt><trkpt lat="44.7172531" lon="9.5191083"><ele>1054.0</ele><time>2026-03-22T10:23:15.194Z</time></trkpt><trkpt lat="44.7171753" lon="9.5192144"><ele>1051.0</ele><time>2026-03-22T10:23:17.22Z</time></trkpt><trkpt lat="44.717122" lon="9.5192955"><ele>1048.0</ele><time>2026-03-22T10:23:19.217Z</time></trkpt><trkpt lat="44.717053" lon="9.5193573"><ele>1045.0</ele><time>2026-03-22T10:23:21.217Z</time></trkpt><trkpt lat="44.7170063" lon="9.5194201"><ele>1042.0</ele><time>2026-03-22T10:23:23.209Z</time></trkpt><trkpt lat="44.7169649" lon="9.5196401"><ele>1039.8333333333333</ele><time>2026-03-22T10:23:26.2Z</time></trkpt><trkpt lat="44.7169215" lon="9.5197329"><ele>1037.6666666666665</ele><time>2026-03-22T10:23:27.21Z</time></trkpt><trkpt lat="44.7168665" lon="9.5198157"><ele>1035.5</ele><time>2026-03-22T10:23:28.202Z</time></trkpt><trkpt lat="44.7167922" lon="9.5199323"><ele>1033.3333333333333</ele><time>2026-03-22T10:23:30.233Z</time></trkpt><trkpt lat="44.7167305" lon="9.5200126"><ele>1031.1666666666667</ele><time>2026-03-22T10:23:31.254Z</time></trkpt><trkpt lat="44.7166786" lon="9.5200907"><ele>1029.0</ele><time>2026-03-22T10:23:32.279Z</time></trkpt><trkpt lat="44.7165899" lon="9.5202167"><ele>1029.0</ele><time>2026-03-22T10:23:34.123Z</time></trkpt><trkpt lat="44.7164954" lon="9.5203608"><ele>1029.0</ele><time>2026-03-22T10:23:37.467Z</time></trkpt><trkpt lat="44.7164405" lon="9.5204306"><ele>1029.0</ele><time>2026-03-22T10:23:39.502Z</time></trkpt><trkpt lat="44.7163858" lon="9.5204887"><ele>1029.0</ele><time>2026-03-22T10:23:41.259Z</time></trkpt><trkpt lat="44.716339" lon="9.5206245"><ele>1029.0</ele><time>2026-03-22T10:23:44.494Z</time></trkpt><trkpt lat="44.716304" lon="9.5207509"><ele>1024.75</ele><time>2026-03-22T10:23:47.46Z</time></trkpt><trkpt lat="44.716228" lon="9.5208969"><ele>1020.5</ele><time>2026-03-22T10:23:50.507Z</time></trkpt><trkpt lat="44.7161408" lon="9.5210661"><ele>1016.25</ele><time>2026-03-22T10:23:53.241Z</time></trkpt><trkpt lat="44.7161013" lon="9.5212621"><ele>1012.0</ele><time>2026-03-22T10:23:56.767Z</time></trkpt><trkpt lat="44.7160487" lon="9.5213659"><ele>1009.0</ele><time>2026-03-22T10:23:58.768Z</time></trkpt><trkpt lat="44.7159733" lon="9.5214555"><ele>1006.0</ele><time>2026-03-22T10:24:00.788Z</time></trkpt><trkpt lat="44.7158876" lon="9.5215585"><ele>1003.0</ele><time>2026-03-22T10:24:02.783Z</time></trkpt><trkpt lat="44.7158171" lon="9.5216325"><ele>1000.0</ele><time>2026-03-22T10:24:04.793Z</time></trkpt><trkpt lat="44.7157415" lon="9.5217174"><ele>997.0</ele><time>2026-03-22T10:24:06.798Z</time></trkpt><trkpt lat="44.7156692" lon="9.5217894"><ele>997.0</ele><time>2026-03-22T10:24:08.411Z</time></trkpt><trkpt lat="44.7155551" lon="9.5218428"><ele>997.0</ele><time>2026-03-22T10:24:11.292Z</time></trkpt><trkpt lat="44.7154566" lon="9.5219524"><ele>997.0</ele><time>2026-03-22T10:24:14.16Z</time></trkpt><trkpt lat="44.7154039" lon="9.5221549"><ele>997.0</ele><time>2026-03-22T10:24:17.312Z</time></trkpt><trkpt lat="44.7153754" lon="9.5222366"><ele>995.6</ele><time>2026-03-22T10:24:18.327Z</time></trkpt><trkpt lat="44.7153252" lon="9.5223857"><ele>994.2</ele><time>2026-03-22T10:24:20.012Z</time></trkpt><trkpt lat="44.7152402" lon="9.5224837"><ele>992.8</ele><time>2026-03-22T10:24:22.118Z</time></trkpt><trkpt lat="44.7151437" lon="9.5225382"><ele>991.4</ele><time>2026-03-22T10:24:24.622Z</time></trkpt><trkpt lat="44.7150768" lon="9.522601"><ele>990.0</ele><time>2026-03-22T10:24:26.612Z</time></trkpt><trkpt lat="44.7150121" lon="9.522765"><ele>990.0</ele><time>2026-03-22T10:24:29.409Z</time></trkpt><trkpt lat="44.7149486" lon="9.5228615"><ele>990.0</ele><time>2026-03-22T10:24:31.612Z</time></trkpt><trkpt lat="44.7148949" lon="9.5229094"><ele>990.0</ele><time>2026-03-22T10:24:32.622Z</time></trkpt><trkpt lat="44.7148212" lon="9.5229708"><ele>990.0</ele><time>2026-03-22T10:24:34.626Z</time></trkpt><trkpt lat="44.7147716" lon="9.5230282"><ele>990.0</ele><time>2026-03-22T10:24:36.663Z</time></trkpt><trkpt lat="44.7147373" lon="9.5231332"><ele>990.0</ele><time>2026-03-22T10:24:38.633Z</time></trkpt><trkpt lat="44.7147065" lon="9.5232105"><ele>987.8</ele><time>2026-03-22T10:24:39.647Z</time></trkpt><trkpt lat="44.7146309" lon="9.5234189"><ele>985.6</ele><time>2026-03-22T10:24:42.829Z</time></trkpt><trkpt lat="44.7145916" lon="9.5235755"><ele>983.4000000000001</ele><time>2026-03-22T10:24:44.83Z</time></trkpt><trkpt lat="44.7145655" lon="9.5236661"><ele>981.2</ele><time>2026-03-22T10:24:45.856Z</time></trkpt><trkpt lat="44.7145362" lon="9.5237545"><ele>979.0</ele><time>2026-03-22T10:24:46.837Z</time></trkpt><trkpt lat="44.714508" lon="9.5238837"><ele>978.6666666666666</ele><time>2026-03-22T10:24:48.95Z</time></trkpt><trkpt lat="44.7144861" lon="9.5239724"><ele>978.3333333333333</ele><time>2026-03-22T10:24:50.702Z</time></trkpt><trkpt lat="44.7144663" lon="9.5240742"><ele>978.0</ele><time>2026-03-22T10:24:52.726Z</time></trkpt><trkpt lat="44.7144421" lon="9.5241682"><ele>977.6666666666667</ele><time>2026-03-22T10:24:54.833Z</time></trkpt><trkpt lat="44.714413" lon="9.5243117"><ele>977.3333333333334</ele><time>2026-03-22T10:24:56.718Z</time></trkpt><trkpt lat="44.7143961" lon="9.5244331"><ele>977.0</ele><time>2026-03-22T10:24:57.716Z</time></trkpt><trkpt lat="44.714391" lon="9.5245976"><ele>974.6</ele><time>2026-03-22T10:24:59.45Z</time></trkpt><trkpt lat="44.7144002" lon="9.5247463"><ele>972.2</ele><time>2026-03-22T10:25:01.619Z</time></trkpt><trkpt lat="44.7144095" lon="9.524848"><ele>969.8</ele><time>2026-03-22T10:25:02.623Z</time></trkpt><trkpt lat="44.7144185" lon="9.5249364"><ele>967.4</ele><time>2026-03-22T10:25:03.653Z</time></trkpt><trkpt lat="44.7144629" lon="9.5251615"><ele>965.0</ele><time>2026-03-22T10:25:05.425Z</time></trkpt><trkpt lat="44.7144997" lon="9.5252995"><ele>962.8</ele><time>2026-03-22T10:25:06.722Z</time></trkpt><trkpt lat="44.7145473" lon="9.5255588"><ele>960.6</ele><time>2026-03-22T10:25:08.516Z</time></trkpt><trkpt lat="44.714536" lon="9.5256602"><ele>958.4000000000001</ele><time>2026-03-22T10:25:09.506Z</time></trkpt><trkpt lat="44.7145015" lon="9.5257507"><ele>956.2</ele><time>2026-03-22T10:25:10.515Z</time></trkpt><trkpt lat="44.714456" lon="9.5258392"><ele>954.0</ele><time>2026-03-22T10:25:11.517Z</time></trkpt><trkpt lat="44.7144118" lon="9.5259302"><ele>954.0</ele><time>2026-03-22T10:25:12.519Z</time></trkpt><trkpt lat="44.7143719" lon="9.5260222"><ele>954.0</ele><time>2026-03-22T10:25:13.527Z</time></trkpt><trkpt lat="44.7143326" lon="9.5261132"><ele>954.0</ele><time>2026-03-22T10:25:14.53Z</time></trkpt><trkpt lat="44.7142999" lon="9.5262016"><ele>954.0</ele><time>2026-03-22T10:25:15.866Z</time></trkpt><trkpt lat="44.71426" lon="9.5262888"><ele>954.0</ele><time>2026-03-22T10:25:16.871Z</time></trkpt><trkpt lat="44.7141924" lon="9.5264681"><ele>954.0</ele><time>2026-03-22T10:25:18.775Z</time></trkpt><trkpt lat="44.7141584" lon="9.5265502"><ele>952.2</ele><time>2026-03-22T10:25:19.896Z</time></trkpt><trkpt lat="44.7141245" lon="9.5266386"><ele>950.4000000000001</ele><time>2026-03-22T10:25:20.876Z</time></trkpt><trkpt lat="44.7140914" lon="9.5267297"><ele>948.6</ele><time>2026-03-22T10:25:21.88Z</time></trkpt><trkpt lat="44.7140558" lon="9.5268795"><ele>946.8</ele><time>2026-03-22T10:25:23.869Z</time></trkpt><trkpt lat="44.7140214" lon="9.5270087"><ele>945.0</ele><time>2026-03-22T10:25:25.771Z</time></trkpt><trkpt lat="44.7139678" lon="9.5271336"><ele>935.0</ele><time>2026-03-22T10:25:27.773Z</time></trkpt><trkpt lat="44.7139236" lon="9.5272305"><ele>935.0</ele><time>2026-03-22T10:25:29.778Z</time></trkpt><trkpt lat="44.7138629" lon="9.5274459"><ele>935.0</ele><time>2026-03-22T10:25:32.342Z</time></trkpt><trkpt lat="44.7137832" lon="9.5275308"><ele>935.0</ele><time>2026-03-22T10:25:35.367Z</time></trkpt></trkseg></trk></gpx>